<?xml version="1.0" encoding="UTF-8" standalone="no" ?>
<gpx xmlns="http://www.topografix.com/GPX/1/1" xmlns:xsi="http://www.w3.org/2001/XMLSchema-instance" xsi:schemaLocation="http://www.topografix.com/GPX/1/1 http://www.topografix.com/GPX/1/1/gpx.xsd" version="1.1" creator="VisuGPX - https://www.visugpx.com">
  <metadata>
    <name>Rando du Hibou 2015</name>
    <desc><![CDATA[Parcours de 35 km]]></desc>
  </metadata>
  <trk>
    <name><![CDATA[2015-06-21 08:04]]></name>
    <desc><![CDATA[<h1>OruxMaps</h1><br /><hr align="center" width="480" style="height: 2px; width: 517px"/><h2>Nom: 2015-06-21 08:04</h2><br /><p>Temps de départ: 06/21/2015 08:04</p><p>Temps d'arrivée: 06/21/2015 12:20</p><p>Distance: 31,9km (04:15)</p><p>Temps déplacement: 03:37</p><p>Vitesse moyenne: 7,5km/h</p><p>Vitesse moyenne: 8,8km/h</p><p>Vitess Max.: 31,7km/h</p><p>Altitude minimale: 434m</p><p>Altitude maximale: 898m</p><p>Vitesse d'élévation: 521,6m/h</p><p>Vitesse de descente: -1406,6m/h</p><p>Gain Altitude: 1461m</p><p>Perte Altitude: -1440m</p><p>Temps d'élévation: 02:48</p><p>Temps de descente: 01:01</p><hr align="center" width="480" style="height: 2px; width: 517px"/>]]></desc>
    <trkseg>
      <trkpt lat="45.39748" lon="5.66917">
        <ele>434.05</ele>
        <time>2015-06-21T06:04:28Z</time>
      </trkpt>
      <trkpt lat="45.39767" lon="5.66918">
        <ele>454.35</ele>
        <time>2015-06-21T06:06:32Z</time>
      </trkpt>
      <trkpt lat="45.39782" lon="5.66937">
        <ele>456.64</ele>
        <time>2015-06-21T06:06:42Z</time>
      </trkpt>
      <trkpt lat="45.3979" lon="5.66959">
        <ele>457.31</ele>
        <time>2015-06-21T06:06:48Z</time>
      </trkpt>
      <trkpt lat="45.39798" lon="5.66983">
        <ele>458.78</ele>
        <time>2015-06-21T06:06:54Z</time>
      </trkpt>
      <trkpt lat="45.39808" lon="5.67008">
        <ele>460.09</ele>
        <time>2015-06-21T06:07:00Z</time>
      </trkpt>
      <trkpt lat="45.39817" lon="5.6703">
        <ele>460.82</ele>
        <time>2015-06-21T06:07:05Z</time>
      </trkpt>
      <trkpt lat="45.39832" lon="5.67054">
        <ele>461.49</ele>
        <time>2015-06-21T06:07:11Z</time>
      </trkpt>
      <trkpt lat="45.39846" lon="5.6707">
        <ele>462.64</ele>
        <time>2015-06-21T06:07:16Z</time>
      </trkpt>
      <trkpt lat="45.39864" lon="5.67079">
        <ele>464.5</ele>
        <time>2015-06-21T06:07:23Z</time>
      </trkpt>
      <trkpt lat="45.39872" lon="5.67103">
        <ele>465.03</ele>
        <time>2015-06-21T06:07:44Z</time>
      </trkpt>
      <trkpt lat="45.39863" lon="5.67128">
        <ele>466.84</ele>
        <time>2015-06-21T06:10:46Z</time>
      </trkpt>
      <trkpt lat="45.39845" lon="5.67134">
        <ele>468.53</ele>
        <time>2015-06-21T06:10:55Z</time>
      </trkpt>
      <trkpt lat="45.39827" lon="5.67139">
        <ele>464.23</ele>
        <time>2015-06-21T06:11:02Z</time>
      </trkpt>
      <trkpt lat="45.39811" lon="5.67153">
        <ele>459.12</ele>
        <time>2015-06-21T06:11:08Z</time>
      </trkpt>
      <trkpt lat="45.39794" lon="5.6717">
        <ele>461.4</ele>
        <time>2015-06-21T06:11:14Z</time>
      </trkpt>
      <trkpt lat="45.39781" lon="5.6719">
        <ele>463.89</ele>
        <time>2015-06-21T06:11:20Z</time>
      </trkpt>
      <trkpt lat="45.39764" lon="5.67204">
        <ele>465.49</ele>
        <time>2015-06-21T06:11:26Z</time>
      </trkpt>
      <trkpt lat="45.39746" lon="5.67209">
        <ele>467.96</ele>
        <time>2015-06-21T06:11:33Z</time>
      </trkpt>
      <trkpt lat="45.39727" lon="5.67208">
        <ele>469.55</ele>
        <time>2015-06-21T06:11:40Z</time>
      </trkpt>
      <trkpt lat="45.39708" lon="5.67213">
        <ele>473.49</ele>
        <time>2015-06-21T06:11:51Z</time>
      </trkpt>
      <trkpt lat="45.3969" lon="5.67219">
        <ele>475.84</ele>
        <time>2015-06-21T06:12:04Z</time>
      </trkpt>
      <trkpt lat="45.39672" lon="5.67223">
        <ele>475.79</ele>
        <time>2015-06-21T06:12:18Z</time>
      </trkpt>
      <trkpt lat="45.39652" lon="5.67232">
        <ele>475.77</ele>
        <time>2015-06-21T06:12:34Z</time>
      </trkpt>
      <trkpt lat="45.39634" lon="5.6723">
        <ele>476.93</ele>
        <time>2015-06-21T06:12:46Z</time>
      </trkpt>
      <trkpt lat="45.39616" lon="5.67232">
        <ele>479.52</ele>
        <time>2015-06-21T06:13:01Z</time>
      </trkpt>
      <trkpt lat="45.39598" lon="5.67228">
        <ele>481.73</ele>
        <time>2015-06-21T06:13:18Z</time>
      </trkpt>
      <trkpt lat="45.39583" lon="5.67212">
        <ele>484.3</ele>
        <time>2015-06-21T06:13:32Z</time>
      </trkpt>
      <trkpt lat="45.39566" lon="5.67206">
        <ele>491.94</ele>
        <time>2015-06-21T06:13:48Z</time>
      </trkpt>
      <trkpt lat="45.39548" lon="5.67199">
        <ele>495.88</ele>
        <time>2015-06-21T06:14:03Z</time>
      </trkpt>
      <trkpt lat="45.3953" lon="5.6719">
        <ele>502.52</ele>
        <time>2015-06-21T06:14:20Z</time>
      </trkpt>
      <trkpt lat="45.39513" lon="5.67179">
        <ele>508.1</ele>
        <time>2015-06-21T06:14:34Z</time>
      </trkpt>
      <trkpt lat="45.39495" lon="5.67172">
        <ele>509.5</ele>
        <time>2015-06-21T06:14:51Z</time>
      </trkpt>
      <trkpt lat="45.39476" lon="5.67163">
        <ele>510.25</ele>
        <time>2015-06-21T06:15:04Z</time>
      </trkpt>
      <trkpt lat="45.39458" lon="5.67159">
        <ele>510.58</ele>
        <time>2015-06-21T06:15:21Z</time>
      </trkpt>
      <trkpt lat="45.3944" lon="5.67149">
        <ele>512.29</ele>
        <time>2015-06-21T06:15:36Z</time>
      </trkpt>
      <trkpt lat="45.39422" lon="5.67137">
        <ele>513.25</ele>
        <time>2015-06-21T06:15:51Z</time>
      </trkpt>
      <trkpt lat="45.39428" lon="5.67162">
        <ele>523.59</ele>
        <time>2015-06-21T06:16:28Z</time>
      </trkpt>
      <trkpt lat="45.39439" lon="5.67184">
        <ele>525.71</ele>
        <time>2015-06-21T06:16:41Z</time>
      </trkpt>
      <trkpt lat="45.3945" lon="5.67207">
        <ele>532.74</ele>
        <time>2015-06-21T06:16:56Z</time>
      </trkpt>
      <trkpt lat="45.39466" lon="5.67223">
        <ele>538.54</ele>
        <time>2015-06-21T06:17:11Z</time>
      </trkpt>
      <trkpt lat="45.39479" lon="5.67243">
        <ele>540.21</ele>
        <time>2015-06-21T06:17:29Z</time>
      </trkpt>
      <trkpt lat="45.39491" lon="5.67263">
        <ele>543.67</ele>
        <time>2015-06-21T06:17:45Z</time>
      </trkpt>
      <trkpt lat="45.39503" lon="5.67282">
        <ele>546.25</ele>
        <time>2015-06-21T06:18:00Z</time>
      </trkpt>
      <trkpt lat="45.39513" lon="5.67305">
        <ele>545.97</ele>
        <time>2015-06-21T06:18:14Z</time>
      </trkpt>
      <trkpt lat="45.39527" lon="5.67321">
        <ele>546.8</ele>
        <time>2015-06-21T06:18:30Z</time>
      </trkpt>
      <trkpt lat="45.3954" lon="5.67342">
        <ele>548.8</ele>
        <time>2015-06-21T06:18:46Z</time>
      </trkpt>
      <trkpt lat="45.39551" lon="5.67361">
        <ele>550.85</ele>
        <time>2015-06-21T06:19:02Z</time>
      </trkpt>
      <trkpt lat="45.39561" lon="5.67385">
        <ele>553.83</ele>
        <time>2015-06-21T06:19:16Z</time>
      </trkpt>
      <trkpt lat="45.3957" lon="5.67407">
        <ele>556.72</ele>
        <time>2015-06-21T06:19:35Z</time>
      </trkpt>
      <trkpt lat="45.39585" lon="5.67423">
        <ele>562.2</ele>
        <time>2015-06-21T06:19:57Z</time>
      </trkpt>
      <trkpt lat="45.39595" lon="5.67445">
        <ele>566.9</ele>
        <time>2015-06-21T06:20:12Z</time>
      </trkpt>
      <trkpt lat="45.39599" lon="5.67471">
        <ele>572.11</ele>
        <time>2015-06-21T06:20:29Z</time>
      </trkpt>
      <trkpt lat="45.39611" lon="5.67491">
        <ele>574.76</ele>
        <time>2015-06-21T06:21:59Z</time>
      </trkpt>
      <trkpt lat="45.39622" lon="5.67513">
        <ele>575.54</ele>
        <time>2015-06-21T06:22:12Z</time>
      </trkpt>
      <trkpt lat="45.39635" lon="5.67533">
        <ele>577.77</ele>
        <time>2015-06-21T06:22:26Z</time>
      </trkpt>
      <trkpt lat="45.39653" lon="5.67542">
        <ele>584.86</ele>
        <time>2015-06-21T06:22:41Z</time>
      </trkpt>
      <trkpt lat="45.39668" lon="5.67557">
        <ele>585.68</ele>
        <time>2015-06-21T06:22:55Z</time>
      </trkpt>
      <trkpt lat="45.39685" lon="5.67568">
        <ele>585.84</ele>
        <time>2015-06-21T06:23:06Z</time>
      </trkpt>
      <trkpt lat="45.39701" lon="5.67581">
        <ele>586.03</ele>
        <time>2015-06-21T06:23:17Z</time>
      </trkpt>
      <trkpt lat="45.39715" lon="5.67599">
        <ele>584.96</ele>
        <time>2015-06-21T06:23:23Z</time>
      </trkpt>
      <trkpt lat="45.39723" lon="5.67623">
        <ele>586.56</ele>
        <time>2015-06-21T06:23:33Z</time>
      </trkpt>
      <trkpt lat="45.39737" lon="5.67646">
        <ele>586.54</ele>
        <time>2015-06-21T06:23:40Z</time>
      </trkpt>
      <trkpt lat="45.39752" lon="5.67663">
        <ele>584.34</ele>
        <time>2015-06-21T06:23:46Z</time>
      </trkpt>
      <trkpt lat="45.39758" lon="5.67688">
        <ele>587.15</ele>
        <time>2015-06-21T06:23:54Z</time>
      </trkpt>
      <trkpt lat="45.39771" lon="5.6771">
        <ele>585.96</ele>
        <time>2015-06-21T06:24:00Z</time>
      </trkpt>
      <trkpt lat="45.39784" lon="5.67726">
        <ele>586.05</ele>
        <time>2015-06-21T06:24:06Z</time>
      </trkpt>
      <trkpt lat="45.39793" lon="5.67751">
        <ele>590.65</ele>
        <time>2015-06-21T06:24:14Z</time>
      </trkpt>
      <trkpt lat="45.3981" lon="5.67769">
        <ele>595.78</ele>
        <time>2015-06-21T06:24:19Z</time>
      </trkpt>
      <trkpt lat="45.39819" lon="5.67793">
        <ele>597.78</ele>
        <time>2015-06-21T06:24:25Z</time>
      </trkpt>
      <trkpt lat="45.39823" lon="5.67822">
        <ele>597.49</ele>
        <time>2015-06-21T06:24:33Z</time>
      </trkpt>
      <trkpt lat="45.39838" lon="5.67837">
        <ele>597.95</ele>
        <time>2015-06-21T06:24:38Z</time>
      </trkpt>
      <trkpt lat="45.39853" lon="5.67856">
        <ele>599</ele>
        <time>2015-06-21T06:24:43Z</time>
      </trkpt>
      <trkpt lat="45.39869" lon="5.67871">
        <ele>595.64</ele>
        <time>2015-06-21T06:24:50Z</time>
      </trkpt>
      <trkpt lat="45.39884" lon="5.67884">
        <ele>595.28</ele>
        <time>2015-06-21T06:24:56Z</time>
      </trkpt>
      <trkpt lat="45.39901" lon="5.67894">
        <ele>593.49</ele>
        <time>2015-06-21T06:25:06Z</time>
      </trkpt>
      <trkpt lat="45.39914" lon="5.67914">
        <ele>594.87</ele>
        <time>2015-06-21T06:25:19Z</time>
      </trkpt>
      <trkpt lat="45.39928" lon="5.67938">
        <ele>590.09</ele>
        <time>2015-06-21T06:25:24Z</time>
      </trkpt>
      <trkpt lat="45.39947" lon="5.67952">
        <ele>590.31</ele>
        <time>2015-06-21T06:25:29Z</time>
      </trkpt>
      <trkpt lat="45.39962" lon="5.67971">
        <ele>595.08</ele>
        <time>2015-06-21T06:25:35Z</time>
      </trkpt>
      <trkpt lat="45.39975" lon="5.67989">
        <ele>593.76</ele>
        <time>2015-06-21T06:25:38Z</time>
      </trkpt>
      <trkpt lat="45.39988" lon="5.68011">
        <ele>592.08</ele>
        <time>2015-06-21T06:25:43Z</time>
      </trkpt>
      <trkpt lat="45.40005" lon="5.68032">
        <ele>591.33</ele>
        <time>2015-06-21T06:25:49Z</time>
      </trkpt>
      <trkpt lat="45.40014" lon="5.68057">
        <ele>586.06</ele>
        <time>2015-06-21T06:25:56Z</time>
      </trkpt>
      <trkpt lat="45.4003" lon="5.68068">
        <ele>586.68</ele>
        <time>2015-06-21T06:26:22Z</time>
      </trkpt>
      <trkpt lat="45.4005" lon="5.68075">
        <ele>590.24</ele>
        <time>2015-06-21T06:26:30Z</time>
      </trkpt>
      <trkpt lat="45.40066" lon="5.68091">
        <ele>586.48</ele>
        <time>2015-06-21T06:26:36Z</time>
      </trkpt>
      <trkpt lat="45.40081" lon="5.68107">
        <ele>584.92</ele>
        <time>2015-06-21T06:26:46Z</time>
      </trkpt>
      <trkpt lat="45.40098" lon="5.68115">
        <ele>586.81</ele>
        <time>2015-06-21T06:26:50Z</time>
      </trkpt>
      <trkpt lat="45.40117" lon="5.68121">
        <ele>590.28</ele>
        <time>2015-06-21T06:26:58Z</time>
      </trkpt>
      <trkpt lat="45.40134" lon="5.68133">
        <ele>592.45</ele>
        <time>2015-06-21T06:27:06Z</time>
      </trkpt>
      <trkpt lat="45.40152" lon="5.68135">
        <ele>593.05</ele>
        <time>2015-06-21T06:27:16Z</time>
      </trkpt>
      <trkpt lat="45.40171" lon="5.68137">
        <ele>593.83</ele>
        <time>2015-06-21T06:27:26Z</time>
      </trkpt>
      <trkpt lat="45.40191" lon="5.68145">
        <ele>593.22</ele>
        <time>2015-06-21T06:27:34Z</time>
      </trkpt>
      <trkpt lat="45.40208" lon="5.68155">
        <ele>595.06</ele>
        <time>2015-06-21T06:27:42Z</time>
      </trkpt>
      <trkpt lat="45.40227" lon="5.68161">
        <ele>599.67</ele>
        <time>2015-06-21T06:27:57Z</time>
      </trkpt>
      <trkpt lat="45.40245" lon="5.68176">
        <ele>600.66</ele>
        <time>2015-06-21T06:28:09Z</time>
      </trkpt>
      <trkpt lat="45.40262" lon="5.68187">
        <ele>599.61</ele>
        <time>2015-06-21T06:28:20Z</time>
      </trkpt>
      <trkpt lat="45.40279" lon="5.68199">
        <ele>600.68</ele>
        <time>2015-06-21T06:28:35Z</time>
      </trkpt>
      <trkpt lat="45.40295" lon="5.68213">
        <ele>600.88</ele>
        <time>2015-06-21T06:28:43Z</time>
      </trkpt>
      <trkpt lat="45.40312" lon="5.68223">
        <ele>600.12</ele>
        <time>2015-06-21T06:28:51Z</time>
      </trkpt>
      <trkpt lat="45.4033" lon="5.68226">
        <ele>603.62</ele>
        <time>2015-06-21T06:29:02Z</time>
      </trkpt>
      <trkpt lat="45.4035" lon="5.68226">
        <ele>608.73</ele>
        <time>2015-06-21T06:29:13Z</time>
      </trkpt>
      <trkpt lat="45.40368" lon="5.68231">
        <ele>611.19</ele>
        <time>2015-06-21T06:29:29Z</time>
      </trkpt>
      <trkpt lat="45.40386" lon="5.68229">
        <ele>610.72</ele>
        <time>2015-06-21T06:29:39Z</time>
      </trkpt>
      <trkpt lat="45.40401" lon="5.68243">
        <ele>616.26</ele>
        <time>2015-06-21T06:29:55Z</time>
      </trkpt>
      <trkpt lat="45.40419" lon="5.68257">
        <ele>616.89</ele>
        <time>2015-06-21T06:30:23Z</time>
      </trkpt>
      <trkpt lat="45.40436" lon="5.6827">
        <ele>614.28</ele>
        <time>2015-06-21T06:30:31Z</time>
      </trkpt>
      <trkpt lat="45.40452" lon="5.68281">
        <ele>611.09</ele>
        <time>2015-06-21T06:30:39Z</time>
      </trkpt>
      <trkpt lat="45.40465" lon="5.68302">
        <ele>610.94</ele>
        <time>2015-06-21T06:30:50Z</time>
      </trkpt>
      <trkpt lat="45.40477" lon="5.68322">
        <ele>611.66</ele>
        <time>2015-06-21T06:31:02Z</time>
      </trkpt>
      <trkpt lat="45.40493" lon="5.68335">
        <ele>612.5</ele>
        <time>2015-06-21T06:31:10Z</time>
      </trkpt>
      <trkpt lat="45.40513" lon="5.68342">
        <ele>614.19</ele>
        <time>2015-06-21T06:31:16Z</time>
      </trkpt>
      <trkpt lat="45.40533" lon="5.68346">
        <ele>613.58</ele>
        <time>2015-06-21T06:31:22Z</time>
      </trkpt>
      <trkpt lat="45.40552" lon="5.68352">
        <ele>613.44</ele>
        <time>2015-06-21T06:31:28Z</time>
      </trkpt>
      <trkpt lat="45.4057" lon="5.6836">
        <ele>612.69</ele>
        <time>2015-06-21T06:31:35Z</time>
      </trkpt>
      <trkpt lat="45.40591" lon="5.68365">
        <ele>610.99</ele>
        <time>2015-06-21T06:31:43Z</time>
      </trkpt>
      <trkpt lat="45.40607" lon="5.6838">
        <ele>611.49</ele>
        <time>2015-06-21T06:31:48Z</time>
      </trkpt>
      <trkpt lat="45.40626" lon="5.68394">
        <ele>611.16</ele>
        <time>2015-06-21T06:31:54Z</time>
      </trkpt>
      <trkpt lat="45.40646" lon="5.68402">
        <ele>610.99</ele>
        <time>2015-06-21T06:32:00Z</time>
      </trkpt>
      <trkpt lat="45.40663" lon="5.68415">
        <ele>610.89</ele>
        <time>2015-06-21T06:32:06Z</time>
      </trkpt>
      <trkpt lat="45.40681" lon="5.68431">
        <ele>611.41</ele>
        <time>2015-06-21T06:32:12Z</time>
      </trkpt>
      <trkpt lat="45.40695" lon="5.68451">
        <ele>612.26</ele>
        <time>2015-06-21T06:32:19Z</time>
      </trkpt>
      <trkpt lat="45.40707" lon="5.68474">
        <ele>614.25</ele>
        <time>2015-06-21T06:32:27Z</time>
      </trkpt>
      <trkpt lat="45.40715" lon="5.68498">
        <ele>614.29</ele>
        <time>2015-06-21T06:32:33Z</time>
      </trkpt>
      <trkpt lat="45.40722" lon="5.68524">
        <ele>614.4</ele>
        <time>2015-06-21T06:32:40Z</time>
      </trkpt>
      <trkpt lat="45.40733" lon="5.68546">
        <ele>609.19</ele>
        <time>2015-06-21T06:32:45Z</time>
      </trkpt>
      <trkpt lat="45.40738" lon="5.68575">
        <ele>609.2</ele>
        <time>2015-06-21T06:32:52Z</time>
      </trkpt>
      <trkpt lat="45.40746" lon="5.68603">
        <ele>610.58</ele>
        <time>2015-06-21T06:32:59Z</time>
      </trkpt>
      <trkpt lat="45.40752" lon="5.68628">
        <ele>611.97</ele>
        <time>2015-06-21T06:33:05Z</time>
      </trkpt>
      <trkpt lat="45.40759" lon="5.68654">
        <ele>613.43</ele>
        <time>2015-06-21T06:33:11Z</time>
      </trkpt>
      <trkpt lat="45.40763" lon="5.68679">
        <ele>614.42</ele>
        <time>2015-06-21T06:33:17Z</time>
      </trkpt>
      <trkpt lat="45.40775" lon="5.68704">
        <ele>615.44</ele>
        <time>2015-06-21T06:33:26Z</time>
      </trkpt>
      <trkpt lat="45.40786" lon="5.68729">
        <ele>615</ele>
        <time>2015-06-21T06:33:32Z</time>
      </trkpt>
      <trkpt lat="45.40804" lon="5.68741">
        <ele>613.2</ele>
        <time>2015-06-21T06:33:38Z</time>
      </trkpt>
      <trkpt lat="45.40826" lon="5.68734">
        <ele>612.28</ele>
        <time>2015-06-21T06:33:42Z</time>
      </trkpt>
      <trkpt lat="45.40846" lon="5.68735">
        <ele>611.93</ele>
        <time>2015-06-21T06:33:45Z</time>
      </trkpt>
      <trkpt lat="45.40866" lon="5.68748">
        <ele>611.95</ele>
        <time>2015-06-21T06:33:48Z</time>
      </trkpt>
      <trkpt lat="45.40881" lon="5.68761">
        <ele>612.6</ele>
        <time>2015-06-21T06:33:52Z</time>
      </trkpt>
      <trkpt lat="45.40899" lon="5.68755">
        <ele>613.59</ele>
        <time>2015-06-21T06:33:57Z</time>
      </trkpt>
      <trkpt lat="45.40921" lon="5.68756">
        <ele>611.33</ele>
        <time>2015-06-21T06:34:05Z</time>
      </trkpt>
      <trkpt lat="45.40939" lon="5.68768">
        <ele>609.61</ele>
        <time>2015-06-21T06:34:10Z</time>
      </trkpt>
      <trkpt lat="45.40954" lon="5.68784">
        <ele>607.58</ele>
        <time>2015-06-21T06:34:13Z</time>
      </trkpt>
      <trkpt lat="45.40972" lon="5.68798">
        <ele>607.98</ele>
        <time>2015-06-21T06:34:17Z</time>
      </trkpt>
      <trkpt lat="45.40991" lon="5.68808">
        <ele>608.05</ele>
        <time>2015-06-21T06:34:21Z</time>
      </trkpt>
      <trkpt lat="45.41009" lon="5.68799">
        <ele>607.64</ele>
        <time>2015-06-21T06:34:24Z</time>
      </trkpt>
      <trkpt lat="45.41027" lon="5.68791">
        <ele>605.76</ele>
        <time>2015-06-21T06:34:28Z</time>
      </trkpt>
      <trkpt lat="45.41046" lon="5.68799">
        <ele>604.3</ele>
        <time>2015-06-21T06:34:31Z</time>
      </trkpt>
      <trkpt lat="45.41064" lon="5.68799">
        <ele>601.3</ele>
        <time>2015-06-21T06:34:36Z</time>
      </trkpt>
      <trkpt lat="45.41083" lon="5.68799">
        <ele>601.49</ele>
        <time>2015-06-21T06:34:56Z</time>
      </trkpt>
      <trkpt lat="45.41098" lon="5.6878">
        <ele>605.52</ele>
        <time>2015-06-21T06:35:09Z</time>
      </trkpt>
      <trkpt lat="45.41109" lon="5.68754">
        <ele>608.93</ele>
        <time>2015-06-21T06:35:16Z</time>
      </trkpt>
      <trkpt lat="45.41122" lon="5.68732">
        <ele>610.58</ele>
        <time>2015-06-21T06:35:21Z</time>
      </trkpt>
      <trkpt lat="45.41141" lon="5.68727">
        <ele>609.91</ele>
        <time>2015-06-21T06:35:26Z</time>
      </trkpt>
      <trkpt lat="45.4116" lon="5.68721">
        <ele>612.75</ele>
        <time>2015-06-21T06:35:34Z</time>
      </trkpt>
      <trkpt lat="45.41178" lon="5.68722">
        <ele>615.43</ele>
        <time>2015-06-21T06:35:41Z</time>
      </trkpt>
      <trkpt lat="45.41197" lon="5.6873">
        <ele>618.27</ele>
        <time>2015-06-21T06:35:45Z</time>
      </trkpt>
      <trkpt lat="45.41215" lon="5.68737">
        <ele>619.79</ele>
        <time>2015-06-21T06:35:49Z</time>
      </trkpt>
      <trkpt lat="45.41232" lon="5.68744">
        <ele>617.15</ele>
        <time>2015-06-21T06:35:52Z</time>
      </trkpt>
      <trkpt lat="45.41253" lon="5.68743">
        <ele>613.07</ele>
        <time>2015-06-21T06:35:55Z</time>
      </trkpt>
      <trkpt lat="45.41273" lon="5.68738">
        <ele>608.35</ele>
        <time>2015-06-21T06:35:59Z</time>
      </trkpt>
      <trkpt lat="45.41282" lon="5.68761">
        <ele>603.88</ele>
        <time>2015-06-21T06:36:06Z</time>
      </trkpt>
      <trkpt lat="45.41284" lon="5.68788">
        <ele>602.89</ele>
        <time>2015-06-21T06:36:10Z</time>
      </trkpt>
      <trkpt lat="45.41287" lon="5.68817">
        <ele>602.73</ele>
        <time>2015-06-21T06:36:14Z</time>
      </trkpt>
      <trkpt lat="45.4129" lon="5.68847">
        <ele>603.68</ele>
        <time>2015-06-21T06:36:18Z</time>
      </trkpt>
      <trkpt lat="45.41295" lon="5.68878">
        <ele>605.24</ele>
        <time>2015-06-21T06:36:22Z</time>
      </trkpt>
      <trkpt lat="45.41302" lon="5.68906">
        <ele>605.71</ele>
        <time>2015-06-21T06:36:26Z</time>
      </trkpt>
      <trkpt lat="45.41309" lon="5.68932">
        <ele>605.59</ele>
        <time>2015-06-21T06:36:30Z</time>
      </trkpt>
      <trkpt lat="45.41316" lon="5.68957">
        <ele>603.11</ele>
        <time>2015-06-21T06:36:34Z</time>
      </trkpt>
      <trkpt lat="45.41324" lon="5.68983">
        <ele>601.68</ele>
        <time>2015-06-21T06:36:38Z</time>
      </trkpt>
      <trkpt lat="45.41331" lon="5.69008">
        <ele>600.87</ele>
        <time>2015-06-21T06:36:42Z</time>
      </trkpt>
      <trkpt lat="45.41339" lon="5.69034">
        <ele>601.19</ele>
        <time>2015-06-21T06:36:46Z</time>
      </trkpt>
      <trkpt lat="45.41347" lon="5.69058">
        <ele>601.46</ele>
        <time>2015-06-21T06:36:50Z</time>
      </trkpt>
      <trkpt lat="45.41354" lon="5.69083">
        <ele>601.53</ele>
        <time>2015-06-21T06:36:54Z</time>
      </trkpt>
      <trkpt lat="45.41362" lon="5.69107">
        <ele>601.42</ele>
        <time>2015-06-21T06:36:58Z</time>
      </trkpt>
      <trkpt lat="45.41371" lon="5.69129">
        <ele>601.72</ele>
        <time>2015-06-21T06:37:03Z</time>
      </trkpt>
      <trkpt lat="45.41391" lon="5.69134">
        <ele>600.97</ele>
        <time>2015-06-21T06:37:29Z</time>
      </trkpt>
      <trkpt lat="45.4141" lon="5.69143">
        <ele>601.25</ele>
        <time>2015-06-21T06:37:35Z</time>
      </trkpt>
      <trkpt lat="45.41428" lon="5.69148">
        <ele>600.93</ele>
        <time>2015-06-21T06:37:49Z</time>
      </trkpt>
      <trkpt lat="45.41447" lon="5.69149">
        <ele>601.56</ele>
        <time>2015-06-21T06:37:59Z</time>
      </trkpt>
      <trkpt lat="45.41462" lon="5.69166">
        <ele>602.3</ele>
        <time>2015-06-21T06:38:09Z</time>
      </trkpt>
      <trkpt lat="45.41478" lon="5.69178">
        <ele>601.97</ele>
        <time>2015-06-21T06:38:17Z</time>
      </trkpt>
      <trkpt lat="45.41493" lon="5.69192">
        <ele>601.96</ele>
        <time>2015-06-21T06:38:26Z</time>
      </trkpt>
      <trkpt lat="45.41511" lon="5.69198">
        <ele>603.56</ele>
        <time>2015-06-21T06:38:39Z</time>
      </trkpt>
      <trkpt lat="45.41526" lon="5.69183">
        <ele>603.55</ele>
        <time>2015-06-21T06:39:14Z</time>
      </trkpt>
      <trkpt lat="45.41545" lon="5.69192">
        <ele>608.56</ele>
        <time>2015-06-21T06:39:43Z</time>
      </trkpt>
      <trkpt lat="45.41564" lon="5.69196">
        <ele>610.6</ele>
        <time>2015-06-21T06:39:55Z</time>
      </trkpt>
      <trkpt lat="45.41582" lon="5.69196">
        <ele>612.97</ele>
        <time>2015-06-21T06:40:16Z</time>
      </trkpt>
      <trkpt lat="45.416" lon="5.69191">
        <ele>615.35</ele>
        <time>2015-06-21T06:40:32Z</time>
      </trkpt>
      <trkpt lat="45.41618" lon="5.69189">
        <ele>618.45</ele>
        <time>2015-06-21T06:40:49Z</time>
      </trkpt>
      <trkpt lat="45.41635" lon="5.69194">
        <ele>617.55</ele>
        <time>2015-06-21T06:41:20Z</time>
      </trkpt>
      <trkpt lat="45.41652" lon="5.69179">
        <ele>619.37</ele>
        <time>2015-06-21T06:41:45Z</time>
      </trkpt>
      <trkpt lat="45.41661" lon="5.69156">
        <ele>621.01</ele>
        <time>2015-06-21T06:41:56Z</time>
      </trkpt>
      <trkpt lat="45.41667" lon="5.6913">
        <ele>620.47</ele>
        <time>2015-06-21T06:42:05Z</time>
      </trkpt>
      <trkpt lat="45.41672" lon="5.69105">
        <ele>619.55</ele>
        <time>2015-06-21T06:42:13Z</time>
      </trkpt>
      <trkpt lat="45.41669" lon="5.69077">
        <ele>621.05</ele>
        <time>2015-06-21T06:42:21Z</time>
      </trkpt>
      <trkpt lat="45.41661" lon="5.69054">
        <ele>618.6</ele>
        <time>2015-06-21T06:42:29Z</time>
      </trkpt>
      <trkpt lat="45.41646" lon="5.69034">
        <ele>616.03</ele>
        <time>2015-06-21T06:42:35Z</time>
      </trkpt>
      <trkpt lat="45.41633" lon="5.69014">
        <ele>612.6</ele>
        <time>2015-06-21T06:42:42Z</time>
      </trkpt>
      <trkpt lat="45.41631" lon="5.68987">
        <ele>609.48</ele>
        <time>2015-06-21T06:42:53Z</time>
      </trkpt>
      <trkpt lat="45.41633" lon="5.6896">
        <ele>617.5</ele>
        <time>2015-06-21T06:43:11Z</time>
      </trkpt>
      <trkpt lat="45.4164" lon="5.68936">
        <ele>617.48</ele>
        <time>2015-06-21T06:43:21Z</time>
      </trkpt>
      <trkpt lat="45.41656" lon="5.68925">
        <ele>621.32</ele>
        <time>2015-06-21T06:43:31Z</time>
      </trkpt>
      <trkpt lat="45.41676" lon="5.68929">
        <ele>624.55</ele>
        <time>2015-06-21T06:43:44Z</time>
      </trkpt>
      <trkpt lat="45.41695" lon="5.68934">
        <ele>630.12</ele>
        <time>2015-06-21T06:43:56Z</time>
      </trkpt>
      <trkpt lat="45.41716" lon="5.68945">
        <ele>633.71</ele>
        <time>2015-06-21T06:44:08Z</time>
      </trkpt>
      <trkpt lat="45.41733" lon="5.68957">
        <ele>634.45</ele>
        <time>2015-06-21T06:44:13Z</time>
      </trkpt>
      <trkpt lat="45.41748" lon="5.68971">
        <ele>637.04</ele>
        <time>2015-06-21T06:44:22Z</time>
      </trkpt>
      <trkpt lat="45.41763" lon="5.68985">
        <ele>639.84</ele>
        <time>2015-06-21T06:44:33Z</time>
      </trkpt>
      <trkpt lat="45.41781" lon="5.68997">
        <ele>642.59</ele>
        <time>2015-06-21T06:44:41Z</time>
      </trkpt>
      <trkpt lat="45.41801" lon="5.69002">
        <ele>643.3</ele>
        <time>2015-06-21T06:44:47Z</time>
      </trkpt>
      <trkpt lat="45.41817" lon="5.69016">
        <ele>644.4</ele>
        <time>2015-06-21T06:44:59Z</time>
      </trkpt>
      <trkpt lat="45.41829" lon="5.69036">
        <ele>647.73</ele>
        <time>2015-06-21T06:45:13Z</time>
      </trkpt>
      <trkpt lat="45.41839" lon="5.69058">
        <ele>650.59</ele>
        <time>2015-06-21T06:45:23Z</time>
      </trkpt>
      <trkpt lat="45.41852" lon="5.69077">
        <ele>651.78</ele>
        <time>2015-06-21T06:45:31Z</time>
      </trkpt>
      <trkpt lat="45.41862" lon="5.691">
        <ele>650.13</ele>
        <time>2015-06-21T06:45:41Z</time>
      </trkpt>
      <trkpt lat="45.41874" lon="5.6912">
        <ele>651.24</ele>
        <time>2015-06-21T06:45:53Z</time>
      </trkpt>
      <trkpt lat="45.41887" lon="5.69138">
        <ele>651.75</ele>
        <time>2015-06-21T06:46:10Z</time>
      </trkpt>
      <trkpt lat="45.41905" lon="5.69146">
        <ele>652.28</ele>
        <time>2015-06-21T06:46:23Z</time>
      </trkpt>
      <trkpt lat="45.41905" lon="5.69172">
        <ele>653.65</ele>
        <time>2015-06-21T06:46:34Z</time>
      </trkpt>
      <trkpt lat="45.41887" lon="5.69179">
        <ele>661.52</ele>
        <time>2015-06-21T06:47:00Z</time>
      </trkpt>
      <trkpt lat="45.41869" lon="5.69181">
        <ele>661.83</ele>
        <time>2015-06-21T06:47:06Z</time>
      </trkpt>
      <trkpt lat="45.4185" lon="5.69186">
        <ele>661.18</ele>
        <time>2015-06-21T06:47:13Z</time>
      </trkpt>
      <trkpt lat="45.41831" lon="5.69176">
        <ele>663.32</ele>
        <time>2015-06-21T06:47:24Z</time>
      </trkpt>
      <trkpt lat="45.4182" lon="5.69198">
        <ele>663.54</ele>
        <time>2015-06-21T06:47:30Z</time>
      </trkpt>
      <trkpt lat="45.41806" lon="5.69215">
        <ele>665.46</ele>
        <time>2015-06-21T06:47:36Z</time>
      </trkpt>
      <trkpt lat="45.41813" lon="5.69239">
        <ele>669.89</ele>
        <time>2015-06-21T06:47:51Z</time>
      </trkpt>
      <trkpt lat="45.41836" lon="5.69244">
        <ele>672.16</ele>
        <time>2015-06-21T06:47:59Z</time>
      </trkpt>
      <trkpt lat="45.41855" lon="5.69244">
        <ele>668.48</ele>
        <time>2015-06-21T06:48:04Z</time>
      </trkpt>
      <trkpt lat="45.41874" lon="5.69243">
        <ele>666.25</ele>
        <time>2015-06-21T06:48:11Z</time>
      </trkpt>
      <trkpt lat="45.41893" lon="5.69245">
        <ele>664.36</ele>
        <time>2015-06-21T06:48:22Z</time>
      </trkpt>
      <trkpt lat="45.4191" lon="5.69256">
        <ele>664.27</ele>
        <time>2015-06-21T06:48:34Z</time>
      </trkpt>
      <trkpt lat="45.41928" lon="5.69261">
        <ele>664.98</ele>
        <time>2015-06-21T06:48:40Z</time>
      </trkpt>
      <trkpt lat="45.41947" lon="5.69269">
        <ele>662.27</ele>
        <time>2015-06-21T06:48:47Z</time>
      </trkpt>
      <trkpt lat="45.41964" lon="5.69282">
        <ele>662.48</ele>
        <time>2015-06-21T06:48:54Z</time>
      </trkpt>
      <trkpt lat="45.41981" lon="5.69295">
        <ele>664.69</ele>
        <time>2015-06-21T06:49:03Z</time>
      </trkpt>
      <trkpt lat="45.4198" lon="5.69325">
        <ele>665.54</ele>
        <time>2015-06-21T06:49:08Z</time>
      </trkpt>
      <trkpt lat="45.41993" lon="5.69346">
        <ele>668.42</ele>
        <time>2015-06-21T06:49:17Z</time>
      </trkpt>
      <trkpt lat="45.42009" lon="5.69357">
        <ele>669.84</ele>
        <time>2015-06-21T06:49:23Z</time>
      </trkpt>
      <trkpt lat="45.42027" lon="5.69365">
        <ele>672.09</ele>
        <time>2015-06-21T06:49:31Z</time>
      </trkpt>
      <trkpt lat="45.42045" lon="5.6938">
        <ele>672.9</ele>
        <time>2015-06-21T06:49:39Z</time>
      </trkpt>
      <trkpt lat="45.42057" lon="5.69403">
        <ele>675.15</ele>
        <time>2015-06-21T06:49:46Z</time>
      </trkpt>
      <trkpt lat="45.42071" lon="5.69425">
        <ele>675.29</ele>
        <time>2015-06-21T06:49:51Z</time>
      </trkpt>
      <trkpt lat="45.4208" lon="5.69451">
        <ele>678.44</ele>
        <time>2015-06-21T06:49:56Z</time>
      </trkpt>
      <trkpt lat="45.42093" lon="5.69472">
        <ele>681.47</ele>
        <time>2015-06-21T06:50:03Z</time>
      </trkpt>
      <trkpt lat="45.42103" lon="5.69494">
        <ele>680.19</ele>
        <time>2015-06-21T06:50:09Z</time>
      </trkpt>
      <trkpt lat="45.42119" lon="5.69507">
        <ele>675.89</ele>
        <time>2015-06-21T06:50:16Z</time>
      </trkpt>
      <trkpt lat="45.42137" lon="5.69523">
        <ele>677.89</ele>
        <time>2015-06-21T06:50:23Z</time>
      </trkpt>
      <trkpt lat="45.42152" lon="5.69543">
        <ele>681.24</ele>
        <time>2015-06-21T06:50:30Z</time>
      </trkpt>
      <trkpt lat="45.42161" lon="5.69566">
        <ele>677.63</ele>
        <time>2015-06-21T06:50:35Z</time>
      </trkpt>
      <trkpt lat="45.42171" lon="5.69589">
        <ele>676.22</ele>
        <time>2015-06-21T06:50:41Z</time>
      </trkpt>
      <trkpt lat="45.42186" lon="5.6961">
        <ele>668.38</ele>
        <time>2015-06-21T06:50:48Z</time>
      </trkpt>
      <trkpt lat="45.422" lon="5.69628">
        <ele>661.89</ele>
        <time>2015-06-21T06:50:53Z</time>
      </trkpt>
      <trkpt lat="45.42203" lon="5.69654">
        <ele>658.18</ele>
        <time>2015-06-21T06:50:59Z</time>
      </trkpt>
      <trkpt lat="45.42215" lon="5.69676">
        <ele>661.01</ele>
        <time>2015-06-21T06:51:04Z</time>
      </trkpt>
      <trkpt lat="45.42223" lon="5.69703">
        <ele>663.56</ele>
        <time>2015-06-21T06:51:08Z</time>
      </trkpt>
      <trkpt lat="45.42242" lon="5.69715">
        <ele>659.32</ele>
        <time>2015-06-21T06:51:12Z</time>
      </trkpt>
      <trkpt lat="45.42258" lon="5.69734">
        <ele>657.64</ele>
        <time>2015-06-21T06:51:16Z</time>
      </trkpt>
      <trkpt lat="45.42271" lon="5.69764">
        <ele>655.18</ele>
        <time>2015-06-21T06:51:20Z</time>
      </trkpt>
      <trkpt lat="45.42278" lon="5.69794">
        <ele>654.69</ele>
        <time>2015-06-21T06:51:26Z</time>
      </trkpt>
      <trkpt lat="45.42291" lon="5.69811">
        <ele>653.89</ele>
        <time>2015-06-21T06:51:33Z</time>
      </trkpt>
      <trkpt lat="45.42302" lon="5.69833">
        <ele>653.97</ele>
        <time>2015-06-21T06:51:47Z</time>
      </trkpt>
      <trkpt lat="45.42312" lon="5.69855">
        <ele>652.95</ele>
        <time>2015-06-21T06:51:59Z</time>
      </trkpt>
      <trkpt lat="45.42318" lon="5.6988">
        <ele>652.38</ele>
        <time>2015-06-21T06:52:06Z</time>
      </trkpt>
      <trkpt lat="45.42328" lon="5.69902">
        <ele>651.33</ele>
        <time>2015-06-21T06:52:13Z</time>
      </trkpt>
      <trkpt lat="45.42336" lon="5.69925">
        <ele>650.72</ele>
        <time>2015-06-21T06:52:19Z</time>
      </trkpt>
      <trkpt lat="45.42353" lon="5.69941">
        <ele>647.33</ele>
        <time>2015-06-21T06:52:27Z</time>
      </trkpt>
      <trkpt lat="45.4237" lon="5.69948">
        <ele>645.45</ele>
        <time>2015-06-21T06:52:48Z</time>
      </trkpt>
      <trkpt lat="45.42387" lon="5.69937">
        <ele>647.41</ele>
        <time>2015-06-21T06:53:22Z</time>
      </trkpt>
      <trkpt lat="45.42383" lon="5.69911">
        <ele>650.15</ele>
        <time>2015-06-21T06:53:48Z</time>
      </trkpt>
      <trkpt lat="45.42383" lon="5.69938">
        <ele>653</ele>
        <time>2015-06-21T06:54:08Z</time>
      </trkpt>
      <trkpt lat="45.42389" lon="5.69963">
        <ele>653.09</ele>
        <time>2015-06-21T06:54:16Z</time>
      </trkpt>
      <trkpt lat="45.42401" lon="5.69982">
        <ele>650.49</ele>
        <time>2015-06-21T06:54:25Z</time>
      </trkpt>
      <trkpt lat="45.42417" lon="5.69997">
        <ele>651.45</ele>
        <time>2015-06-21T06:54:34Z</time>
      </trkpt>
      <trkpt lat="45.42435" lon="5.70008">
        <ele>652.85</ele>
        <time>2015-06-21T06:54:44Z</time>
      </trkpt>
      <trkpt lat="45.42447" lon="5.70028">
        <ele>650.44</ele>
        <time>2015-06-21T06:54:53Z</time>
      </trkpt>
      <trkpt lat="45.42453" lon="5.70053">
        <ele>653.11</ele>
        <time>2015-06-21T06:55:03Z</time>
      </trkpt>
      <trkpt lat="45.42461" lon="5.70076">
        <ele>652.21</ele>
        <time>2015-06-21T06:55:10Z</time>
      </trkpt>
      <trkpt lat="45.42458" lon="5.70104">
        <ele>647.59</ele>
        <time>2015-06-21T06:55:15Z</time>
      </trkpt>
      <trkpt lat="45.42465" lon="5.70128">
        <ele>641.62</ele>
        <time>2015-06-21T06:55:25Z</time>
      </trkpt>
      <trkpt lat="45.42481" lon="5.70143">
        <ele>644.8</ele>
        <time>2015-06-21T06:55:36Z</time>
      </trkpt>
      <trkpt lat="45.42497" lon="5.70153">
        <ele>647.62</ele>
        <time>2015-06-21T06:55:49Z</time>
      </trkpt>
      <trkpt lat="45.42514" lon="5.70164">
        <ele>650.59</ele>
        <time>2015-06-21T06:56:03Z</time>
      </trkpt>
      <trkpt lat="45.42529" lon="5.70181">
        <ele>652.18</ele>
        <time>2015-06-21T06:56:12Z</time>
      </trkpt>
      <trkpt lat="45.42547" lon="5.70192">
        <ele>654.67</ele>
        <time>2015-06-21T06:56:18Z</time>
      </trkpt>
      <trkpt lat="45.42565" lon="5.70206">
        <ele>653.52</ele>
        <time>2015-06-21T06:56:24Z</time>
      </trkpt>
      <trkpt lat="45.4258" lon="5.70222">
        <ele>653.03</ele>
        <time>2015-06-21T06:56:32Z</time>
      </trkpt>
      <trkpt lat="45.42597" lon="5.70236">
        <ele>655.22</ele>
        <time>2015-06-21T06:56:41Z</time>
      </trkpt>
      <trkpt lat="45.42615" lon="5.70243">
        <ele>657.63</ele>
        <time>2015-06-21T06:56:47Z</time>
      </trkpt>
      <trkpt lat="45.42634" lon="5.70243">
        <ele>659.24</ele>
        <time>2015-06-21T06:56:58Z</time>
      </trkpt>
      <trkpt lat="45.42652" lon="5.70255">
        <ele>661.12</ele>
        <time>2015-06-21T06:57:08Z</time>
      </trkpt>
      <trkpt lat="45.42671" lon="5.70263">
        <ele>661.76</ele>
        <time>2015-06-21T06:57:17Z</time>
      </trkpt>
      <trkpt lat="45.42689" lon="5.70274">
        <ele>662.99</ele>
        <time>2015-06-21T06:57:27Z</time>
      </trkpt>
      <trkpt lat="45.42707" lon="5.70281">
        <ele>662.11</ele>
        <time>2015-06-21T06:57:38Z</time>
      </trkpt>
      <trkpt lat="45.42725" lon="5.7029">
        <ele>661.04</ele>
        <time>2015-06-21T06:57:47Z</time>
      </trkpt>
      <trkpt lat="45.42738" lon="5.70314">
        <ele>662.81</ele>
        <time>2015-06-21T06:57:54Z</time>
      </trkpt>
      <trkpt lat="45.42755" lon="5.70332">
        <ele>663.05</ele>
        <time>2015-06-21T06:57:58Z</time>
      </trkpt>
      <trkpt lat="45.42773" lon="5.70351">
        <ele>662.02</ele>
        <time>2015-06-21T06:58:02Z</time>
      </trkpt>
      <trkpt lat="45.42788" lon="5.70366">
        <ele>660.14</ele>
        <time>2015-06-21T06:58:06Z</time>
      </trkpt>
      <trkpt lat="45.42807" lon="5.7038">
        <ele>662.2</ele>
        <time>2015-06-21T06:58:11Z</time>
      </trkpt>
      <trkpt lat="45.42825" lon="5.70385">
        <ele>661.96</ele>
        <time>2015-06-21T06:58:16Z</time>
      </trkpt>
      <trkpt lat="45.42844" lon="5.70388">
        <ele>662.61</ele>
        <time>2015-06-21T06:58:21Z</time>
      </trkpt>
      <trkpt lat="45.42862" lon="5.70396">
        <ele>660.37</ele>
        <time>2015-06-21T06:58:25Z</time>
      </trkpt>
      <trkpt lat="45.42879" lon="5.70411">
        <ele>658.09</ele>
        <time>2015-06-21T06:58:29Z</time>
      </trkpt>
      <trkpt lat="45.42884" lon="5.70437">
        <ele>656</ele>
        <time>2015-06-21T06:58:35Z</time>
      </trkpt>
      <trkpt lat="45.42879" lon="5.70463">
        <ele>656.79</ele>
        <time>2015-06-21T06:58:38Z</time>
      </trkpt>
      <trkpt lat="45.42874" lon="5.70488">
        <ele>656.33</ele>
        <time>2015-06-21T06:58:41Z</time>
      </trkpt>
      <trkpt lat="45.42869" lon="5.70521">
        <ele>650.31</ele>
        <time>2015-06-21T06:58:45Z</time>
      </trkpt>
      <trkpt lat="45.42863" lon="5.70547">
        <ele>645.99</ele>
        <time>2015-06-21T06:58:50Z</time>
      </trkpt>
      <trkpt lat="45.42868" lon="5.70573">
        <ele>643.61</ele>
        <time>2015-06-21T06:58:53Z</time>
      </trkpt>
      <trkpt lat="45.42871" lon="5.70599">
        <ele>640.83</ele>
        <time>2015-06-21T06:58:56Z</time>
      </trkpt>
      <trkpt lat="45.42879" lon="5.70623">
        <ele>637</ele>
        <time>2015-06-21T06:59:02Z</time>
      </trkpt>
      <trkpt lat="45.42859" lon="5.7064">
        <ele>630.18</ele>
        <time>2015-06-21T06:59:08Z</time>
      </trkpt>
      <trkpt lat="45.42858" lon="5.70673">
        <ele>618.46</ele>
        <time>2015-06-21T06:59:15Z</time>
      </trkpt>
      <trkpt lat="45.42864" lon="5.707">
        <ele>613.55</ele>
        <time>2015-06-21T06:59:18Z</time>
      </trkpt>
      <trkpt lat="45.42875" lon="5.70724">
        <ele>609.08</ele>
        <time>2015-06-21T06:59:21Z</time>
      </trkpt>
      <trkpt lat="45.42881" lon="5.70748">
        <ele>606.71</ele>
        <time>2015-06-21T06:59:25Z</time>
      </trkpt>
      <trkpt lat="45.42874" lon="5.70777">
        <ele>604.12</ele>
        <time>2015-06-21T06:59:34Z</time>
      </trkpt>
      <trkpt lat="45.42889" lon="5.70795">
        <ele>604.32</ele>
        <time>2015-06-21T06:59:42Z</time>
      </trkpt>
      <trkpt lat="45.42895" lon="5.70819">
        <ele>604.33</ele>
        <time>2015-06-21T06:59:49Z</time>
      </trkpt>
      <trkpt lat="45.42904" lon="5.70843">
        <ele>603.55</ele>
        <time>2015-06-21T06:59:55Z</time>
      </trkpt>
      <trkpt lat="45.4292" lon="5.70855">
        <ele>601.89</ele>
        <time>2015-06-21T07:00:01Z</time>
      </trkpt>
      <trkpt lat="45.42927" lon="5.70882">
        <ele>599.88</ele>
        <time>2015-06-21T07:00:07Z</time>
      </trkpt>
      <trkpt lat="45.42939" lon="5.70905">
        <ele>596.92</ele>
        <time>2015-06-21T07:00:13Z</time>
      </trkpt>
      <trkpt lat="45.42957" lon="5.70916">
        <ele>596.64</ele>
        <time>2015-06-21T07:00:19Z</time>
      </trkpt>
      <trkpt lat="45.42976" lon="5.70917">
        <ele>598.37</ele>
        <time>2015-06-21T07:00:25Z</time>
      </trkpt>
      <trkpt lat="45.42994" lon="5.70928">
        <ele>599.03</ele>
        <time>2015-06-21T07:00:30Z</time>
      </trkpt>
      <trkpt lat="45.43007" lon="5.70953">
        <ele>598.91</ele>
        <time>2015-06-21T07:00:35Z</time>
      </trkpt>
      <trkpt lat="45.4302" lon="5.70973">
        <ele>597.48</ele>
        <time>2015-06-21T07:00:38Z</time>
      </trkpt>
      <trkpt lat="45.43036" lon="5.70991">
        <ele>595.07</ele>
        <time>2015-06-21T07:00:41Z</time>
      </trkpt>
      <trkpt lat="45.43054" lon="5.71006">
        <ele>594.24</ele>
        <time>2015-06-21T07:00:44Z</time>
      </trkpt>
      <trkpt lat="45.4307" lon="5.71021">
        <ele>595.99</ele>
        <time>2015-06-21T07:00:47Z</time>
      </trkpt>
      <trkpt lat="45.43085" lon="5.71042">
        <ele>600.94</ele>
        <time>2015-06-21T07:00:51Z</time>
      </trkpt>
      <trkpt lat="45.43097" lon="5.71063">
        <ele>601.49</ele>
        <time>2015-06-21T07:00:57Z</time>
      </trkpt>
      <trkpt lat="45.43112" lon="5.71079">
        <ele>600.67</ele>
        <time>2015-06-21T07:01:04Z</time>
      </trkpt>
      <trkpt lat="45.43129" lon="5.71089">
        <ele>601.28</ele>
        <time>2015-06-21T07:01:11Z</time>
      </trkpt>
      <trkpt lat="45.43146" lon="5.711">
        <ele>601.23</ele>
        <time>2015-06-21T07:01:16Z</time>
      </trkpt>
      <trkpt lat="45.43163" lon="5.71115">
        <ele>599.29</ele>
        <time>2015-06-21T07:01:21Z</time>
      </trkpt>
      <trkpt lat="45.43184" lon="5.71125">
        <ele>596.68</ele>
        <time>2015-06-21T07:01:26Z</time>
      </trkpt>
      <trkpt lat="45.43203" lon="5.71137">
        <ele>598.48</ele>
        <time>2015-06-21T07:01:32Z</time>
      </trkpt>
      <trkpt lat="45.43221" lon="5.71147">
        <ele>597.18</ele>
        <time>2015-06-21T07:01:38Z</time>
      </trkpt>
      <trkpt lat="45.43238" lon="5.71157">
        <ele>597.16</ele>
        <time>2015-06-21T07:01:43Z</time>
      </trkpt>
      <trkpt lat="45.43256" lon="5.71165">
        <ele>597.57</ele>
        <time>2015-06-21T07:01:49Z</time>
      </trkpt>
      <trkpt lat="45.43274" lon="5.71176">
        <ele>597.99</ele>
        <time>2015-06-21T07:01:56Z</time>
      </trkpt>
      <trkpt lat="45.43291" lon="5.71185">
        <ele>598.04</ele>
        <time>2015-06-21T07:02:01Z</time>
      </trkpt>
      <trkpt lat="45.43309" lon="5.71195">
        <ele>598.26</ele>
        <time>2015-06-21T07:02:06Z</time>
      </trkpt>
      <trkpt lat="45.43328" lon="5.71201">
        <ele>599.26</ele>
        <time>2015-06-21T07:02:12Z</time>
      </trkpt>
      <trkpt lat="45.43341" lon="5.71182">
        <ele>602.92</ele>
        <time>2015-06-21T07:02:26Z</time>
      </trkpt>
      <trkpt lat="45.4336" lon="5.71191">
        <ele>603.24</ele>
        <time>2015-06-21T07:02:36Z</time>
      </trkpt>
      <trkpt lat="45.43376" lon="5.71202">
        <ele>602.88</ele>
        <time>2015-06-21T07:02:42Z</time>
      </trkpt>
      <trkpt lat="45.43396" lon="5.71209">
        <ele>602.76</ele>
        <time>2015-06-21T07:02:49Z</time>
      </trkpt>
      <trkpt lat="45.43411" lon="5.71194">
        <ele>605.84</ele>
        <time>2015-06-21T07:03:04Z</time>
      </trkpt>
      <trkpt lat="45.43428" lon="5.71205">
        <ele>607.09</ele>
        <time>2015-06-21T07:03:45Z</time>
      </trkpt>
      <trkpt lat="45.43445" lon="5.71214">
        <ele>605.45</ele>
        <time>2015-06-21T07:03:52Z</time>
      </trkpt>
      <trkpt lat="45.43461" lon="5.71226">
        <ele>604.08</ele>
        <time>2015-06-21T07:03:56Z</time>
      </trkpt>
      <trkpt lat="45.43478" lon="5.71236">
        <ele>603.08</ele>
        <time>2015-06-21T07:04:00Z</time>
      </trkpt>
      <trkpt lat="45.43497" lon="5.71245">
        <ele>601.89</ele>
        <time>2015-06-21T07:04:04Z</time>
      </trkpt>
      <trkpt lat="45.43516" lon="5.71253">
        <ele>600.91</ele>
        <time>2015-06-21T07:04:08Z</time>
      </trkpt>
      <trkpt lat="45.43536" lon="5.7126">
        <ele>599.13</ele>
        <time>2015-06-21T07:04:12Z</time>
      </trkpt>
      <trkpt lat="45.43553" lon="5.7127">
        <ele>597.37</ele>
        <time>2015-06-21T07:04:15Z</time>
      </trkpt>
      <trkpt lat="45.4357" lon="5.71283">
        <ele>594.35</ele>
        <time>2015-06-21T07:04:18Z</time>
      </trkpt>
      <trkpt lat="45.43586" lon="5.71298">
        <ele>590.4</ele>
        <time>2015-06-21T07:04:21Z</time>
      </trkpt>
      <trkpt lat="45.43605" lon="5.71315">
        <ele>588.12</ele>
        <time>2015-06-21T07:04:24Z</time>
      </trkpt>
      <trkpt lat="45.43624" lon="5.71316">
        <ele>584.93</ele>
        <time>2015-06-21T07:04:28Z</time>
      </trkpt>
      <trkpt lat="45.4364" lon="5.7133">
        <ele>585.85</ele>
        <time>2015-06-21T07:05:06Z</time>
      </trkpt>
      <trkpt lat="45.4366" lon="5.71349">
        <ele>584.76</ele>
        <time>2015-06-21T07:05:13Z</time>
      </trkpt>
      <trkpt lat="45.43678" lon="5.71363">
        <ele>580.79</ele>
        <time>2015-06-21T07:05:20Z</time>
      </trkpt>
      <trkpt lat="45.4369" lon="5.71385">
        <ele>575.55</ele>
        <time>2015-06-21T07:05:23Z</time>
      </trkpt>
      <trkpt lat="45.43702" lon="5.71407">
        <ele>570.09</ele>
        <time>2015-06-21T07:05:26Z</time>
      </trkpt>
      <trkpt lat="45.43723" lon="5.71424">
        <ele>558.19</ele>
        <time>2015-06-21T07:05:29Z</time>
      </trkpt>
      <trkpt lat="45.43743" lon="5.71435">
        <ele>544.29</ele>
        <time>2015-06-21T07:05:32Z</time>
      </trkpt>
      <trkpt lat="45.43753" lon="5.7146">
        <ele>551.37</ele>
        <time>2015-06-21T07:06:16Z</time>
      </trkpt>
      <trkpt lat="45.43772" lon="5.71466">
        <ele>551.84</ele>
        <time>2015-06-21T07:06:24Z</time>
      </trkpt>
      <trkpt lat="45.4379" lon="5.71457">
        <ele>553.28</ele>
        <time>2015-06-21T07:06:36Z</time>
      </trkpt>
      <trkpt lat="45.43809" lon="5.71459">
        <ele>549.43</ele>
        <time>2015-06-21T07:06:42Z</time>
      </trkpt>
      <trkpt lat="45.43827" lon="5.71452">
        <ele>548.32</ele>
        <time>2015-06-21T07:06:46Z</time>
      </trkpt>
      <trkpt lat="45.43845" lon="5.71452">
        <ele>544.59</ele>
        <time>2015-06-21T07:06:51Z</time>
      </trkpt>
      <trkpt lat="45.43867" lon="5.71451">
        <ele>546.64</ele>
        <time>2015-06-21T07:06:59Z</time>
      </trkpt>
      <trkpt lat="45.43883" lon="5.71469">
        <ele>544.13</ele>
        <time>2015-06-21T07:07:04Z</time>
      </trkpt>
      <trkpt lat="45.43907" lon="5.71478">
        <ele>540.44</ele>
        <time>2015-06-21T07:07:07Z</time>
      </trkpt>
      <trkpt lat="45.43929" lon="5.71487">
        <ele>535.42</ele>
        <time>2015-06-21T07:07:10Z</time>
      </trkpt>
      <trkpt lat="45.43947" lon="5.71503">
        <ele>527.03</ele>
        <time>2015-06-21T07:07:15Z</time>
      </trkpt>
      <trkpt lat="45.43961" lon="5.7152">
        <ele>522.04</ele>
        <time>2015-06-21T07:07:19Z</time>
      </trkpt>
      <trkpt lat="45.4398" lon="5.71537">
        <ele>518.16</ele>
        <time>2015-06-21T07:07:23Z</time>
      </trkpt>
      <trkpt lat="45.44003" lon="5.71546">
        <ele>516.09</ele>
        <time>2015-06-21T07:07:27Z</time>
      </trkpt>
      <trkpt lat="45.44025" lon="5.71553">
        <ele>512.59</ele>
        <time>2015-06-21T07:07:30Z</time>
      </trkpt>
      <trkpt lat="45.44048" lon="5.71558">
        <ele>507.16</ele>
        <time>2015-06-21T07:07:33Z</time>
      </trkpt>
      <trkpt lat="45.44069" lon="5.71559">
        <ele>501.81</ele>
        <time>2015-06-21T07:07:38Z</time>
      </trkpt>
      <trkpt lat="45.44086" lon="5.71577">
        <ele>512.49</ele>
        <time>2015-06-21T07:07:47Z</time>
      </trkpt>
      <trkpt lat="45.44105" lon="5.71592">
        <ele>512.7</ele>
        <time>2015-06-21T07:07:51Z</time>
      </trkpt>
      <trkpt lat="45.44125" lon="5.71597">
        <ele>511.56</ele>
        <time>2015-06-21T07:07:55Z</time>
      </trkpt>
      <trkpt lat="45.44144" lon="5.71596">
        <ele>508.71</ele>
        <time>2015-06-21T07:07:59Z</time>
      </trkpt>
      <trkpt lat="45.44163" lon="5.71603">
        <ele>502.89</ele>
        <time>2015-06-21T07:08:02Z</time>
      </trkpt>
      <trkpt lat="45.44181" lon="5.71599">
        <ele>501.77</ele>
        <time>2015-06-21T07:08:14Z</time>
      </trkpt>
      <trkpt lat="45.44179" lon="5.71573">
        <ele>512.25</ele>
        <time>2015-06-21T07:09:06Z</time>
      </trkpt>
      <trkpt lat="45.4416" lon="5.7158">
        <ele>516.18</ele>
        <time>2015-06-21T07:09:28Z</time>
      </trkpt>
      <trkpt lat="45.44143" lon="5.7159">
        <ele>516.39</ele>
        <time>2015-06-21T07:09:36Z</time>
      </trkpt>
      <trkpt lat="45.44127" lon="5.71576">
        <ele>516.64</ele>
        <time>2015-06-21T07:09:48Z</time>
      </trkpt>
      <trkpt lat="45.44109" lon="5.71569">
        <ele>518.27</ele>
        <time>2015-06-21T07:09:55Z</time>
      </trkpt>
      <trkpt lat="45.44095" lon="5.71551">
        <ele>519.14</ele>
        <time>2015-06-21T07:10:06Z</time>
      </trkpt>
      <trkpt lat="45.44084" lon="5.71528">
        <ele>534.01</ele>
        <time>2015-06-21T07:10:35Z</time>
      </trkpt>
      <trkpt lat="45.44099" lon="5.7151">
        <ele>536.57</ele>
        <time>2015-06-21T07:10:55Z</time>
      </trkpt>
      <trkpt lat="45.44117" lon="5.71512">
        <ele>537.11</ele>
        <time>2015-06-21T07:11:06Z</time>
      </trkpt>
      <trkpt lat="45.44136" lon="5.71513">
        <ele>537.87</ele>
        <time>2015-06-21T07:11:15Z</time>
      </trkpt>
      <trkpt lat="45.44154" lon="5.71509">
        <ele>538.28</ele>
        <time>2015-06-21T07:11:24Z</time>
      </trkpt>
      <trkpt lat="45.44172" lon="5.71511">
        <ele>540.37</ele>
        <time>2015-06-21T07:11:36Z</time>
      </trkpt>
      <trkpt lat="45.44191" lon="5.71506">
        <ele>540.14</ele>
        <time>2015-06-21T07:11:46Z</time>
      </trkpt>
      <trkpt lat="45.44208" lon="5.71513">
        <ele>540.25</ele>
        <time>2015-06-21T07:11:55Z</time>
      </trkpt>
      <trkpt lat="45.44226" lon="5.71528">
        <ele>542.62</ele>
        <time>2015-06-21T07:12:03Z</time>
      </trkpt>
      <trkpt lat="45.44247" lon="5.71538">
        <ele>542.11</ele>
        <time>2015-06-21T07:12:07Z</time>
      </trkpt>
      <trkpt lat="45.4427" lon="5.71545">
        <ele>539.93</ele>
        <time>2015-06-21T07:12:11Z</time>
      </trkpt>
      <trkpt lat="45.44289" lon="5.7155">
        <ele>538.05</ele>
        <time>2015-06-21T07:12:14Z</time>
      </trkpt>
      <trkpt lat="45.44308" lon="5.71561">
        <ele>535.68</ele>
        <time>2015-06-21T07:12:18Z</time>
      </trkpt>
      <trkpt lat="45.44322" lon="5.71582">
        <ele>533.58</ele>
        <time>2015-06-21T07:12:21Z</time>
      </trkpt>
      <trkpt lat="45.44338" lon="5.71596">
        <ele>527.51</ele>
        <time>2015-06-21T07:12:24Z</time>
      </trkpt>
      <trkpt lat="45.44356" lon="5.71603">
        <ele>526.06</ele>
        <time>2015-06-21T07:12:32Z</time>
      </trkpt>
      <trkpt lat="45.44376" lon="5.71601">
        <ele>531.35</ele>
        <time>2015-06-21T07:12:44Z</time>
      </trkpt>
      <trkpt lat="45.44393" lon="5.71592">
        <ele>535.29</ele>
        <time>2015-06-21T07:12:57Z</time>
      </trkpt>
      <trkpt lat="45.44412" lon="5.71591">
        <ele>541.71</ele>
        <time>2015-06-21T07:13:14Z</time>
      </trkpt>
      <trkpt lat="45.44431" lon="5.71593">
        <ele>545.04</ele>
        <time>2015-06-21T07:13:29Z</time>
      </trkpt>
      <trkpt lat="45.44448" lon="5.71609">
        <ele>546.35</ele>
        <time>2015-06-21T07:13:35Z</time>
      </trkpt>
      <trkpt lat="45.44464" lon="5.71623">
        <ele>543.81</ele>
        <time>2015-06-21T07:13:42Z</time>
      </trkpt>
      <trkpt lat="45.44481" lon="5.71633">
        <ele>546.98</ele>
        <time>2015-06-21T07:13:48Z</time>
      </trkpt>
      <trkpt lat="45.44502" lon="5.71634">
        <ele>548.07</ele>
        <time>2015-06-21T07:13:56Z</time>
      </trkpt>
      <trkpt lat="45.44496" lon="5.71609">
        <ele>552.09</ele>
        <time>2015-06-21T07:14:19Z</time>
      </trkpt>
      <trkpt lat="45.44482" lon="5.71591">
        <ele>555.38</ele>
        <time>2015-06-21T07:14:35Z</time>
      </trkpt>
      <trkpt lat="45.44466" lon="5.71579">
        <ele>557.83</ele>
        <time>2015-06-21T07:14:43Z</time>
      </trkpt>
      <trkpt lat="45.44447" lon="5.71568">
        <ele>560.62</ele>
        <time>2015-06-21T07:14:53Z</time>
      </trkpt>
      <trkpt lat="45.44434" lon="5.7155">
        <ele>565.04</ele>
        <time>2015-06-21T07:15:05Z</time>
      </trkpt>
      <trkpt lat="45.4442" lon="5.71533">
        <ele>567.73</ele>
        <time>2015-06-21T07:15:16Z</time>
      </trkpt>
      <trkpt lat="45.44405" lon="5.71517">
        <ele>566.82</ele>
        <time>2015-06-21T07:15:24Z</time>
      </trkpt>
      <trkpt lat="45.44387" lon="5.71509">
        <ele>569.6</ele>
        <time>2015-06-21T07:15:36Z</time>
      </trkpt>
      <trkpt lat="45.44371" lon="5.71495">
        <ele>571.07</ele>
        <time>2015-06-21T07:15:47Z</time>
      </trkpt>
      <trkpt lat="45.44353" lon="5.71483">
        <ele>574.58</ele>
        <time>2015-06-21T07:16:00Z</time>
      </trkpt>
      <trkpt lat="45.44338" lon="5.71469">
        <ele>577.47</ele>
        <time>2015-06-21T07:16:17Z</time>
      </trkpt>
      <trkpt lat="45.44326" lon="5.71449">
        <ele>579.15</ele>
        <time>2015-06-21T07:16:31Z</time>
      </trkpt>
      <trkpt lat="45.44313" lon="5.71429">
        <ele>582.8</ele>
        <time>2015-06-21T07:16:46Z</time>
      </trkpt>
      <trkpt lat="45.44313" lon="5.71403">
        <ele>583.22</ele>
        <time>2015-06-21T07:17:01Z</time>
      </trkpt>
      <trkpt lat="45.44304" lon="5.71381">
        <ele>587.95</ele>
        <time>2015-06-21T07:17:34Z</time>
      </trkpt>
      <trkpt lat="45.4429" lon="5.71363">
        <ele>587.92</ele>
        <time>2015-06-21T07:17:55Z</time>
      </trkpt>
      <trkpt lat="45.44278" lon="5.71343">
        <ele>587.98</ele>
        <time>2015-06-21T07:18:08Z</time>
      </trkpt>
      <trkpt lat="45.44262" lon="5.71328">
        <ele>590.36</ele>
        <time>2015-06-21T07:18:20Z</time>
      </trkpt>
      <trkpt lat="45.44244" lon="5.71322">
        <ele>592.46</ele>
        <time>2015-06-21T07:18:33Z</time>
      </trkpt>
      <trkpt lat="45.44226" lon="5.71317">
        <ele>596.17</ele>
        <time>2015-06-21T07:18:47Z</time>
      </trkpt>
      <trkpt lat="45.4421" lon="5.71303">
        <ele>599.63</ele>
        <time>2015-06-21T07:19:00Z</time>
      </trkpt>
      <trkpt lat="45.44197" lon="5.71283">
        <ele>601.12</ele>
        <time>2015-06-21T07:19:16Z</time>
      </trkpt>
      <trkpt lat="45.44184" lon="5.71265">
        <ele>602.83</ele>
        <time>2015-06-21T07:19:29Z</time>
      </trkpt>
      <trkpt lat="45.44169" lon="5.7125">
        <ele>602.43</ele>
        <time>2015-06-21T07:19:38Z</time>
      </trkpt>
      <trkpt lat="45.44156" lon="5.71232">
        <ele>601.33</ele>
        <time>2015-06-21T07:19:43Z</time>
      </trkpt>
      <trkpt lat="45.44137" lon="5.71225">
        <ele>599.62</ele>
        <time>2015-06-21T07:19:46Z</time>
      </trkpt>
      <trkpt lat="45.44116" lon="5.71221">
        <ele>598.04</ele>
        <time>2015-06-21T07:19:49Z</time>
      </trkpt>
      <trkpt lat="45.44097" lon="5.71212">
        <ele>596.97</ele>
        <time>2015-06-21T07:19:52Z</time>
      </trkpt>
      <trkpt lat="45.44078" lon="5.71199">
        <ele>595.62</ele>
        <time>2015-06-21T07:19:55Z</time>
      </trkpt>
      <trkpt lat="45.44061" lon="5.7119">
        <ele>594.52</ele>
        <time>2015-06-21T07:19:58Z</time>
      </trkpt>
      <trkpt lat="45.44042" lon="5.71187">
        <ele>595.92</ele>
        <time>2015-06-21T07:20:05Z</time>
      </trkpt>
      <trkpt lat="45.44023" lon="5.71183">
        <ele>598.29</ele>
        <time>2015-06-21T07:20:15Z</time>
      </trkpt>
      <trkpt lat="45.44004" lon="5.71177">
        <ele>598.12</ele>
        <time>2015-06-21T07:20:21Z</time>
      </trkpt>
      <trkpt lat="45.43986" lon="5.71169">
        <ele>599.76</ele>
        <time>2015-06-21T07:20:31Z</time>
      </trkpt>
      <trkpt lat="45.4397" lon="5.71153">
        <ele>599.04</ele>
        <time>2015-06-21T07:20:38Z</time>
      </trkpt>
      <trkpt lat="45.43953" lon="5.71138">
        <ele>598.05</ele>
        <time>2015-06-21T07:20:44Z</time>
      </trkpt>
      <trkpt lat="45.43937" lon="5.71125">
        <ele>599.66</ele>
        <time>2015-06-21T07:20:51Z</time>
      </trkpt>
      <trkpt lat="45.4392" lon="5.71113">
        <ele>599.48</ele>
        <time>2015-06-21T07:20:59Z</time>
      </trkpt>
      <trkpt lat="45.43904" lon="5.71099">
        <ele>601.19</ele>
        <time>2015-06-21T07:21:07Z</time>
      </trkpt>
      <trkpt lat="45.43888" lon="5.71082">
        <ele>601.82</ele>
        <time>2015-06-21T07:21:15Z</time>
      </trkpt>
      <trkpt lat="45.43871" lon="5.71074">
        <ele>602.13</ele>
        <time>2015-06-21T07:21:24Z</time>
      </trkpt>
      <trkpt lat="45.43852" lon="5.71081">
        <ele>603.89</ele>
        <time>2015-06-21T07:21:35Z</time>
      </trkpt>
      <trkpt lat="45.43833" lon="5.71084">
        <ele>604.9</ele>
        <time>2015-06-21T07:21:45Z</time>
      </trkpt>
      <trkpt lat="45.43815" lon="5.71076">
        <ele>606.59</ele>
        <time>2015-06-21T07:21:54Z</time>
      </trkpt>
      <trkpt lat="45.43796" lon="5.71069">
        <ele>608</ele>
        <time>2015-06-21T07:22:05Z</time>
      </trkpt>
      <trkpt lat="45.43776" lon="5.71062">
        <ele>609.29</ele>
        <time>2015-06-21T07:22:14Z</time>
      </trkpt>
      <trkpt lat="45.43758" lon="5.71064">
        <ele>609.95</ele>
        <time>2015-06-21T07:22:21Z</time>
      </trkpt>
      <trkpt lat="45.43739" lon="5.71061">
        <ele>611.47</ele>
        <time>2015-06-21T07:22:30Z</time>
      </trkpt>
      <trkpt lat="45.43722" lon="5.71053">
        <ele>615.16</ele>
        <time>2015-06-21T07:22:40Z</time>
      </trkpt>
      <trkpt lat="45.43703" lon="5.71047">
        <ele>616.09</ele>
        <time>2015-06-21T07:22:49Z</time>
      </trkpt>
      <trkpt lat="45.43684" lon="5.71042">
        <ele>616.18</ele>
        <time>2015-06-21T07:22:57Z</time>
      </trkpt>
      <trkpt lat="45.43667" lon="5.71031">
        <ele>616.96</ele>
        <time>2015-06-21T07:23:05Z</time>
      </trkpt>
      <trkpt lat="45.43649" lon="5.71021">
        <ele>617.48</ele>
        <time>2015-06-21T07:23:14Z</time>
      </trkpt>
      <trkpt lat="45.43636" lon="5.71">
        <ele>615.04</ele>
        <time>2015-06-21T07:23:23Z</time>
      </trkpt>
      <trkpt lat="45.4362" lon="5.70987">
        <ele>614.41</ele>
        <time>2015-06-21T07:23:29Z</time>
      </trkpt>
      <trkpt lat="45.43603" lon="5.70977">
        <ele>616.3</ele>
        <time>2015-06-21T07:23:34Z</time>
      </trkpt>
      <trkpt lat="45.43586" lon="5.70967">
        <ele>616.95</ele>
        <time>2015-06-21T07:23:38Z</time>
      </trkpt>
      <trkpt lat="45.43568" lon="5.70958">
        <ele>616.62</ele>
        <time>2015-06-21T07:23:43Z</time>
      </trkpt>
      <trkpt lat="45.43552" lon="5.70945">
        <ele>616.64</ele>
        <time>2015-06-21T07:23:49Z</time>
      </trkpt>
      <trkpt lat="45.43536" lon="5.70933">
        <ele>619</ele>
        <time>2015-06-21T07:23:58Z</time>
      </trkpt>
      <trkpt lat="45.43548" lon="5.70912">
        <ele>622.68</ele>
        <time>2015-06-21T07:24:09Z</time>
      </trkpt>
      <trkpt lat="45.43555" lon="5.70887">
        <ele>625.8</ele>
        <time>2015-06-21T07:24:25Z</time>
      </trkpt>
      <trkpt lat="45.43537" lon="5.70877">
        <ele>629.4</ele>
        <time>2015-06-21T07:24:42Z</time>
      </trkpt>
      <trkpt lat="45.43521" lon="5.70864">
        <ele>633.55</ele>
        <time>2015-06-21T07:25:00Z</time>
      </trkpt>
      <trkpt lat="45.43508" lon="5.70845">
        <ele>637.98</ele>
        <time>2015-06-21T07:25:18Z</time>
      </trkpt>
      <trkpt lat="45.43501" lon="5.70822">
        <ele>638.43</ele>
        <time>2015-06-21T07:25:35Z</time>
      </trkpt>
      <trkpt lat="45.43482" lon="5.70815">
        <ele>639.64</ele>
        <time>2015-06-21T07:25:46Z</time>
      </trkpt>
      <trkpt lat="45.43463" lon="5.70811">
        <ele>641.5</ele>
        <time>2015-06-21T07:25:56Z</time>
      </trkpt>
      <trkpt lat="45.43447" lon="5.70799">
        <ele>642.92</ele>
        <time>2015-06-21T07:26:06Z</time>
      </trkpt>
      <trkpt lat="45.43429" lon="5.70787">
        <ele>642.83</ele>
        <time>2015-06-21T07:26:16Z</time>
      </trkpt>
      <trkpt lat="45.43411" lon="5.70789">
        <ele>640.99</ele>
        <time>2015-06-21T07:26:19Z</time>
      </trkpt>
      <trkpt lat="45.43393" lon="5.70788">
        <ele>639.32</ele>
        <time>2015-06-21T07:26:22Z</time>
      </trkpt>
      <trkpt lat="45.43372" lon="5.70786">
        <ele>637.78</ele>
        <time>2015-06-21T07:26:26Z</time>
      </trkpt>
      <trkpt lat="45.43362" lon="5.70765">
        <ele>638.45</ele>
        <time>2015-06-21T07:26:38Z</time>
      </trkpt>
      <trkpt lat="45.43366" lon="5.70738">
        <ele>639.63</ele>
        <time>2015-06-21T07:26:50Z</time>
      </trkpt>
      <trkpt lat="45.43369" lon="5.70712">
        <ele>639.89</ele>
        <time>2015-06-21T07:27:02Z</time>
      </trkpt>
      <trkpt lat="45.43375" lon="5.70686">
        <ele>642.09</ele>
        <time>2015-06-21T07:27:18Z</time>
      </trkpt>
      <trkpt lat="45.43385" lon="5.70664">
        <ele>647.69</ele>
        <time>2015-06-21T07:27:33Z</time>
      </trkpt>
      <trkpt lat="45.43389" lon="5.70638">
        <ele>653.52</ele>
        <time>2015-06-21T07:27:50Z</time>
      </trkpt>
      <trkpt lat="45.43373" lon="5.70626">
        <ele>658.52</ele>
        <time>2015-06-21T07:28:07Z</time>
      </trkpt>
      <trkpt lat="45.43357" lon="5.70614">
        <ele>659.28</ele>
        <time>2015-06-21T07:28:19Z</time>
      </trkpt>
      <trkpt lat="45.43341" lon="5.706">
        <ele>661.28</ele>
        <time>2015-06-21T07:28:30Z</time>
      </trkpt>
      <trkpt lat="45.43325" lon="5.70584">
        <ele>663.89</ele>
        <time>2015-06-21T07:28:42Z</time>
      </trkpt>
      <trkpt lat="45.43312" lon="5.70566">
        <ele>665.11</ele>
        <time>2015-06-21T07:28:54Z</time>
      </trkpt>
      <trkpt lat="45.43297" lon="5.70551">
        <ele>665.77</ele>
        <time>2015-06-21T07:29:05Z</time>
      </trkpt>
      <trkpt lat="45.4328" lon="5.70538">
        <ele>667.22</ele>
        <time>2015-06-21T07:29:16Z</time>
      </trkpt>
      <trkpt lat="45.43262" lon="5.70526">
        <ele>669.78</ele>
        <time>2015-06-21T07:29:27Z</time>
      </trkpt>
      <trkpt lat="45.43247" lon="5.70512">
        <ele>671.15</ele>
        <time>2015-06-21T07:29:37Z</time>
      </trkpt>
      <trkpt lat="45.4323" lon="5.70497">
        <ele>673.09</ele>
        <time>2015-06-21T07:29:48Z</time>
      </trkpt>
      <trkpt lat="45.43214" lon="5.7048">
        <ele>675.56</ele>
        <time>2015-06-21T07:29:59Z</time>
      </trkpt>
      <trkpt lat="45.43198" lon="5.70465">
        <ele>678.28</ele>
        <time>2015-06-21T07:30:11Z</time>
      </trkpt>
      <trkpt lat="45.43184" lon="5.70449">
        <ele>679.38</ele>
        <time>2015-06-21T07:30:20Z</time>
      </trkpt>
      <trkpt lat="45.4317" lon="5.70433">
        <ele>681.35</ele>
        <time>2015-06-21T07:30:30Z</time>
      </trkpt>
      <trkpt lat="45.43154" lon="5.70419">
        <ele>683.21</ele>
        <time>2015-06-21T07:30:39Z</time>
      </trkpt>
      <trkpt lat="45.43138" lon="5.70403">
        <ele>684.7</ele>
        <time>2015-06-21T07:30:48Z</time>
      </trkpt>
      <trkpt lat="45.43123" lon="5.70387">
        <ele>685.32</ele>
        <time>2015-06-21T07:30:57Z</time>
      </trkpt>
      <trkpt lat="45.43107" lon="5.70371">
        <ele>687.6</ele>
        <time>2015-06-21T07:31:06Z</time>
      </trkpt>
      <trkpt lat="45.43091" lon="5.70355">
        <ele>688.62</ele>
        <time>2015-06-21T07:31:15Z</time>
      </trkpt>
      <trkpt lat="45.43075" lon="5.70339">
        <ele>691</ele>
        <time>2015-06-21T07:31:24Z</time>
      </trkpt>
      <trkpt lat="45.43058" lon="5.70326">
        <ele>690.06</ele>
        <time>2015-06-21T07:31:34Z</time>
      </trkpt>
      <trkpt lat="45.43045" lon="5.70308">
        <ele>689.72</ele>
        <time>2015-06-21T07:31:43Z</time>
      </trkpt>
      <trkpt lat="45.43031" lon="5.70288">
        <ele>689.84</ele>
        <time>2015-06-21T07:31:50Z</time>
      </trkpt>
      <trkpt lat="45.43017" lon="5.7027">
        <ele>690.85</ele>
        <time>2015-06-21T07:31:56Z</time>
      </trkpt>
      <trkpt lat="45.43002" lon="5.7025">
        <ele>694.7</ele>
        <time>2015-06-21T07:32:03Z</time>
      </trkpt>
      <trkpt lat="45.42989" lon="5.70232">
        <ele>695.35</ele>
        <time>2015-06-21T07:32:10Z</time>
      </trkpt>
      <trkpt lat="45.42975" lon="5.70212">
        <ele>695.73</ele>
        <time>2015-06-21T07:32:18Z</time>
      </trkpt>
      <trkpt lat="45.42961" lon="5.70193">
        <ele>696.98</ele>
        <time>2015-06-21T07:32:26Z</time>
      </trkpt>
      <trkpt lat="45.4295" lon="5.70169">
        <ele>697.98</ele>
        <time>2015-06-21T07:32:34Z</time>
      </trkpt>
      <trkpt lat="45.42942" lon="5.70145">
        <ele>698.4</ele>
        <time>2015-06-21T07:32:43Z</time>
      </trkpt>
      <trkpt lat="45.4296" lon="5.70143">
        <ele>706.22</ele>
        <time>2015-06-21T07:47:07Z</time>
      </trkpt>
      <trkpt lat="45.42978" lon="5.70137">
        <ele>706.96</ele>
        <time>2015-06-21T07:47:21Z</time>
      </trkpt>
      <trkpt lat="45.42995" lon="5.70128">
        <ele>709.88</ele>
        <time>2015-06-21T07:47:35Z</time>
      </trkpt>
      <trkpt lat="45.43014" lon="5.70125">
        <ele>712.36</ele>
        <time>2015-06-21T07:47:48Z</time>
      </trkpt>
      <trkpt lat="45.43033" lon="5.70126">
        <ele>715.2</ele>
        <time>2015-06-21T07:47:59Z</time>
      </trkpt>
      <trkpt lat="45.43051" lon="5.70126">
        <ele>716.19</ele>
        <time>2015-06-21T07:48:06Z</time>
      </trkpt>
      <trkpt lat="45.4307" lon="5.70115">
        <ele>715.76</ele>
        <time>2015-06-21T07:48:18Z</time>
      </trkpt>
      <trkpt lat="45.43088" lon="5.70107">
        <ele>716.15</ele>
        <time>2015-06-21T07:48:26Z</time>
      </trkpt>
      <trkpt lat="45.43106" lon="5.70097">
        <ele>717.7</ele>
        <time>2015-06-21T07:48:33Z</time>
      </trkpt>
      <trkpt lat="45.43123" lon="5.70083">
        <ele>718.8</ele>
        <time>2015-06-21T07:48:42Z</time>
      </trkpt>
      <trkpt lat="45.43142" lon="5.70083">
        <ele>719.4</ele>
        <time>2015-06-21T07:48:48Z</time>
      </trkpt>
      <trkpt lat="45.43161" lon="5.70086">
        <ele>721.37</ele>
        <time>2015-06-21T07:48:55Z</time>
      </trkpt>
      <trkpt lat="45.43181" lon="5.7009">
        <ele>722.85</ele>
        <time>2015-06-21T07:49:03Z</time>
      </trkpt>
      <trkpt lat="45.432" lon="5.701">
        <ele>721.15</ele>
        <time>2015-06-21T07:49:10Z</time>
      </trkpt>
      <trkpt lat="45.43219" lon="5.70101">
        <ele>721.1</ele>
        <time>2015-06-21T07:49:18Z</time>
      </trkpt>
      <trkpt lat="45.43237" lon="5.70104">
        <ele>721.7</ele>
        <time>2015-06-21T07:49:26Z</time>
      </trkpt>
      <trkpt lat="45.43256" lon="5.70097">
        <ele>723.06</ele>
        <time>2015-06-21T07:49:35Z</time>
      </trkpt>
      <trkpt lat="45.43269" lon="5.70076">
        <ele>723.56</ele>
        <time>2015-06-21T07:49:47Z</time>
      </trkpt>
      <trkpt lat="45.43279" lon="5.70054">
        <ele>724.87</ele>
        <time>2015-06-21T07:49:58Z</time>
      </trkpt>
      <trkpt lat="45.43273" lon="5.70028">
        <ele>724.22</ele>
        <time>2015-06-21T07:50:11Z</time>
      </trkpt>
      <trkpt lat="45.43266" lon="5.70004">
        <ele>727.31</ele>
        <time>2015-06-21T07:50:20Z</time>
      </trkpt>
      <trkpt lat="45.43248" lon="5.69998">
        <ele>732.3</ele>
        <time>2015-06-21T07:50:37Z</time>
      </trkpt>
      <trkpt lat="45.4323" lon="5.70006">
        <ele>735.05</ele>
        <time>2015-06-21T07:50:49Z</time>
      </trkpt>
      <trkpt lat="45.4321" lon="5.69998">
        <ele>736.79</ele>
        <time>2015-06-21T07:51:00Z</time>
      </trkpt>
      <trkpt lat="45.43192" lon="5.69996">
        <ele>736.62</ele>
        <time>2015-06-21T07:51:09Z</time>
      </trkpt>
      <trkpt lat="45.4318" lon="5.69976">
        <ele>737.95</ele>
        <time>2015-06-21T07:51:23Z</time>
      </trkpt>
      <trkpt lat="45.43167" lon="5.69957">
        <ele>738.98</ele>
        <time>2015-06-21T07:51:36Z</time>
      </trkpt>
      <trkpt lat="45.43161" lon="5.69933">
        <ele>738.04</ele>
        <time>2015-06-21T07:51:48Z</time>
      </trkpt>
      <trkpt lat="45.4317" lon="5.6991">
        <ele>741.67</ele>
        <time>2015-06-21T07:52:00Z</time>
      </trkpt>
      <trkpt lat="45.43161" lon="5.69886">
        <ele>744.18</ele>
        <time>2015-06-21T07:52:16Z</time>
      </trkpt>
      <trkpt lat="45.43144" lon="5.69871">
        <ele>744.98</ele>
        <time>2015-06-21T07:52:27Z</time>
      </trkpt>
      <trkpt lat="45.43128" lon="5.69858">
        <ele>745.9</ele>
        <time>2015-06-21T07:52:42Z</time>
      </trkpt>
      <trkpt lat="45.43109" lon="5.69856">
        <ele>747.1</ele>
        <time>2015-06-21T07:52:52Z</time>
      </trkpt>
      <trkpt lat="45.43091" lon="5.6985">
        <ele>748.72</ele>
        <time>2015-06-21T07:53:02Z</time>
      </trkpt>
      <trkpt lat="45.43074" lon="5.69842">
        <ele>751.58</ele>
        <time>2015-06-21T07:53:16Z</time>
      </trkpt>
      <trkpt lat="45.43058" lon="5.69828">
        <ele>752.87</ele>
        <time>2015-06-21T07:53:32Z</time>
      </trkpt>
      <trkpt lat="45.43049" lon="5.69805">
        <ele>752.9</ele>
        <time>2015-06-21T07:53:44Z</time>
      </trkpt>
      <trkpt lat="45.43038" lon="5.69783">
        <ele>753.93</ele>
        <time>2015-06-21T07:53:56Z</time>
      </trkpt>
      <trkpt lat="45.43026" lon="5.69764">
        <ele>754.14</ele>
        <time>2015-06-21T07:54:08Z</time>
      </trkpt>
      <trkpt lat="45.43017" lon="5.69741">
        <ele>756.43</ele>
        <time>2015-06-21T07:54:22Z</time>
      </trkpt>
      <trkpt lat="45.43017" lon="5.69713">
        <ele>757.56</ele>
        <time>2015-06-21T07:54:37Z</time>
      </trkpt>
      <trkpt lat="45.43021" lon="5.69688">
        <ele>761.31</ele>
        <time>2015-06-21T07:54:52Z</time>
      </trkpt>
      <trkpt lat="45.4302" lon="5.69662">
        <ele>763.67</ele>
        <time>2015-06-21T07:55:05Z</time>
      </trkpt>
      <trkpt lat="45.43018" lon="5.69636">
        <ele>767.04</ele>
        <time>2015-06-21T07:55:20Z</time>
      </trkpt>
      <trkpt lat="45.43014" lon="5.69609">
        <ele>769.13</ele>
        <time>2015-06-21T07:55:33Z</time>
      </trkpt>
      <trkpt lat="45.4302" lon="5.69584">
        <ele>773.16</ele>
        <time>2015-06-21T07:55:49Z</time>
      </trkpt>
      <trkpt lat="45.4303" lon="5.69561">
        <ele>774.78</ele>
        <time>2015-06-21T07:56:02Z</time>
      </trkpt>
      <trkpt lat="45.4304" lon="5.6954">
        <ele>778.19</ele>
        <time>2015-06-21T07:56:16Z</time>
      </trkpt>
      <trkpt lat="45.43058" lon="5.69531">
        <ele>779.8</ele>
        <time>2015-06-21T07:56:38Z</time>
      </trkpt>
      <trkpt lat="45.43073" lon="5.6955">
        <ele>779.89</ele>
        <time>2015-06-21T07:56:45Z</time>
      </trkpt>
      <trkpt lat="45.4308" lon="5.69577">
        <ele>777.42</ele>
        <time>2015-06-21T07:56:52Z</time>
      </trkpt>
      <trkpt lat="45.43098" lon="5.69594">
        <ele>776.5</ele>
        <time>2015-06-21T07:56:55Z</time>
      </trkpt>
      <trkpt lat="45.43114" lon="5.69615">
        <ele>774.96</ele>
        <time>2015-06-21T07:56:58Z</time>
      </trkpt>
      <trkpt lat="45.43127" lon="5.69638">
        <ele>772.82</ele>
        <time>2015-06-21T07:57:01Z</time>
      </trkpt>
      <trkpt lat="45.4314" lon="5.69659">
        <ele>772.22</ele>
        <time>2015-06-21T07:57:04Z</time>
      </trkpt>
      <trkpt lat="45.43155" lon="5.69679">
        <ele>769.43</ele>
        <time>2015-06-21T07:57:07Z</time>
      </trkpt>
      <trkpt lat="45.43171" lon="5.69692">
        <ele>765.01</ele>
        <time>2015-06-21T07:57:11Z</time>
      </trkpt>
      <trkpt lat="45.43191" lon="5.69698">
        <ele>760.79</ele>
        <time>2015-06-21T07:57:17Z</time>
      </trkpt>
      <trkpt lat="45.4321" lon="5.69708">
        <ele>761.99</ele>
        <time>2015-06-21T07:57:24Z</time>
      </trkpt>
      <trkpt lat="45.43228" lon="5.69723">
        <ele>762.46</ele>
        <time>2015-06-21T07:57:31Z</time>
      </trkpt>
      <trkpt lat="45.43238" lon="5.69747">
        <ele>761.78</ele>
        <time>2015-06-21T07:57:35Z</time>
      </trkpt>
      <trkpt lat="45.43244" lon="5.69774">
        <ele>759.68</ele>
        <time>2015-06-21T07:57:39Z</time>
      </trkpt>
      <trkpt lat="45.43257" lon="5.69799">
        <ele>756.52</ele>
        <time>2015-06-21T07:57:44Z</time>
      </trkpt>
      <trkpt lat="45.43271" lon="5.69817">
        <ele>757.73</ele>
        <time>2015-06-21T07:57:47Z</time>
      </trkpt>
      <trkpt lat="45.43283" lon="5.6984">
        <ele>759.19</ele>
        <time>2015-06-21T07:57:52Z</time>
      </trkpt>
      <trkpt lat="45.43299" lon="5.69864">
        <ele>754.28</ele>
        <time>2015-06-21T07:57:55Z</time>
      </trkpt>
      <trkpt lat="45.43314" lon="5.69892">
        <ele>749.66</ele>
        <time>2015-06-21T07:57:58Z</time>
      </trkpt>
      <trkpt lat="45.43321" lon="5.69918">
        <ele>746.2</ele>
        <time>2015-06-21T07:58:02Z</time>
      </trkpt>
      <trkpt lat="45.43335" lon="5.69937">
        <ele>745.49</ele>
        <time>2015-06-21T07:58:07Z</time>
      </trkpt>
      <trkpt lat="45.43352" lon="5.69942">
        <ele>745.36</ele>
        <time>2015-06-21T07:58:16Z</time>
      </trkpt>
      <trkpt lat="45.4337" lon="5.69946">
        <ele>747.83</ele>
        <time>2015-06-21T07:58:23Z</time>
      </trkpt>
      <trkpt lat="45.43389" lon="5.69948">
        <ele>748.95</ele>
        <time>2015-06-21T07:58:31Z</time>
      </trkpt>
      <trkpt lat="45.43408" lon="5.69949">
        <ele>747.22</ele>
        <time>2015-06-21T07:58:40Z</time>
      </trkpt>
      <trkpt lat="45.43427" lon="5.69948">
        <ele>747.41</ele>
        <time>2015-06-21T07:58:47Z</time>
      </trkpt>
      <trkpt lat="45.43446" lon="5.69946">
        <ele>747.22</ele>
        <time>2015-06-21T07:58:53Z</time>
      </trkpt>
      <trkpt lat="45.43465" lon="5.69952">
        <ele>744.34</ele>
        <time>2015-06-21T07:58:58Z</time>
      </trkpt>
      <trkpt lat="45.43485" lon="5.69952">
        <ele>744.66</ele>
        <time>2015-06-21T07:59:06Z</time>
      </trkpt>
      <trkpt lat="45.43502" lon="5.69961">
        <ele>745.48</ele>
        <time>2015-06-21T07:59:11Z</time>
      </trkpt>
      <trkpt lat="45.43521" lon="5.69971">
        <ele>745.37</ele>
        <time>2015-06-21T07:59:16Z</time>
      </trkpt>
      <trkpt lat="45.43541" lon="5.69977">
        <ele>745.51</ele>
        <time>2015-06-21T07:59:22Z</time>
      </trkpt>
      <trkpt lat="45.43561" lon="5.69982">
        <ele>747.36</ele>
        <time>2015-06-21T07:59:31Z</time>
      </trkpt>
      <trkpt lat="45.43575" lon="5.69999">
        <ele>748.48</ele>
        <time>2015-06-21T07:59:42Z</time>
      </trkpt>
      <trkpt lat="45.43592" lon="5.70015">
        <ele>746.35</ele>
        <time>2015-06-21T07:59:47Z</time>
      </trkpt>
      <trkpt lat="45.43602" lon="5.70038">
        <ele>745.79</ele>
        <time>2015-06-21T07:59:50Z</time>
      </trkpt>
      <trkpt lat="45.43612" lon="5.70062">
        <ele>744.53</ele>
        <time>2015-06-21T07:59:53Z</time>
      </trkpt>
      <trkpt lat="45.43619" lon="5.70088">
        <ele>742.09</ele>
        <time>2015-06-21T07:59:56Z</time>
      </trkpt>
      <trkpt lat="45.43627" lon="5.70111">
        <ele>738.49</ele>
        <time>2015-06-21T08:00:01Z</time>
      </trkpt>
      <trkpt lat="45.43627" lon="5.70137">
        <ele>736.39</ele>
        <time>2015-06-21T08:00:06Z</time>
      </trkpt>
      <trkpt lat="45.43619" lon="5.70163">
        <ele>735.11</ele>
        <time>2015-06-21T08:00:12Z</time>
      </trkpt>
      <trkpt lat="45.43613" lon="5.70188">
        <ele>729.49</ele>
        <time>2015-06-21T08:00:16Z</time>
      </trkpt>
      <trkpt lat="45.43626" lon="5.70207">
        <ele>724.32</ele>
        <time>2015-06-21T08:00:20Z</time>
      </trkpt>
      <trkpt lat="45.43642" lon="5.70225">
        <ele>721.18</ele>
        <time>2015-06-21T08:00:25Z</time>
      </trkpt>
      <trkpt lat="45.43652" lon="5.70247">
        <ele>717.67</ele>
        <time>2015-06-21T08:01:00Z</time>
      </trkpt>
      <trkpt lat="45.43643" lon="5.70223">
        <ele>718</ele>
        <time>2015-06-21T08:01:26Z</time>
      </trkpt>
      <trkpt lat="45.43627" lon="5.70209">
        <ele>722.29</ele>
        <time>2015-06-21T08:01:38Z</time>
      </trkpt>
      <trkpt lat="45.43616" lon="5.70188">
        <ele>725.48</ele>
        <time>2015-06-21T08:01:52Z</time>
      </trkpt>
      <trkpt lat="45.43623" lon="5.70163">
        <ele>726.21</ele>
        <time>2015-06-21T08:02:13Z</time>
      </trkpt>
      <trkpt lat="45.4363" lon="5.70139">
        <ele>730.65</ele>
        <time>2015-06-21T08:02:32Z</time>
      </trkpt>
      <trkpt lat="45.43627" lon="5.70114">
        <ele>736.05</ele>
        <time>2015-06-21T08:02:51Z</time>
      </trkpt>
      <trkpt lat="45.4362" lon="5.7009">
        <ele>736.3</ele>
        <time>2015-06-21T08:03:07Z</time>
      </trkpt>
      <trkpt lat="45.43619" lon="5.70065">
        <ele>735.84</ele>
        <time>2015-06-21T08:03:26Z</time>
      </trkpt>
      <trkpt lat="45.43607" lon="5.70044">
        <ele>737.24</ele>
        <time>2015-06-21T08:03:40Z</time>
      </trkpt>
      <trkpt lat="45.43601" lon="5.7002">
        <ele>738.87</ele>
        <time>2015-06-21T08:03:52Z</time>
      </trkpt>
      <trkpt lat="45.43586" lon="5.70002">
        <ele>743.05</ele>
        <time>2015-06-21T08:04:08Z</time>
      </trkpt>
      <trkpt lat="45.4357" lon="5.6999">
        <ele>749.3</ele>
        <time>2015-06-21T08:04:20Z</time>
      </trkpt>
      <trkpt lat="45.43552" lon="5.69983">
        <ele>749.42</ele>
        <time>2015-06-21T08:04:36Z</time>
      </trkpt>
      <trkpt lat="45.43534" lon="5.69974">
        <ele>750.07</ele>
        <time>2015-06-21T08:04:55Z</time>
      </trkpt>
      <trkpt lat="45.43521" lon="5.69957">
        <ele>752.56</ele>
        <time>2015-06-21T08:05:35Z</time>
      </trkpt>
      <trkpt lat="45.43508" lon="5.69938">
        <ele>754.01</ele>
        <time>2015-06-21T08:06:14Z</time>
      </trkpt>
      <trkpt lat="45.43501" lon="5.69912">
        <ele>757.19</ele>
        <time>2015-06-21T08:06:31Z</time>
      </trkpt>
      <trkpt lat="45.43489" lon="5.69892">
        <ele>758.05</ele>
        <time>2015-06-21T08:06:45Z</time>
      </trkpt>
      <trkpt lat="45.43472" lon="5.69882">
        <ele>758.53</ele>
        <time>2015-06-21T08:06:54Z</time>
      </trkpt>
      <trkpt lat="45.43458" lon="5.69863">
        <ele>763.38</ele>
        <time>2015-06-21T08:07:07Z</time>
      </trkpt>
      <trkpt lat="45.43445" lon="5.69843">
        <ele>769.02</ele>
        <time>2015-06-21T08:07:22Z</time>
      </trkpt>
      <trkpt lat="45.43432" lon="5.69825">
        <ele>770.14</ele>
        <time>2015-06-21T08:07:33Z</time>
      </trkpt>
      <trkpt lat="45.43423" lon="5.69802">
        <ele>775.41</ele>
        <time>2015-06-21T08:07:47Z</time>
      </trkpt>
      <trkpt lat="45.43408" lon="5.69785">
        <ele>778.53</ele>
        <time>2015-06-21T08:07:58Z</time>
      </trkpt>
      <trkpt lat="45.43407" lon="5.69755">
        <ele>779.72</ele>
        <time>2015-06-21T08:08:10Z</time>
      </trkpt>
      <trkpt lat="45.43409" lon="5.69729">
        <ele>780.52</ele>
        <time>2015-06-21T08:08:24Z</time>
      </trkpt>
      <trkpt lat="45.43414" lon="5.69704">
        <ele>786.9</ele>
        <time>2015-06-21T08:08:44Z</time>
      </trkpt>
      <trkpt lat="45.434" lon="5.69688">
        <ele>787.82</ele>
        <time>2015-06-21T08:09:02Z</time>
      </trkpt>
      <trkpt lat="45.43383" lon="5.69677">
        <ele>786.76</ele>
        <time>2015-06-21T08:09:12Z</time>
      </trkpt>
      <trkpt lat="45.43365" lon="5.69675">
        <ele>788.11</ele>
        <time>2015-06-21T08:09:36Z</time>
      </trkpt>
      <trkpt lat="45.43351" lon="5.69659">
        <ele>787.27</ele>
        <time>2015-06-21T08:09:47Z</time>
      </trkpt>
      <trkpt lat="45.43337" lon="5.6964">
        <ele>786.84</ele>
        <time>2015-06-21T08:10:01Z</time>
      </trkpt>
      <trkpt lat="45.43331" lon="5.69614">
        <ele>790.41</ele>
        <time>2015-06-21T08:10:15Z</time>
      </trkpt>
      <trkpt lat="45.43324" lon="5.69589">
        <ele>793.49</ele>
        <time>2015-06-21T08:10:29Z</time>
      </trkpt>
      <trkpt lat="45.43317" lon="5.69565">
        <ele>795.78</ele>
        <time>2015-06-21T08:10:44Z</time>
      </trkpt>
      <trkpt lat="45.43308" lon="5.69542">
        <ele>798.44</ele>
        <time>2015-06-21T08:11:04Z</time>
      </trkpt>
      <trkpt lat="45.43307" lon="5.69516">
        <ele>799.73</ele>
        <time>2015-06-21T08:11:31Z</time>
      </trkpt>
      <trkpt lat="45.43299" lon="5.69493">
        <ele>792.57</ele>
        <time>2015-06-21T08:11:59Z</time>
      </trkpt>
      <trkpt lat="45.43306" lon="5.69469">
        <ele>795.65</ele>
        <time>2015-06-21T08:12:30Z</time>
      </trkpt>
      <trkpt lat="45.43322" lon="5.69455">
        <ele>798.9</ele>
        <time>2015-06-21T08:12:54Z</time>
      </trkpt>
      <trkpt lat="45.43337" lon="5.69441">
        <ele>801.97</ele>
        <time>2015-06-21T08:13:16Z</time>
      </trkpt>
      <trkpt lat="45.43346" lon="5.69419">
        <ele>804.42</ele>
        <time>2015-06-21T08:13:33Z</time>
      </trkpt>
      <trkpt lat="45.43354" lon="5.69394">
        <ele>807.87</ele>
        <time>2015-06-21T08:13:45Z</time>
      </trkpt>
      <trkpt lat="45.43337" lon="5.69383">
        <ele>810.24</ele>
        <time>2015-06-21T08:14:02Z</time>
      </trkpt>
      <trkpt lat="45.43319" lon="5.69374">
        <ele>812.85</ele>
        <time>2015-06-21T08:14:16Z</time>
      </trkpt>
      <trkpt lat="45.433" lon="5.69374">
        <ele>817.55</ele>
        <time>2015-06-21T08:14:24Z</time>
      </trkpt>
      <trkpt lat="45.43279" lon="5.69375">
        <ele>821.05</ele>
        <time>2015-06-21T08:14:32Z</time>
      </trkpt>
      <trkpt lat="45.43259" lon="5.69375">
        <ele>820.92</ele>
        <time>2015-06-21T08:14:38Z</time>
      </trkpt>
      <trkpt lat="45.43241" lon="5.6937">
        <ele>823.08</ele>
        <time>2015-06-21T08:14:44Z</time>
      </trkpt>
      <trkpt lat="45.43223" lon="5.69371">
        <ele>822.71</ele>
        <time>2015-06-21T08:14:50Z</time>
      </trkpt>
      <trkpt lat="45.43205" lon="5.6937">
        <ele>823.32</ele>
        <time>2015-06-21T08:14:58Z</time>
      </trkpt>
      <trkpt lat="45.43187" lon="5.69372">
        <ele>824.95</ele>
        <time>2015-06-21T08:15:05Z</time>
      </trkpt>
      <trkpt lat="45.43167" lon="5.69366">
        <ele>826.02</ele>
        <time>2015-06-21T08:15:10Z</time>
      </trkpt>
      <trkpt lat="45.43147" lon="5.69362">
        <ele>830.23</ele>
        <time>2015-06-21T08:15:17Z</time>
      </trkpt>
      <trkpt lat="45.43129" lon="5.6937">
        <ele>833.31</ele>
        <time>2015-06-21T08:15:24Z</time>
      </trkpt>
      <trkpt lat="45.43124" lon="5.69397">
        <ele>832.4</ele>
        <time>2015-06-21T08:15:33Z</time>
      </trkpt>
      <trkpt lat="45.43117" lon="5.69424">
        <ele>827.84</ele>
        <time>2015-06-21T08:15:39Z</time>
      </trkpt>
      <trkpt lat="45.43108" lon="5.69451">
        <ele>818.84</ele>
        <time>2015-06-21T08:15:45Z</time>
      </trkpt>
      <trkpt lat="45.43094" lon="5.69467">
        <ele>813.58</ele>
        <time>2015-06-21T08:15:50Z</time>
      </trkpt>
      <trkpt lat="45.43078" lon="5.69484">
        <ele>805.43</ele>
        <time>2015-06-21T08:15:56Z</time>
      </trkpt>
      <trkpt lat="45.43061" lon="5.69502">
        <ele>799.47</ele>
        <time>2015-06-21T08:16:01Z</time>
      </trkpt>
      <trkpt lat="45.43048" lon="5.69525">
        <ele>791.3</ele>
        <time>2015-06-21T08:16:06Z</time>
      </trkpt>
      <trkpt lat="45.4303" lon="5.69538">
        <ele>780.57</ele>
        <time>2015-06-21T08:16:13Z</time>
      </trkpt>
      <trkpt lat="45.43018" lon="5.69559">
        <ele>777.03</ele>
        <time>2015-06-21T08:16:31Z</time>
      </trkpt>
      <trkpt lat="45.43002" lon="5.69576">
        <ele>775.37</ele>
        <time>2015-06-21T08:16:36Z</time>
      </trkpt>
      <trkpt lat="45.42983" lon="5.69596">
        <ele>770.89</ele>
        <time>2015-06-21T08:16:40Z</time>
      </trkpt>
      <trkpt lat="45.42967" lon="5.69609">
        <ele>768.38</ele>
        <time>2015-06-21T08:16:43Z</time>
      </trkpt>
      <trkpt lat="45.42952" lon="5.69626">
        <ele>765.35</ele>
        <time>2015-06-21T08:16:48Z</time>
      </trkpt>
      <trkpt lat="45.42934" lon="5.69638">
        <ele>762.55</ele>
        <time>2015-06-21T08:16:52Z</time>
      </trkpt>
      <trkpt lat="45.42916" lon="5.69654">
        <ele>759.23</ele>
        <time>2015-06-21T08:16:56Z</time>
      </trkpt>
      <trkpt lat="45.429" lon="5.69675">
        <ele>755.16</ele>
        <time>2015-06-21T08:17:00Z</time>
      </trkpt>
      <trkpt lat="45.42889" lon="5.69701">
        <ele>751.31</ele>
        <time>2015-06-21T08:17:04Z</time>
      </trkpt>
      <trkpt lat="45.42879" lon="5.69729">
        <ele>745.66</ele>
        <time>2015-06-21T08:17:08Z</time>
      </trkpt>
      <trkpt lat="45.42864" lon="5.69743">
        <ele>742.74</ele>
        <time>2015-06-21T08:17:15Z</time>
      </trkpt>
      <trkpt lat="45.42846" lon="5.69741">
        <ele>747.77</ele>
        <time>2015-06-21T08:17:28Z</time>
      </trkpt>
      <trkpt lat="45.42829" lon="5.69727">
        <ele>750.92</ele>
        <time>2015-06-21T08:17:42Z</time>
      </trkpt>
      <trkpt lat="45.42811" lon="5.69739">
        <ele>750.59</ele>
        <time>2015-06-21T08:17:48Z</time>
      </trkpt>
      <trkpt lat="45.42797" lon="5.69756">
        <ele>749.62</ele>
        <time>2015-06-21T08:17:54Z</time>
      </trkpt>
      <trkpt lat="45.42786" lon="5.69777">
        <ele>750.09</ele>
        <time>2015-06-21T08:18:01Z</time>
      </trkpt>
      <trkpt lat="45.42777" lon="5.69804">
        <ele>747.17</ele>
        <time>2015-06-21T08:18:07Z</time>
      </trkpt>
      <trkpt lat="45.42775" lon="5.69831">
        <ele>741.05</ele>
        <time>2015-06-21T08:18:15Z</time>
      </trkpt>
      <trkpt lat="45.42761" lon="5.69848">
        <ele>736.44</ele>
        <time>2015-06-21T08:18:36Z</time>
      </trkpt>
      <trkpt lat="45.42741" lon="5.69849">
        <ele>732.62</ele>
        <time>2015-06-21T08:18:42Z</time>
      </trkpt>
      <trkpt lat="45.42723" lon="5.69851">
        <ele>726.11</ele>
        <time>2015-06-21T08:18:47Z</time>
      </trkpt>
      <trkpt lat="45.42706" lon="5.6986">
        <ele>726.21</ele>
        <time>2015-06-21T08:18:56Z</time>
      </trkpt>
      <trkpt lat="45.4269" lon="5.69846">
        <ele>726.05</ele>
        <time>2015-06-21T08:19:05Z</time>
      </trkpt>
      <trkpt lat="45.4267" lon="5.69845">
        <ele>726.06</ele>
        <time>2015-06-21T08:19:14Z</time>
      </trkpt>
      <trkpt lat="45.42649" lon="5.6984">
        <ele>724</ele>
        <time>2015-06-21T08:19:20Z</time>
      </trkpt>
      <trkpt lat="45.4263" lon="5.69832">
        <ele>722.49</ele>
        <time>2015-06-21T08:19:24Z</time>
      </trkpt>
      <trkpt lat="45.42607" lon="5.69824">
        <ele>720.31</ele>
        <time>2015-06-21T08:19:28Z</time>
      </trkpt>
      <trkpt lat="45.42587" lon="5.69818">
        <ele>718.93</ele>
        <time>2015-06-21T08:19:31Z</time>
      </trkpt>
      <trkpt lat="45.42565" lon="5.69808">
        <ele>718.92</ele>
        <time>2015-06-21T08:19:35Z</time>
      </trkpt>
      <trkpt lat="45.42541" lon="5.69793">
        <ele>718.08</ele>
        <time>2015-06-21T08:19:40Z</time>
      </trkpt>
      <trkpt lat="45.42523" lon="5.69783">
        <ele>715</ele>
        <time>2015-06-21T08:19:49Z</time>
      </trkpt>
      <trkpt lat="45.42518" lon="5.69758">
        <ele>709.39</ele>
        <time>2015-06-21T08:20:16Z</time>
      </trkpt>
      <trkpt lat="45.42524" lon="5.69734">
        <ele>709.48</ele>
        <time>2015-06-21T08:20:34Z</time>
      </trkpt>
      <trkpt lat="45.42528" lon="5.69708">
        <ele>713.04</ele>
        <time>2015-06-21T08:20:51Z</time>
      </trkpt>
      <trkpt lat="45.42525" lon="5.69683">
        <ele>717.01</ele>
        <time>2015-06-21T08:21:05Z</time>
      </trkpt>
      <trkpt lat="45.4252" lon="5.69657">
        <ele>717.25</ele>
        <time>2015-06-21T08:21:24Z</time>
      </trkpt>
      <trkpt lat="45.42536" lon="5.69643">
        <ele>722.9</ele>
        <time>2015-06-21T08:22:50Z</time>
      </trkpt>
      <trkpt lat="45.42539" lon="5.69617">
        <ele>725.9</ele>
        <time>2015-06-21T08:23:56Z</time>
      </trkpt>
      <trkpt lat="45.42538" lon="5.69591">
        <ele>726.19</ele>
        <time>2015-06-21T08:24:17Z</time>
      </trkpt>
      <trkpt lat="45.42542" lon="5.69566">
        <ele>728.25</ele>
        <time>2015-06-21T08:24:45Z</time>
      </trkpt>
      <trkpt lat="45.42557" lon="5.6955">
        <ele>727.88</ele>
        <time>2015-06-21T08:25:08Z</time>
      </trkpt>
      <trkpt lat="45.4257" lon="5.69531">
        <ele>728.34</ele>
        <time>2015-06-21T08:25:20Z</time>
      </trkpt>
      <trkpt lat="45.42558" lon="5.69509">
        <ele>729.89</ele>
        <time>2015-06-21T08:25:31Z</time>
      </trkpt>
      <trkpt lat="45.42542" lon="5.69495">
        <ele>734.29</ele>
        <time>2015-06-21T08:25:42Z</time>
      </trkpt>
      <trkpt lat="45.42536" lon="5.69469">
        <ele>740.07</ele>
        <time>2015-06-21T08:25:54Z</time>
      </trkpt>
      <trkpt lat="45.42532" lon="5.69444">
        <ele>742.4</ele>
        <time>2015-06-21T08:26:07Z</time>
      </trkpt>
      <trkpt lat="45.42524" lon="5.6942">
        <ele>745.29</ele>
        <time>2015-06-21T08:26:21Z</time>
      </trkpt>
      <trkpt lat="45.42506" lon="5.69407">
        <ele>745.86</ele>
        <time>2015-06-21T08:26:32Z</time>
      </trkpt>
      <trkpt lat="45.42488" lon="5.69393">
        <ele>748</ele>
        <time>2015-06-21T08:26:40Z</time>
      </trkpt>
      <trkpt lat="45.42469" lon="5.69377">
        <ele>745.67</ele>
        <time>2015-06-21T08:26:45Z</time>
      </trkpt>
      <trkpt lat="45.42459" lon="5.69356">
        <ele>745.58</ele>
        <time>2015-06-21T08:26:54Z</time>
      </trkpt>
      <trkpt lat="45.42462" lon="5.69328">
        <ele>747.08</ele>
        <time>2015-06-21T08:27:05Z</time>
      </trkpt>
      <trkpt lat="45.42462" lon="5.69302">
        <ele>745.84</ele>
        <time>2015-06-21T08:27:24Z</time>
      </trkpt>
      <trkpt lat="45.42467" lon="5.69276">
        <ele>745.27</ele>
        <time>2015-06-21T08:27:40Z</time>
      </trkpt>
      <trkpt lat="45.42474" lon="5.69251">
        <ele>745.95</ele>
        <time>2015-06-21T08:28:01Z</time>
      </trkpt>
      <trkpt lat="45.42469" lon="5.69224">
        <ele>746.78</ele>
        <time>2015-06-21T08:28:20Z</time>
      </trkpt>
      <trkpt lat="45.42454" lon="5.69211">
        <ele>747.36</ele>
        <time>2015-06-21T08:28:25Z</time>
      </trkpt>
      <trkpt lat="45.42445" lon="5.69188">
        <ele>751.88</ele>
        <time>2015-06-21T08:28:34Z</time>
      </trkpt>
      <trkpt lat="45.42428" lon="5.69171">
        <ele>751.45</ele>
        <time>2015-06-21T08:28:39Z</time>
      </trkpt>
      <trkpt lat="45.42405" lon="5.69172">
        <ele>749.69</ele>
        <time>2015-06-21T08:28:43Z</time>
      </trkpt>
      <trkpt lat="45.42387" lon="5.69161">
        <ele>748.96</ele>
        <time>2015-06-21T08:28:47Z</time>
      </trkpt>
      <trkpt lat="45.42367" lon="5.69143">
        <ele>746.4</ele>
        <time>2015-06-21T08:28:51Z</time>
      </trkpt>
      <trkpt lat="45.42358" lon="5.6912">
        <ele>746.86</ele>
        <time>2015-06-21T08:28:58Z</time>
      </trkpt>
      <trkpt lat="45.42354" lon="5.69095">
        <ele>743.11</ele>
        <time>2015-06-21T08:29:15Z</time>
      </trkpt>
      <trkpt lat="45.42349" lon="5.69069">
        <ele>738.14</ele>
        <time>2015-06-21T08:29:47Z</time>
      </trkpt>
      <trkpt lat="45.42352" lon="5.69042">
        <ele>739.65</ele>
        <time>2015-06-21T08:29:56Z</time>
      </trkpt>
      <trkpt lat="45.42341" lon="5.69018">
        <ele>744.92</ele>
        <time>2015-06-21T08:30:03Z</time>
      </trkpt>
      <trkpt lat="45.42323" lon="5.69002">
        <ele>742.59</ele>
        <time>2015-06-21T08:30:07Z</time>
      </trkpt>
      <trkpt lat="45.42308" lon="5.68987">
        <ele>742.4</ele>
        <time>2015-06-21T08:30:11Z</time>
      </trkpt>
      <trkpt lat="45.42295" lon="5.68963">
        <ele>743.37</ele>
        <time>2015-06-21T08:30:16Z</time>
      </trkpt>
      <trkpt lat="45.42278" lon="5.68943">
        <ele>745.11</ele>
        <time>2015-06-21T08:30:20Z</time>
      </trkpt>
      <trkpt lat="45.42262" lon="5.6893">
        <ele>746.11</ele>
        <time>2015-06-21T08:30:24Z</time>
      </trkpt>
      <trkpt lat="45.42245" lon="5.68912">
        <ele>744.79</ele>
        <time>2015-06-21T08:30:28Z</time>
      </trkpt>
      <trkpt lat="45.42229" lon="5.68897">
        <ele>745.75</ele>
        <time>2015-06-21T08:30:32Z</time>
      </trkpt>
      <trkpt lat="45.42227" lon="5.68871">
        <ele>737.6</ele>
        <time>2015-06-21T08:30:43Z</time>
      </trkpt>
      <trkpt lat="45.42236" lon="5.68848">
        <ele>736.03</ele>
        <time>2015-06-21T08:31:06Z</time>
      </trkpt>
      <trkpt lat="45.42239" lon="5.68823">
        <ele>735.29</ele>
        <time>2015-06-21T08:31:27Z</time>
      </trkpt>
      <trkpt lat="45.4224" lon="5.68796">
        <ele>736.73</ele>
        <time>2015-06-21T08:31:44Z</time>
      </trkpt>
      <trkpt lat="45.42246" lon="5.68772">
        <ele>739.24</ele>
        <time>2015-06-21T08:32:02Z</time>
      </trkpt>
      <trkpt lat="45.42263" lon="5.68758">
        <ele>740.9</ele>
        <time>2015-06-21T08:32:20Z</time>
      </trkpt>
      <trkpt lat="45.42275" lon="5.68738">
        <ele>741.76</ele>
        <time>2015-06-21T08:32:35Z</time>
      </trkpt>
      <trkpt lat="45.42291" lon="5.68726">
        <ele>741.94</ele>
        <time>2015-06-21T08:32:47Z</time>
      </trkpt>
      <trkpt lat="45.42308" lon="5.68715">
        <ele>743.01</ele>
        <time>2015-06-21T08:33:02Z</time>
      </trkpt>
      <trkpt lat="45.42325" lon="5.68704">
        <ele>743.79</ele>
        <time>2015-06-21T08:33:17Z</time>
      </trkpt>
      <trkpt lat="45.4234" lon="5.68689">
        <ele>743.67</ele>
        <time>2015-06-21T08:33:29Z</time>
      </trkpt>
      <trkpt lat="45.42355" lon="5.68675">
        <ele>747.21</ele>
        <time>2015-06-21T08:33:51Z</time>
      </trkpt>
      <trkpt lat="45.42372" lon="5.68665">
        <ele>749.03</ele>
        <time>2015-06-21T08:34:10Z</time>
      </trkpt>
      <trkpt lat="45.4239" lon="5.6866">
        <ele>751.26</ele>
        <time>2015-06-21T08:34:24Z</time>
      </trkpt>
      <trkpt lat="45.42409" lon="5.68664">
        <ele>752.05</ele>
        <time>2015-06-21T08:34:35Z</time>
      </trkpt>
      <trkpt lat="45.42426" lon="5.68675">
        <ele>750.96</ele>
        <time>2015-06-21T08:34:47Z</time>
      </trkpt>
      <trkpt lat="45.42443" lon="5.68691">
        <ele>751.15</ele>
        <time>2015-06-21T08:34:55Z</time>
      </trkpt>
      <trkpt lat="45.42458" lon="5.68709">
        <ele>754.63</ele>
        <time>2015-06-21T08:35:03Z</time>
      </trkpt>
      <trkpt lat="45.42472" lon="5.68726">
        <ele>755.45</ele>
        <time>2015-06-21T08:35:12Z</time>
      </trkpt>
      <trkpt lat="45.42486" lon="5.68745">
        <ele>753.66</ele>
        <time>2015-06-21T08:35:21Z</time>
      </trkpt>
      <trkpt lat="45.42499" lon="5.68766">
        <ele>750.86</ele>
        <time>2015-06-21T08:35:29Z</time>
      </trkpt>
      <trkpt lat="45.42509" lon="5.68789">
        <ele>747.92</ele>
        <time>2015-06-21T08:35:37Z</time>
      </trkpt>
      <trkpt lat="45.42522" lon="5.68807">
        <ele>747.56</ele>
        <time>2015-06-21T08:35:45Z</time>
      </trkpt>
      <trkpt lat="45.42536" lon="5.68825">
        <ele>747.82</ele>
        <time>2015-06-21T08:35:51Z</time>
      </trkpt>
      <trkpt lat="45.42549" lon="5.68844">
        <ele>749.43</ele>
        <time>2015-06-21T08:35:56Z</time>
      </trkpt>
      <trkpt lat="45.42562" lon="5.68862">
        <ele>750.67</ele>
        <time>2015-06-21T08:36:01Z</time>
      </trkpt>
      <trkpt lat="45.42575" lon="5.68882">
        <ele>752.65</ele>
        <time>2015-06-21T08:36:07Z</time>
      </trkpt>
      <trkpt lat="45.42587" lon="5.68905">
        <ele>752.89</ele>
        <time>2015-06-21T08:36:14Z</time>
      </trkpt>
      <trkpt lat="45.42599" lon="5.68927">
        <ele>750.08</ele>
        <time>2015-06-21T08:36:19Z</time>
      </trkpt>
      <trkpt lat="45.42612" lon="5.68946">
        <ele>751.95</ele>
        <time>2015-06-21T08:36:24Z</time>
      </trkpt>
      <trkpt lat="45.42627" lon="5.68964">
        <ele>754.16</ele>
        <time>2015-06-21T08:36:29Z</time>
      </trkpt>
      <trkpt lat="45.42639" lon="5.68986">
        <ele>754.35</ele>
        <time>2015-06-21T08:36:35Z</time>
      </trkpt>
      <trkpt lat="45.42652" lon="5.69004">
        <ele>754.85</ele>
        <time>2015-06-21T08:36:46Z</time>
      </trkpt>
      <trkpt lat="45.42663" lon="5.69028">
        <ele>748.82</ele>
        <time>2015-06-21T08:37:04Z</time>
      </trkpt>
      <trkpt lat="45.4266" lon="5.69055">
        <ele>746.56</ele>
        <time>2015-06-21T08:37:21Z</time>
      </trkpt>
      <trkpt lat="45.42674" lon="5.69075">
        <ele>747.26</ele>
        <time>2015-06-21T08:37:30Z</time>
      </trkpt>
      <trkpt lat="45.42683" lon="5.691">
        <ele>747</ele>
        <time>2015-06-21T08:37:37Z</time>
      </trkpt>
      <trkpt lat="45.42688" lon="5.69126">
        <ele>751.14</ele>
        <time>2015-06-21T08:37:52Z</time>
      </trkpt>
      <trkpt lat="45.42705" lon="5.69138">
        <ele>752.21</ele>
        <time>2015-06-21T08:38:02Z</time>
      </trkpt>
      <trkpt lat="45.4272" lon="5.69154">
        <ele>754.5</ele>
        <time>2015-06-21T08:38:11Z</time>
      </trkpt>
      <trkpt lat="45.4274" lon="5.69154">
        <ele>754.69</ele>
        <time>2015-06-21T08:38:22Z</time>
      </trkpt>
      <trkpt lat="45.42759" lon="5.69149">
        <ele>758.33</ele>
        <time>2015-06-21T08:38:30Z</time>
      </trkpt>
      <trkpt lat="45.4278" lon="5.69148">
        <ele>761.81</ele>
        <time>2015-06-21T08:38:43Z</time>
      </trkpt>
      <trkpt lat="45.42798" lon="5.69144">
        <ele>763.01</ele>
        <time>2015-06-21T08:38:52Z</time>
      </trkpt>
      <trkpt lat="45.42816" lon="5.69133">
        <ele>764.94</ele>
        <time>2015-06-21T08:39:04Z</time>
      </trkpt>
      <trkpt lat="45.42835" lon="5.6912">
        <ele>766.5</ele>
        <time>2015-06-21T08:39:15Z</time>
      </trkpt>
      <trkpt lat="45.42852" lon="5.69106">
        <ele>767.76</ele>
        <time>2015-06-21T08:39:26Z</time>
      </trkpt>
      <trkpt lat="45.4287" lon="5.69097">
        <ele>769.77</ele>
        <time>2015-06-21T08:39:39Z</time>
      </trkpt>
      <trkpt lat="45.42888" lon="5.6909">
        <ele>774.18</ele>
        <time>2015-06-21T08:39:57Z</time>
      </trkpt>
      <trkpt lat="45.42905" lon="5.69079">
        <ele>775.83</ele>
        <time>2015-06-21T08:40:10Z</time>
      </trkpt>
      <trkpt lat="45.42921" lon="5.69069">
        <ele>778.97</ele>
        <time>2015-06-21T08:40:21Z</time>
      </trkpt>
      <trkpt lat="45.42936" lon="5.69055">
        <ele>780.34</ele>
        <time>2015-06-21T08:40:36Z</time>
      </trkpt>
      <trkpt lat="45.42955" lon="5.69047">
        <ele>782.13</ele>
        <time>2015-06-21T08:40:53Z</time>
      </trkpt>
      <trkpt lat="45.42973" lon="5.69046">
        <ele>784.27</ele>
        <time>2015-06-21T08:41:16Z</time>
      </trkpt>
      <trkpt lat="45.4299" lon="5.69052">
        <ele>788.68</ele>
        <time>2015-06-21T08:41:35Z</time>
      </trkpt>
      <trkpt lat="45.43006" lon="5.69067">
        <ele>790.67</ele>
        <time>2015-06-21T08:41:56Z</time>
      </trkpt>
      <trkpt lat="45.43024" lon="5.69064">
        <ele>792.95</ele>
        <time>2015-06-21T08:42:12Z</time>
      </trkpt>
      <trkpt lat="45.43043" lon="5.69063">
        <ele>795.54</ele>
        <time>2015-06-21T08:42:29Z</time>
      </trkpt>
      <trkpt lat="45.4306" lon="5.69051">
        <ele>796.12</ele>
        <time>2015-06-21T08:42:46Z</time>
      </trkpt>
      <trkpt lat="45.43075" lon="5.69032">
        <ele>797.77</ele>
        <time>2015-06-21T08:43:00Z</time>
      </trkpt>
      <trkpt lat="45.43089" lon="5.69016">
        <ele>799.7</ele>
        <time>2015-06-21T08:43:11Z</time>
      </trkpt>
      <trkpt lat="45.43103" lon="5.68995">
        <ele>801.54</ele>
        <time>2015-06-21T08:43:19Z</time>
      </trkpt>
      <trkpt lat="45.43117" lon="5.68976">
        <ele>805.4</ele>
        <time>2015-06-21T08:43:32Z</time>
      </trkpt>
      <trkpt lat="45.43132" lon="5.6896">
        <ele>806.97</ele>
        <time>2015-06-21T08:43:42Z</time>
      </trkpt>
      <trkpt lat="45.4315" lon="5.68954">
        <ele>804.97</ele>
        <time>2015-06-21T08:43:56Z</time>
      </trkpt>
      <trkpt lat="45.43167" lon="5.68943">
        <ele>804.82</ele>
        <time>2015-06-21T08:44:09Z</time>
      </trkpt>
      <trkpt lat="45.4318" lon="5.68924">
        <ele>806.4</ele>
        <time>2015-06-21T08:44:26Z</time>
      </trkpt>
      <trkpt lat="45.43197" lon="5.68911">
        <ele>807.97</ele>
        <time>2015-06-21T08:44:35Z</time>
      </trkpt>
      <trkpt lat="45.43212" lon="5.68893">
        <ele>809.65</ele>
        <time>2015-06-21T08:44:47Z</time>
      </trkpt>
      <trkpt lat="45.43231" lon="5.68887">
        <ele>810.89</ele>
        <time>2015-06-21T08:45:00Z</time>
      </trkpt>
      <trkpt lat="45.43249" lon="5.68902">
        <ele>809.39</ele>
        <time>2015-06-21T08:45:06Z</time>
      </trkpt>
      <trkpt lat="45.43266" lon="5.68919">
        <ele>807.89</ele>
        <time>2015-06-21T08:45:11Z</time>
      </trkpt>
      <trkpt lat="45.43283" lon="5.68933">
        <ele>807.38</ele>
        <time>2015-06-21T08:45:16Z</time>
      </trkpt>
      <trkpt lat="45.433" lon="5.68943">
        <ele>806.75</ele>
        <time>2015-06-21T08:45:20Z</time>
      </trkpt>
      <trkpt lat="45.43317" lon="5.68953">
        <ele>805.96</ele>
        <time>2015-06-21T08:45:24Z</time>
      </trkpt>
      <trkpt lat="45.43338" lon="5.68967">
        <ele>805.22</ele>
        <time>2015-06-21T08:45:29Z</time>
      </trkpt>
      <trkpt lat="45.43355" lon="5.68979">
        <ele>805.47</ele>
        <time>2015-06-21T08:45:33Z</time>
      </trkpt>
      <trkpt lat="45.43375" lon="5.68978">
        <ele>805.34</ele>
        <time>2015-06-21T08:45:38Z</time>
      </trkpt>
      <trkpt lat="45.43393" lon="5.68965">
        <ele>805.67</ele>
        <time>2015-06-21T08:45:43Z</time>
      </trkpt>
      <trkpt lat="45.43411" lon="5.68953">
        <ele>806.11</ele>
        <time>2015-06-21T08:45:48Z</time>
      </trkpt>
      <trkpt lat="45.4343" lon="5.68939">
        <ele>807.08</ele>
        <time>2015-06-21T08:45:54Z</time>
      </trkpt>
      <trkpt lat="45.43447" lon="5.68928">
        <ele>808.41</ele>
        <time>2015-06-21T08:46:00Z</time>
      </trkpt>
      <trkpt lat="45.43466" lon="5.68917">
        <ele>809.29</ele>
        <time>2015-06-21T08:46:06Z</time>
      </trkpt>
      <trkpt lat="45.43485" lon="5.68909">
        <ele>810.01</ele>
        <time>2015-06-21T08:46:12Z</time>
      </trkpt>
      <trkpt lat="45.43504" lon="5.68902">
        <ele>811.86</ele>
        <time>2015-06-21T08:46:18Z</time>
      </trkpt>
      <trkpt lat="45.43523" lon="5.68904">
        <ele>811.43</ele>
        <time>2015-06-21T08:46:25Z</time>
      </trkpt>
      <trkpt lat="45.43542" lon="5.68905">
        <ele>812.57</ele>
        <time>2015-06-21T08:46:33Z</time>
      </trkpt>
      <trkpt lat="45.43562" lon="5.68911">
        <ele>813.56</ele>
        <time>2015-06-21T08:46:39Z</time>
      </trkpt>
      <trkpt lat="45.43583" lon="5.68911">
        <ele>813.59</ele>
        <time>2015-06-21T08:46:45Z</time>
      </trkpt>
      <trkpt lat="45.43603" lon="5.68909">
        <ele>812.87</ele>
        <time>2015-06-21T08:46:51Z</time>
      </trkpt>
      <trkpt lat="45.43623" lon="5.68912">
        <ele>813.86</ele>
        <time>2015-06-21T08:46:57Z</time>
      </trkpt>
      <trkpt lat="45.43644" lon="5.68914">
        <ele>824.92</ele>
        <time>2015-06-21T08:47:06Z</time>
      </trkpt>
      <trkpt lat="45.43665" lon="5.68909">
        <ele>826.17</ele>
        <time>2015-06-21T08:47:10Z</time>
      </trkpt>
      <trkpt lat="45.43686" lon="5.68908">
        <ele>825.77</ele>
        <time>2015-06-21T08:47:15Z</time>
      </trkpt>
      <trkpt lat="45.43704" lon="5.68914">
        <ele>821.75</ele>
        <time>2015-06-21T08:47:19Z</time>
      </trkpt>
      <trkpt lat="45.43724" lon="5.68917">
        <ele>818.45</ele>
        <time>2015-06-21T08:47:24Z</time>
      </trkpt>
      <trkpt lat="45.43744" lon="5.68918">
        <ele>817.43</ele>
        <time>2015-06-21T08:47:29Z</time>
      </trkpt>
      <trkpt lat="45.43765" lon="5.68914">
        <ele>817.59</ele>
        <time>2015-06-21T08:47:35Z</time>
      </trkpt>
      <trkpt lat="45.43785" lon="5.6891">
        <ele>817.91</ele>
        <time>2015-06-21T08:47:41Z</time>
      </trkpt>
      <trkpt lat="45.43805" lon="5.68907">
        <ele>817.98</ele>
        <time>2015-06-21T08:47:47Z</time>
      </trkpt>
      <trkpt lat="45.43825" lon="5.68905">
        <ele>818.28</ele>
        <time>2015-06-21T08:47:53Z</time>
      </trkpt>
      <trkpt lat="45.43845" lon="5.68905">
        <ele>818.8</ele>
        <time>2015-06-21T08:47:59Z</time>
      </trkpt>
      <trkpt lat="45.43864" lon="5.68908">
        <ele>818.68</ele>
        <time>2015-06-21T08:48:04Z</time>
      </trkpt>
      <trkpt lat="45.43885" lon="5.68907">
        <ele>816.92</ele>
        <time>2015-06-21T08:48:09Z</time>
      </trkpt>
      <trkpt lat="45.43905" lon="5.68896">
        <ele>817.53</ele>
        <time>2015-06-21T08:48:15Z</time>
      </trkpt>
      <trkpt lat="45.43923" lon="5.68886">
        <ele>818.22</ele>
        <time>2015-06-21T08:48:20Z</time>
      </trkpt>
      <trkpt lat="45.43942" lon="5.68877">
        <ele>819</ele>
        <time>2015-06-21T08:48:25Z</time>
      </trkpt>
      <trkpt lat="45.4396" lon="5.68868">
        <ele>819.7</ele>
        <time>2015-06-21T08:48:30Z</time>
      </trkpt>
      <trkpt lat="45.4398" lon="5.68856">
        <ele>820.7</ele>
        <time>2015-06-21T08:48:36Z</time>
      </trkpt>
      <trkpt lat="45.43994" lon="5.68839">
        <ele>821.21</ele>
        <time>2015-06-21T08:48:41Z</time>
      </trkpt>
      <trkpt lat="45.44003" lon="5.68816">
        <ele>821.54</ele>
        <time>2015-06-21T08:48:46Z</time>
      </trkpt>
      <trkpt lat="45.44007" lon="5.68791">
        <ele>821.96</ele>
        <time>2015-06-21T08:48:51Z</time>
      </trkpt>
      <trkpt lat="45.44002" lon="5.68762">
        <ele>822.34</ele>
        <time>2015-06-21T08:48:57Z</time>
      </trkpt>
      <trkpt lat="45.43992" lon="5.6874">
        <ele>823.07</ele>
        <time>2015-06-21T08:49:02Z</time>
      </trkpt>
      <trkpt lat="45.43978" lon="5.68719">
        <ele>823.98</ele>
        <time>2015-06-21T08:49:08Z</time>
      </trkpt>
      <trkpt lat="45.43964" lon="5.68701">
        <ele>825.03</ele>
        <time>2015-06-21T08:49:14Z</time>
      </trkpt>
      <trkpt lat="45.43952" lon="5.68682">
        <ele>826.09</ele>
        <time>2015-06-21T08:49:20Z</time>
      </trkpt>
      <trkpt lat="45.43939" lon="5.68664">
        <ele>826.96</ele>
        <time>2015-06-21T08:49:26Z</time>
      </trkpt>
      <trkpt lat="45.43926" lon="5.68646">
        <ele>827.94</ele>
        <time>2015-06-21T08:49:32Z</time>
      </trkpt>
      <trkpt lat="45.43913" lon="5.68628">
        <ele>828.8</ele>
        <time>2015-06-21T08:49:38Z</time>
      </trkpt>
      <trkpt lat="45.43898" lon="5.68607">
        <ele>830.05</ele>
        <time>2015-06-21T08:49:45Z</time>
      </trkpt>
      <trkpt lat="45.43884" lon="5.68588">
        <ele>831.14</ele>
        <time>2015-06-21T08:49:52Z</time>
      </trkpt>
      <trkpt lat="45.4387" lon="5.68567">
        <ele>832.18</ele>
        <time>2015-06-21T08:49:59Z</time>
      </trkpt>
      <trkpt lat="45.43856" lon="5.68547">
        <ele>833.15</ele>
        <time>2015-06-21T08:50:06Z</time>
      </trkpt>
      <trkpt lat="45.43873" lon="5.68534">
        <ele>834.86</ele>
        <time>2015-06-21T08:50:17Z</time>
      </trkpt>
      <trkpt lat="45.43874" lon="5.68508">
        <ele>836.12</ele>
        <time>2015-06-21T08:50:28Z</time>
      </trkpt>
      <trkpt lat="45.4387" lon="5.68483">
        <ele>837.27</ele>
        <time>2015-06-21T08:50:38Z</time>
      </trkpt>
      <trkpt lat="45.43864" lon="5.68457">
        <ele>838.31</ele>
        <time>2015-06-21T08:50:49Z</time>
      </trkpt>
      <trkpt lat="45.43858" lon="5.68433">
        <ele>839.66</ele>
        <time>2015-06-21T08:50:59Z</time>
      </trkpt>
      <trkpt lat="45.43851" lon="5.68408">
        <ele>841.19</ele>
        <time>2015-06-21T08:51:11Z</time>
      </trkpt>
      <trkpt lat="45.43845" lon="5.68383">
        <ele>842.51</ele>
        <time>2015-06-21T08:51:23Z</time>
      </trkpt>
      <trkpt lat="45.4384" lon="5.68358">
        <ele>844.82</ele>
        <time>2015-06-21T08:51:36Z</time>
      </trkpt>
      <trkpt lat="45.43839" lon="5.68331">
        <ele>848.11</ele>
        <time>2015-06-21T08:51:50Z</time>
      </trkpt>
      <trkpt lat="45.43843" lon="5.68305">
        <ele>850.69</ele>
        <time>2015-06-21T08:52:04Z</time>
      </trkpt>
      <trkpt lat="45.43849" lon="5.6828">
        <ele>852.59</ele>
        <time>2015-06-21T08:52:16Z</time>
      </trkpt>
      <trkpt lat="45.43854" lon="5.68255">
        <ele>855.38</ele>
        <time>2015-06-21T08:52:30Z</time>
      </trkpt>
      <trkpt lat="45.43861" lon="5.6823">
        <ele>858.09</ele>
        <time>2015-06-21T08:52:45Z</time>
      </trkpt>
      <trkpt lat="45.43868" lon="5.68205">
        <ele>859.31</ele>
        <time>2015-06-21T08:52:57Z</time>
      </trkpt>
      <trkpt lat="45.43874" lon="5.6818">
        <ele>860.69</ele>
        <time>2015-06-21T08:53:08Z</time>
      </trkpt>
      <trkpt lat="45.43881" lon="5.68153">
        <ele>861.76</ele>
        <time>2015-06-21T08:53:22Z</time>
      </trkpt>
      <trkpt lat="45.43884" lon="5.68126">
        <ele>863.7</ele>
        <time>2015-06-21T08:53:30Z</time>
      </trkpt>
      <trkpt lat="45.43871" lon="5.68107">
        <ele>864.39</ele>
        <time>2015-06-21T08:53:37Z</time>
      </trkpt>
      <trkpt lat="45.43854" lon="5.68095">
        <ele>866.38</ele>
        <time>2015-06-21T08:53:44Z</time>
      </trkpt>
      <trkpt lat="45.43839" lon="5.68075">
        <ele>867.11</ele>
        <time>2015-06-21T08:53:52Z</time>
      </trkpt>
      <trkpt lat="45.43822" lon="5.68052">
        <ele>867.1</ele>
        <time>2015-06-21T08:53:59Z</time>
      </trkpt>
      <trkpt lat="45.43806" lon="5.68033">
        <ele>865.16</ele>
        <time>2015-06-21T08:54:05Z</time>
      </trkpt>
      <trkpt lat="45.43789" lon="5.68023">
        <ele>866.85</ele>
        <time>2015-06-21T08:54:12Z</time>
      </trkpt>
      <trkpt lat="45.43772" lon="5.68013">
        <ele>864.17</ele>
        <time>2015-06-21T08:54:20Z</time>
      </trkpt>
      <trkpt lat="45.43754" lon="5.68002">
        <ele>861.63</ele>
        <time>2015-06-21T08:54:26Z</time>
      </trkpt>
      <trkpt lat="45.43738" lon="5.67982">
        <ele>860.89</ele>
        <time>2015-06-21T08:54:30Z</time>
      </trkpt>
      <trkpt lat="45.43726" lon="5.67962">
        <ele>859.79</ele>
        <time>2015-06-21T08:54:34Z</time>
      </trkpt>
      <trkpt lat="45.43709" lon="5.67945">
        <ele>859.32</ele>
        <time>2015-06-21T08:54:40Z</time>
      </trkpt>
      <trkpt lat="45.43691" lon="5.67935">
        <ele>859.59</ele>
        <time>2015-06-21T08:54:46Z</time>
      </trkpt>
      <trkpt lat="45.43673" lon="5.67929">
        <ele>857.98</ele>
        <time>2015-06-21T08:54:56Z</time>
      </trkpt>
      <trkpt lat="45.43656" lon="5.67918">
        <ele>859.29</ele>
        <time>2015-06-21T08:55:03Z</time>
      </trkpt>
      <trkpt lat="45.43639" lon="5.67902">
        <ele>860.62</ele>
        <time>2015-06-21T08:55:08Z</time>
      </trkpt>
      <trkpt lat="45.43618" lon="5.67891">
        <ele>861.14</ele>
        <time>2015-06-21T08:55:12Z</time>
      </trkpt>
      <trkpt lat="45.43599" lon="5.67871">
        <ele>859.25</ele>
        <time>2015-06-21T08:55:15Z</time>
      </trkpt>
      <trkpt lat="45.43579" lon="5.67874">
        <ele>854.02</ele>
        <time>2015-06-21T08:55:20Z</time>
      </trkpt>
      <trkpt lat="45.43561" lon="5.6788">
        <ele>850.04</ele>
        <time>2015-06-21T08:55:26Z</time>
      </trkpt>
      <trkpt lat="45.43541" lon="5.67878">
        <ele>850.26</ele>
        <time>2015-06-21T08:55:34Z</time>
      </trkpt>
      <trkpt lat="45.43524" lon="5.67868">
        <ele>856.48</ele>
        <time>2015-06-21T08:55:46Z</time>
      </trkpt>
      <trkpt lat="45.43508" lon="5.67853">
        <ele>859.13</ele>
        <time>2015-06-21T08:55:57Z</time>
      </trkpt>
      <trkpt lat="45.43494" lon="5.67835">
        <ele>859.93</ele>
        <time>2015-06-21T08:56:06Z</time>
      </trkpt>
      <trkpt lat="45.43478" lon="5.67819">
        <ele>857.77</ele>
        <time>2015-06-21T08:56:15Z</time>
      </trkpt>
      <trkpt lat="45.4346" lon="5.67806">
        <ele>858.57</ele>
        <time>2015-06-21T08:56:24Z</time>
      </trkpt>
      <trkpt lat="45.43444" lon="5.67792">
        <ele>860.9</ele>
        <time>2015-06-21T08:56:36Z</time>
      </trkpt>
      <trkpt lat="45.43426" lon="5.67786">
        <ele>863.41</ele>
        <time>2015-06-21T08:56:48Z</time>
      </trkpt>
      <trkpt lat="45.43408" lon="5.67784">
        <ele>864.9</ele>
        <time>2015-06-21T08:56:57Z</time>
      </trkpt>
      <trkpt lat="45.4339" lon="5.67787">
        <ele>866.31</ele>
        <time>2015-06-21T08:57:06Z</time>
      </trkpt>
      <trkpt lat="45.43372" lon="5.67791">
        <ele>866.32</ele>
        <time>2015-06-21T08:57:15Z</time>
      </trkpt>
      <trkpt lat="45.43351" lon="5.67789">
        <ele>865.56</ele>
        <time>2015-06-21T08:57:23Z</time>
      </trkpt>
      <trkpt lat="45.43331" lon="5.67787">
        <ele>863.99</ele>
        <time>2015-06-21T08:57:30Z</time>
      </trkpt>
      <trkpt lat="45.43312" lon="5.6779">
        <ele>866.98</ele>
        <time>2015-06-21T08:57:38Z</time>
      </trkpt>
      <trkpt lat="45.43301" lon="5.67813">
        <ele>869.9</ele>
        <time>2015-06-21T08:57:48Z</time>
      </trkpt>
      <trkpt lat="45.43283" lon="5.67805">
        <ele>870.8</ele>
        <time>2015-06-21T08:57:56Z</time>
      </trkpt>
      <trkpt lat="45.43265" lon="5.67798">
        <ele>870.01</ele>
        <time>2015-06-21T08:58:02Z</time>
      </trkpt>
      <trkpt lat="45.43245" lon="5.67788">
        <ele>869.41</ele>
        <time>2015-06-21T08:58:07Z</time>
      </trkpt>
      <trkpt lat="45.43227" lon="5.67779">
        <ele>869.08</ele>
        <time>2015-06-21T08:58:12Z</time>
      </trkpt>
      <trkpt lat="45.4321" lon="5.67767">
        <ele>870.55</ele>
        <time>2015-06-21T08:58:19Z</time>
      </trkpt>
      <trkpt lat="45.43192" lon="5.67753">
        <ele>868.21</ele>
        <time>2015-06-21T08:58:26Z</time>
      </trkpt>
      <trkpt lat="45.43185" lon="5.67728">
        <ele>864.42</ele>
        <time>2015-06-21T08:58:32Z</time>
      </trkpt>
      <trkpt lat="45.4318" lon="5.67702">
        <ele>864.44</ele>
        <time>2015-06-21T08:58:38Z</time>
      </trkpt>
      <trkpt lat="45.43173" lon="5.67675">
        <ele>868.22</ele>
        <time>2015-06-21T08:58:44Z</time>
      </trkpt>
      <trkpt lat="45.43161" lon="5.67654">
        <ele>869.13</ele>
        <time>2015-06-21T08:58:48Z</time>
      </trkpt>
      <trkpt lat="45.4315" lon="5.67628">
        <ele>868.66</ele>
        <time>2015-06-21T08:58:51Z</time>
      </trkpt>
      <trkpt lat="45.4314" lon="5.67603">
        <ele>868.22</ele>
        <time>2015-06-21T08:58:54Z</time>
      </trkpt>
      <trkpt lat="45.43132" lon="5.67575">
        <ele>867.81</ele>
        <time>2015-06-21T08:58:57Z</time>
      </trkpt>
      <trkpt lat="45.4313" lon="5.67549">
        <ele>866.6</ele>
        <time>2015-06-21T08:59:03Z</time>
      </trkpt>
      <trkpt lat="45.43125" lon="5.67523">
        <ele>866.4</ele>
        <time>2015-06-21T08:59:09Z</time>
      </trkpt>
      <trkpt lat="45.43123" lon="5.67492">
        <ele>869</ele>
        <time>2015-06-21T08:59:14Z</time>
      </trkpt>
      <trkpt lat="45.43119" lon="5.6746">
        <ele>872.62</ele>
        <time>2015-06-21T08:59:17Z</time>
      </trkpt>
      <trkpt lat="45.43107" lon="5.67431">
        <ele>874.49</ele>
        <time>2015-06-21T08:59:20Z</time>
      </trkpt>
      <trkpt lat="45.43097" lon="5.67398">
        <ele>875.42</ele>
        <time>2015-06-21T08:59:24Z</time>
      </trkpt>
      <trkpt lat="45.43087" lon="5.6737">
        <ele>873.53</ele>
        <time>2015-06-21T08:59:26Z</time>
      </trkpt>
      <trkpt lat="45.43073" lon="5.67339">
        <ele>870.05</ele>
        <time>2015-06-21T08:59:29Z</time>
      </trkpt>
      <trkpt lat="45.43064" lon="5.67312">
        <ele>867.52</ele>
        <time>2015-06-21T08:59:32Z</time>
      </trkpt>
      <trkpt lat="45.43057" lon="5.67288">
        <ele>866.24</ele>
        <time>2015-06-21T08:59:35Z</time>
      </trkpt>
      <trkpt lat="45.43046" lon="5.67259">
        <ele>866.73</ele>
        <time>2015-06-21T08:59:40Z</time>
      </trkpt>
      <trkpt lat="45.43037" lon="5.67234">
        <ele>862.79</ele>
        <time>2015-06-21T08:59:43Z</time>
      </trkpt>
      <trkpt lat="45.43036" lon="5.67205">
        <ele>861.67</ele>
        <time>2015-06-21T08:59:48Z</time>
      </trkpt>
      <trkpt lat="45.4302" lon="5.67182">
        <ele>864.46</ele>
        <time>2015-06-21T08:59:53Z</time>
      </trkpt>
      <trkpt lat="45.43007" lon="5.67162">
        <ele>863.04</ele>
        <time>2015-06-21T08:59:56Z</time>
      </trkpt>
      <trkpt lat="45.42992" lon="5.67137">
        <ele>864.44</ele>
        <time>2015-06-21T09:00:00Z</time>
      </trkpt>
      <trkpt lat="45.42979" lon="5.67111">
        <ele>865.2</ele>
        <time>2015-06-21T09:00:05Z</time>
      </trkpt>
      <trkpt lat="45.42964" lon="5.67089">
        <ele>861.83</ele>
        <time>2015-06-21T09:00:09Z</time>
      </trkpt>
      <trkpt lat="45.42952" lon="5.67065">
        <ele>862.59</ele>
        <time>2015-06-21T09:00:13Z</time>
      </trkpt>
      <trkpt lat="45.42935" lon="5.67042">
        <ele>861.72</ele>
        <time>2015-06-21T09:00:16Z</time>
      </trkpt>
      <trkpt lat="45.42922" lon="5.67015">
        <ele>859.55</ele>
        <time>2015-06-21T09:00:20Z</time>
      </trkpt>
      <trkpt lat="45.42907" lon="5.66993">
        <ele>857.38</ele>
        <time>2015-06-21T09:00:24Z</time>
      </trkpt>
      <trkpt lat="45.42895" lon="5.66971">
        <ele>857.25</ele>
        <time>2015-06-21T09:00:28Z</time>
      </trkpt>
      <trkpt lat="45.42887" lon="5.66948">
        <ele>859.07</ele>
        <time>2015-06-21T09:00:36Z</time>
      </trkpt>
      <trkpt lat="45.42885" lon="5.66922">
        <ele>863.61</ele>
        <time>2015-06-21T09:00:52Z</time>
      </trkpt>
      <trkpt lat="45.42879" lon="5.66897">
        <ele>866.6</ele>
        <time>2015-06-21T09:01:07Z</time>
      </trkpt>
      <trkpt lat="45.42869" lon="5.66874">
        <ele>866.04</ele>
        <time>2015-06-21T09:01:20Z</time>
      </trkpt>
      <trkpt lat="45.42856" lon="5.66857">
        <ele>868.17</ele>
        <time>2015-06-21T09:01:34Z</time>
      </trkpt>
      <trkpt lat="45.42847" lon="5.66833">
        <ele>870.28</ele>
        <time>2015-06-21T09:01:45Z</time>
      </trkpt>
      <trkpt lat="45.42837" lon="5.66811">
        <ele>873.69</ele>
        <time>2015-06-21T09:01:50Z</time>
      </trkpt>
      <trkpt lat="45.42823" lon="5.66787">
        <ele>878.16</ele>
        <time>2015-06-21T09:01:57Z</time>
      </trkpt>
      <trkpt lat="45.42817" lon="5.66762">
        <ele>875.42</ele>
        <time>2015-06-21T09:02:02Z</time>
      </trkpt>
      <trkpt lat="45.42808" lon="5.66738">
        <ele>873.36</ele>
        <time>2015-06-21T09:02:07Z</time>
      </trkpt>
      <trkpt lat="45.42796" lon="5.66717">
        <ele>875.47</ele>
        <time>2015-06-21T09:02:14Z</time>
      </trkpt>
      <trkpt lat="45.42786" lon="5.66694">
        <ele>876.44</ele>
        <time>2015-06-21T09:02:21Z</time>
      </trkpt>
      <trkpt lat="45.42779" lon="5.66671">
        <ele>880.86</ele>
        <time>2015-06-21T09:02:29Z</time>
      </trkpt>
      <trkpt lat="45.42761" lon="5.66664">
        <ele>875.55</ele>
        <time>2015-06-21T09:02:36Z</time>
      </trkpt>
      <trkpt lat="45.42747" lon="5.66643">
        <ele>867.61</ele>
        <time>2015-06-21T09:02:43Z</time>
      </trkpt>
      <trkpt lat="45.42737" lon="5.66621">
        <ele>864.51</ele>
        <time>2015-06-21T09:02:49Z</time>
      </trkpt>
      <trkpt lat="45.42725" lon="5.66596">
        <ele>866.54</ele>
        <time>2015-06-21T09:02:55Z</time>
      </trkpt>
      <trkpt lat="45.4272" lon="5.66565">
        <ele>873.75</ele>
        <time>2015-06-21T09:03:00Z</time>
      </trkpt>
      <trkpt lat="45.42712" lon="5.66541">
        <ele>879.89</ele>
        <time>2015-06-21T09:03:13Z</time>
      </trkpt>
      <trkpt lat="45.42707" lon="5.66516">
        <ele>876.83</ele>
        <time>2015-06-21T09:03:31Z</time>
      </trkpt>
      <trkpt lat="45.42696" lon="5.66492">
        <ele>875</ele>
        <time>2015-06-21T09:03:41Z</time>
      </trkpt>
      <trkpt lat="45.42686" lon="5.66468">
        <ele>874.37</ele>
        <time>2015-06-21T09:03:48Z</time>
      </trkpt>
      <trkpt lat="45.42673" lon="5.66445">
        <ele>875.74</ele>
        <time>2015-06-21T09:03:55Z</time>
      </trkpt>
      <trkpt lat="45.4266" lon="5.66427">
        <ele>874.14</ele>
        <time>2015-06-21T09:04:01Z</time>
      </trkpt>
      <trkpt lat="45.42646" lon="5.66407">
        <ele>872.15</ele>
        <time>2015-06-21T09:04:07Z</time>
      </trkpt>
      <trkpt lat="45.42633" lon="5.66389">
        <ele>871.94</ele>
        <time>2015-06-21T09:04:12Z</time>
      </trkpt>
      <trkpt lat="45.42619" lon="5.6637">
        <ele>872.62</ele>
        <time>2015-06-21T09:04:18Z</time>
      </trkpt>
      <trkpt lat="45.42607" lon="5.66349">
        <ele>875.68</ele>
        <time>2015-06-21T09:04:26Z</time>
      </trkpt>
      <trkpt lat="45.4259" lon="5.66332">
        <ele>880.13</ele>
        <time>2015-06-21T09:04:33Z</time>
      </trkpt>
      <trkpt lat="45.42576" lon="5.66316">
        <ele>881.36</ele>
        <time>2015-06-21T09:04:42Z</time>
      </trkpt>
      <trkpt lat="45.42574" lon="5.66341">
        <ele>882.53</ele>
        <time>2015-06-21T09:05:18Z</time>
      </trkpt>
      <trkpt lat="45.42579" lon="5.66367">
        <ele>883.15</ele>
        <time>2015-06-21T09:05:33Z</time>
      </trkpt>
      <trkpt lat="45.42587" lon="5.66392">
        <ele>881.94</ele>
        <time>2015-06-21T09:05:41Z</time>
      </trkpt>
      <trkpt lat="45.42598" lon="5.66414">
        <ele>878.98</ele>
        <time>2015-06-21T09:05:48Z</time>
      </trkpt>
      <trkpt lat="45.42609" lon="5.66435">
        <ele>878.02</ele>
        <time>2015-06-21T09:05:53Z</time>
      </trkpt>
      <trkpt lat="45.4262" lon="5.66456">
        <ele>878.04</ele>
        <time>2015-06-21T09:06:01Z</time>
      </trkpt>
      <trkpt lat="45.42631" lon="5.6648">
        <ele>879.99</ele>
        <time>2015-06-21T09:06:11Z</time>
      </trkpt>
      <trkpt lat="45.42639" lon="5.66505">
        <ele>880.9</ele>
        <time>2015-06-21T09:06:20Z</time>
      </trkpt>
      <trkpt lat="45.42648" lon="5.66529">
        <ele>883.08</ele>
        <time>2015-06-21T09:06:33Z</time>
      </trkpt>
      <trkpt lat="45.42659" lon="5.6655">
        <ele>884.49</ele>
        <time>2015-06-21T09:06:45Z</time>
      </trkpt>
      <trkpt lat="45.42672" lon="5.6657">
        <ele>884.15</ele>
        <time>2015-06-21T09:06:51Z</time>
      </trkpt>
      <trkpt lat="45.42684" lon="5.66589">
        <ele>884.17</ele>
        <time>2015-06-21T09:06:57Z</time>
      </trkpt>
      <trkpt lat="45.42695" lon="5.66613">
        <ele>884.45</ele>
        <time>2015-06-21T09:07:07Z</time>
      </trkpt>
      <trkpt lat="45.42707" lon="5.66635">
        <ele>885.7</ele>
        <time>2015-06-21T09:07:15Z</time>
      </trkpt>
      <trkpt lat="45.42712" lon="5.66661">
        <ele>885.53</ele>
        <time>2015-06-21T09:07:26Z</time>
      </trkpt>
      <trkpt lat="45.42716" lon="5.66686">
        <ele>885.59</ele>
        <time>2015-06-21T09:07:37Z</time>
      </trkpt>
      <trkpt lat="45.4272" lon="5.66711">
        <ele>886.39</ele>
        <time>2015-06-21T09:07:53Z</time>
      </trkpt>
      <trkpt lat="45.42728" lon="5.66736">
        <ele>887.18</ele>
        <time>2015-06-21T09:08:03Z</time>
      </trkpt>
      <trkpt lat="45.42737" lon="5.66762">
        <ele>887.43</ele>
        <time>2015-06-21T09:08:12Z</time>
      </trkpt>
      <trkpt lat="45.42739" lon="5.66788">
        <ele>887.87</ele>
        <time>2015-06-21T09:08:26Z</time>
      </trkpt>
      <trkpt lat="45.4275" lon="5.66816">
        <ele>889.03</ele>
        <time>2015-06-21T09:08:37Z</time>
      </trkpt>
      <trkpt lat="45.4276" lon="5.66837">
        <ele>890.04</ele>
        <time>2015-06-21T09:08:46Z</time>
      </trkpt>
      <trkpt lat="45.42775" lon="5.66859">
        <ele>889.78</ele>
        <time>2015-06-21T09:08:53Z</time>
      </trkpt>
      <trkpt lat="45.42786" lon="5.66881">
        <ele>889.62</ele>
        <time>2015-06-21T09:09:02Z</time>
      </trkpt>
      <trkpt lat="45.42792" lon="5.66905">
        <ele>891.19</ele>
        <time>2015-06-21T09:09:13Z</time>
      </trkpt>
      <trkpt lat="45.42789" lon="5.66931">
        <ele>892.02</ele>
        <time>2015-06-21T09:09:23Z</time>
      </trkpt>
      <trkpt lat="45.42794" lon="5.66956">
        <ele>891.97</ele>
        <time>2015-06-21T09:09:39Z</time>
      </trkpt>
      <trkpt lat="45.42794" lon="5.66983">
        <ele>893.08</ele>
        <time>2015-06-21T09:09:51Z</time>
      </trkpt>
      <trkpt lat="45.42793" lon="5.6701">
        <ele>893.39</ele>
        <time>2015-06-21T09:10:00Z</time>
      </trkpt>
      <trkpt lat="45.42796" lon="5.67039">
        <ele>895.07</ele>
        <time>2015-06-21T09:10:10Z</time>
      </trkpt>
      <trkpt lat="45.4279" lon="5.67064">
        <ele>893.87</ele>
        <time>2015-06-21T09:10:19Z</time>
      </trkpt>
      <trkpt lat="45.42772" lon="5.67077">
        <ele>893.71</ele>
        <time>2015-06-21T09:10:31Z</time>
      </trkpt>
      <trkpt lat="45.42759" lon="5.671">
        <ele>891.84</ele>
        <time>2015-06-21T09:10:36Z</time>
      </trkpt>
      <trkpt lat="45.42742" lon="5.67088">
        <ele>885.18</ele>
        <time>2015-06-21T09:10:43Z</time>
      </trkpt>
      <trkpt lat="45.42722" lon="5.67075">
        <ele>878.56</ele>
        <time>2015-06-21T09:10:47Z</time>
      </trkpt>
      <trkpt lat="45.42703" lon="5.67093">
        <ele>873.99</ele>
        <time>2015-06-21T09:10:51Z</time>
      </trkpt>
      <trkpt lat="45.42691" lon="5.67117">
        <ele>869.63</ele>
        <time>2015-06-21T09:10:54Z</time>
      </trkpt>
      <trkpt lat="45.42675" lon="5.67142">
        <ele>865.82</ele>
        <time>2015-06-21T09:10:57Z</time>
      </trkpt>
      <trkpt lat="45.42669" lon="5.67166">
        <ele>861.98</ele>
        <time>2015-06-21T09:11:05Z</time>
      </trkpt>
      <trkpt lat="45.42671" lon="5.67192">
        <ele>864.57</ele>
        <time>2015-06-21T09:11:16Z</time>
      </trkpt>
      <trkpt lat="45.42661" lon="5.67215">
        <ele>865.92</ele>
        <time>2015-06-21T09:11:26Z</time>
      </trkpt>
      <trkpt lat="45.42647" lon="5.67235">
        <ele>866.95</ele>
        <time>2015-06-21T09:11:36Z</time>
      </trkpt>
      <trkpt lat="45.42633" lon="5.67254">
        <ele>870.98</ele>
        <time>2015-06-21T09:21:41Z</time>
      </trkpt>
      <trkpt lat="45.42622" lon="5.67276">
        <ele>871</ele>
        <time>2015-06-21T09:21:50Z</time>
      </trkpt>
      <trkpt lat="45.42609" lon="5.67294">
        <ele>871.37</ele>
        <time>2015-06-21T09:21:58Z</time>
      </trkpt>
      <trkpt lat="45.42591" lon="5.67306">
        <ele>871.44</ele>
        <time>2015-06-21T09:22:06Z</time>
      </trkpt>
      <trkpt lat="45.42575" lon="5.6732">
        <ele>871.42</ele>
        <time>2015-06-21T09:22:17Z</time>
      </trkpt>
      <trkpt lat="45.42559" lon="5.67333">
        <ele>875.15</ele>
        <time>2015-06-21T09:22:30Z</time>
      </trkpt>
      <trkpt lat="45.42543" lon="5.67347">
        <ele>877.71</ele>
        <time>2015-06-21T09:22:37Z</time>
      </trkpt>
      <trkpt lat="45.42531" lon="5.67368">
        <ele>877.76</ele>
        <time>2015-06-21T09:22:45Z</time>
      </trkpt>
      <trkpt lat="45.42533" lon="5.67396">
        <ele>878.46</ele>
        <time>2015-06-21T09:22:53Z</time>
      </trkpt>
      <trkpt lat="45.42535" lon="5.67423">
        <ele>881.33</ele>
        <time>2015-06-21T09:23:02Z</time>
      </trkpt>
      <trkpt lat="45.42535" lon="5.67451">
        <ele>883.27</ele>
        <time>2015-06-21T09:23:12Z</time>
      </trkpt>
      <trkpt lat="45.42532" lon="5.67478">
        <ele>883.66</ele>
        <time>2015-06-21T09:23:23Z</time>
      </trkpt>
      <trkpt lat="45.42538" lon="5.67503">
        <ele>883.63</ele>
        <time>2015-06-21T09:23:36Z</time>
      </trkpt>
      <trkpt lat="45.4255" lon="5.67524">
        <ele>886.32</ele>
        <time>2015-06-21T09:23:50Z</time>
      </trkpt>
      <trkpt lat="45.4256" lon="5.67545">
        <ele>888</ele>
        <time>2015-06-21T09:24:01Z</time>
      </trkpt>
      <trkpt lat="45.42552" lon="5.67569">
        <ele>891.77</ele>
        <time>2015-06-21T09:24:18Z</time>
      </trkpt>
      <trkpt lat="45.42541" lon="5.67591">
        <ele>893.73</ele>
        <time>2015-06-21T09:24:35Z</time>
      </trkpt>
      <trkpt lat="45.42537" lon="5.67618">
        <ele>894.19</ele>
        <time>2015-06-21T09:24:46Z</time>
      </trkpt>
      <trkpt lat="45.42533" lon="5.67648">
        <ele>893.18</ele>
        <time>2015-06-21T09:24:51Z</time>
      </trkpt>
      <trkpt lat="45.42534" lon="5.67682">
        <ele>891.9</ele>
        <time>2015-06-21T09:24:55Z</time>
      </trkpt>
      <trkpt lat="45.42537" lon="5.67713">
        <ele>889.44</ele>
        <time>2015-06-21T09:24:58Z</time>
      </trkpt>
      <trkpt lat="45.42535" lon="5.67743">
        <ele>886.26</ele>
        <time>2015-06-21T09:25:02Z</time>
      </trkpt>
      <trkpt lat="45.42541" lon="5.6777">
        <ele>884.22</ele>
        <time>2015-06-21T09:25:06Z</time>
      </trkpt>
      <trkpt lat="45.42555" lon="5.67796">
        <ele>883.14</ele>
        <time>2015-06-21T09:25:10Z</time>
      </trkpt>
      <trkpt lat="45.42546" lon="5.67822">
        <ele>879.71</ele>
        <time>2015-06-21T09:25:19Z</time>
      </trkpt>
      <trkpt lat="45.42526" lon="5.6781">
        <ele>880.87</ele>
        <time>2015-06-21T09:25:25Z</time>
      </trkpt>
      <trkpt lat="45.42508" lon="5.67801">
        <ele>881.4</ele>
        <time>2015-06-21T09:25:29Z</time>
      </trkpt>
      <trkpt lat="45.4249" lon="5.67794">
        <ele>881.93</ele>
        <time>2015-06-21T09:25:33Z</time>
      </trkpt>
      <trkpt lat="45.4247" lon="5.67776">
        <ele>886.42</ele>
        <time>2015-06-21T09:25:42Z</time>
      </trkpt>
      <trkpt lat="45.42456" lon="5.67753">
        <ele>886.45</ele>
        <time>2015-06-21T09:25:47Z</time>
      </trkpt>
      <trkpt lat="45.42443" lon="5.67731">
        <ele>883.8</ele>
        <time>2015-06-21T09:25:54Z</time>
      </trkpt>
      <trkpt lat="45.42427" lon="5.67714">
        <ele>890.47</ele>
        <time>2015-06-21T09:26:05Z</time>
      </trkpt>
      <trkpt lat="45.42407" lon="5.67714">
        <ele>898.81</ele>
        <time>2015-06-21T09:26:12Z</time>
      </trkpt>
      <trkpt lat="45.42386" lon="5.67722">
        <ele>898.23</ele>
        <time>2015-06-21T09:26:17Z</time>
      </trkpt>
      <trkpt lat="45.42366" lon="5.67717">
        <ele>898.33</ele>
        <time>2015-06-21T09:26:23Z</time>
      </trkpt>
      <trkpt lat="45.42345" lon="5.67716">
        <ele>891.13</ele>
        <time>2015-06-21T09:26:33Z</time>
      </trkpt>
      <trkpt lat="45.42327" lon="5.67723">
        <ele>882.51</ele>
        <time>2015-06-21T09:26:42Z</time>
      </trkpt>
      <trkpt lat="45.42312" lon="5.67741">
        <ele>877.35</ele>
        <time>2015-06-21T09:26:48Z</time>
      </trkpt>
      <trkpt lat="45.42294" lon="5.67742">
        <ele>872.31</ele>
        <time>2015-06-21T09:26:53Z</time>
      </trkpt>
      <trkpt lat="45.42275" lon="5.67745">
        <ele>869.85</ele>
        <time>2015-06-21T09:27:02Z</time>
      </trkpt>
      <trkpt lat="45.42257" lon="5.67744">
        <ele>868.33</ele>
        <time>2015-06-21T09:27:08Z</time>
      </trkpt>
      <trkpt lat="45.42238" lon="5.67748">
        <ele>865.39</ele>
        <time>2015-06-21T09:27:12Z</time>
      </trkpt>
      <trkpt lat="45.42228" lon="5.67774">
        <ele>854.88</ele>
        <time>2015-06-21T09:27:20Z</time>
      </trkpt>
      <trkpt lat="45.4223" lon="5.67802">
        <ele>846.46</ele>
        <time>2015-06-21T09:27:24Z</time>
      </trkpt>
      <trkpt lat="45.42243" lon="5.67821">
        <ele>834.04</ele>
        <time>2015-06-21T09:27:30Z</time>
      </trkpt>
      <trkpt lat="45.42255" lon="5.67842">
        <ele>825.4</ele>
        <time>2015-06-21T09:27:41Z</time>
      </trkpt>
      <trkpt lat="45.42266" lon="5.67866">
        <ele>822.49</ele>
        <time>2015-06-21T09:27:47Z</time>
      </trkpt>
      <trkpt lat="45.42273" lon="5.67893">
        <ele>819.34</ele>
        <time>2015-06-21T09:27:54Z</time>
      </trkpt>
      <trkpt lat="45.42275" lon="5.67922">
        <ele>811.5</ele>
        <time>2015-06-21T09:27:59Z</time>
      </trkpt>
      <trkpt lat="45.42278" lon="5.6795">
        <ele>805.59</ele>
        <time>2015-06-21T09:28:02Z</time>
      </trkpt>
      <trkpt lat="45.42287" lon="5.6798">
        <ele>801.83</ele>
        <time>2015-06-21T09:28:05Z</time>
      </trkpt>
      <trkpt lat="45.42298" lon="5.68012">
        <ele>795.77</ele>
        <time>2015-06-21T09:28:09Z</time>
      </trkpt>
      <trkpt lat="45.4231" lon="5.68041">
        <ele>791.6</ele>
        <time>2015-06-21T09:28:11Z</time>
      </trkpt>
      <trkpt lat="45.42323" lon="5.68069">
        <ele>786.75</ele>
        <time>2015-06-21T09:28:14Z</time>
      </trkpt>
      <trkpt lat="45.42331" lon="5.68098">
        <ele>783.05</ele>
        <time>2015-06-21T09:28:17Z</time>
      </trkpt>
      <trkpt lat="45.42342" lon="5.68125">
        <ele>779.48</ele>
        <time>2015-06-21T09:28:20Z</time>
      </trkpt>
      <trkpt lat="45.42353" lon="5.68151">
        <ele>774.39</ele>
        <time>2015-06-21T09:28:23Z</time>
      </trkpt>
      <trkpt lat="45.42372" lon="5.68163">
        <ele>777.93</ele>
        <time>2015-06-21T09:28:37Z</time>
      </trkpt>
      <trkpt lat="45.42388" lon="5.68174">
        <ele>780.18</ele>
        <time>2015-06-21T09:28:46Z</time>
      </trkpt>
      <trkpt lat="45.42404" lon="5.68191">
        <ele>782.89</ele>
        <time>2015-06-21T09:28:56Z</time>
      </trkpt>
      <trkpt lat="45.42419" lon="5.68206">
        <ele>788.52</ele>
        <time>2015-06-21T09:29:09Z</time>
      </trkpt>
      <trkpt lat="45.42435" lon="5.68221">
        <ele>791.88</ele>
        <time>2015-06-21T09:29:16Z</time>
      </trkpt>
      <trkpt lat="45.42449" lon="5.68238">
        <ele>793.9</ele>
        <time>2015-06-21T09:29:23Z</time>
      </trkpt>
      <trkpt lat="45.42467" lon="5.68244">
        <ele>796.57</ele>
        <time>2015-06-21T09:29:33Z</time>
      </trkpt>
      <trkpt lat="45.42485" lon="5.68252">
        <ele>802.09</ele>
        <time>2015-06-21T09:29:47Z</time>
      </trkpt>
      <trkpt lat="45.42497" lon="5.68273">
        <ele>803.52</ele>
        <time>2015-06-21T09:29:56Z</time>
      </trkpt>
      <trkpt lat="45.42511" lon="5.68289">
        <ele>803.44</ele>
        <time>2015-06-21T09:30:05Z</time>
      </trkpt>
      <trkpt lat="45.42527" lon="5.68308">
        <ele>803.16</ele>
        <time>2015-06-21T09:30:12Z</time>
      </trkpt>
      <trkpt lat="45.42543" lon="5.68324">
        <ele>800.64</ele>
        <time>2015-06-21T09:30:19Z</time>
      </trkpt>
      <trkpt lat="45.42558" lon="5.68339">
        <ele>799.24</ele>
        <time>2015-06-21T09:30:23Z</time>
      </trkpt>
      <trkpt lat="45.42577" lon="5.68351">
        <ele>798.93</ele>
        <time>2015-06-21T09:30:29Z</time>
      </trkpt>
      <trkpt lat="45.42594" lon="5.68357">
        <ele>800.47</ele>
        <time>2015-06-21T09:30:42Z</time>
      </trkpt>
      <trkpt lat="45.42612" lon="5.68362">
        <ele>804.42</ele>
        <time>2015-06-21T09:30:58Z</time>
      </trkpt>
      <trkpt lat="45.42628" lon="5.68378">
        <ele>806.37</ele>
        <time>2015-06-21T09:31:06Z</time>
      </trkpt>
      <trkpt lat="45.42646" lon="5.68392">
        <ele>804.77</ele>
        <time>2015-06-21T09:31:13Z</time>
      </trkpt>
      <trkpt lat="45.42664" lon="5.684">
        <ele>807.55</ele>
        <time>2015-06-21T09:31:21Z</time>
      </trkpt>
      <trkpt lat="45.42683" lon="5.68406">
        <ele>810.88</ele>
        <time>2015-06-21T09:31:33Z</time>
      </trkpt>
      <trkpt lat="45.42701" lon="5.68399">
        <ele>813.31</ele>
        <time>2015-06-21T09:31:47Z</time>
      </trkpt>
      <trkpt lat="45.42716" lon="5.68415">
        <ele>813.4</ele>
        <time>2015-06-21T09:31:56Z</time>
      </trkpt>
      <trkpt lat="45.42732" lon="5.6843">
        <ele>814.51</ele>
        <time>2015-06-21T09:32:09Z</time>
      </trkpt>
      <trkpt lat="45.42748" lon="5.68447">
        <ele>812.32</ele>
        <time>2015-06-21T09:32:15Z</time>
      </trkpt>
      <trkpt lat="45.42767" lon="5.68453">
        <ele>809.55</ele>
        <time>2015-06-21T09:32:21Z</time>
      </trkpt>
      <trkpt lat="45.42784" lon="5.68467">
        <ele>809.81</ele>
        <time>2015-06-21T09:32:25Z</time>
      </trkpt>
      <trkpt lat="45.42798" lon="5.68486">
        <ele>809.59</ele>
        <time>2015-06-21T09:32:32Z</time>
      </trkpt>
      <trkpt lat="45.4281" lon="5.68505">
        <ele>814.04</ele>
        <time>2015-06-21T09:32:40Z</time>
      </trkpt>
      <trkpt lat="45.42801" lon="5.68531">
        <ele>814.5</ele>
        <time>2015-06-21T09:32:45Z</time>
      </trkpt>
      <trkpt lat="45.42791" lon="5.68558">
        <ele>814.01</ele>
        <time>2015-06-21T09:32:49Z</time>
      </trkpt>
      <trkpt lat="45.42779" lon="5.68581">
        <ele>813.55</ele>
        <time>2015-06-21T09:32:54Z</time>
      </trkpt>
      <trkpt lat="45.42776" lon="5.68613">
        <ele>811.89</ele>
        <time>2015-06-21T09:32:58Z</time>
      </trkpt>
      <trkpt lat="45.42778" lon="5.68642">
        <ele>809.41</ele>
        <time>2015-06-21T09:33:00Z</time>
      </trkpt>
      <trkpt lat="45.42764" lon="5.68658">
        <ele>806.33</ele>
        <time>2015-06-21T09:33:02Z</time>
      </trkpt>
      <trkpt lat="45.42745" lon="5.68679">
        <ele>802.77</ele>
        <time>2015-06-21T09:33:06Z</time>
      </trkpt>
      <trkpt lat="45.4274" lon="5.68704">
        <ele>798.52</ele>
        <time>2015-06-21T09:33:11Z</time>
      </trkpt>
      <trkpt lat="45.42722" lon="5.68713">
        <ele>797.29</ele>
        <time>2015-06-21T09:33:16Z</time>
      </trkpt>
      <trkpt lat="45.42702" lon="5.6872">
        <ele>794.6</ele>
        <time>2015-06-21T09:33:28Z</time>
      </trkpt>
      <trkpt lat="45.42682" lon="5.68721">
        <ele>793.12</ele>
        <time>2015-06-21T09:33:31Z</time>
      </trkpt>
      <trkpt lat="45.42661" lon="5.68717">
        <ele>792.74</ele>
        <time>2015-06-21T09:33:35Z</time>
      </trkpt>
      <trkpt lat="45.42647" lon="5.68692">
        <ele>797.13</ele>
        <time>2015-06-21T09:33:41Z</time>
      </trkpt>
      <trkpt lat="45.42625" lon="5.68681">
        <ele>802.5</ele>
        <time>2015-06-21T09:33:45Z</time>
      </trkpt>
      <trkpt lat="45.42609" lon="5.68663">
        <ele>811.31</ele>
        <time>2015-06-21T09:33:52Z</time>
      </trkpt>
      <trkpt lat="45.42594" lon="5.68649">
        <ele>820.31</ele>
        <time>2015-06-21T09:33:57Z</time>
      </trkpt>
      <trkpt lat="45.42574" lon="5.68634">
        <ele>832.14</ele>
        <time>2015-06-21T09:34:03Z</time>
      </trkpt>
      <trkpt lat="45.42558" lon="5.68621">
        <ele>844.55</ele>
        <time>2015-06-21T09:34:10Z</time>
      </trkpt>
      <trkpt lat="45.42543" lon="5.68605">
        <ele>849.39</ele>
        <time>2015-06-21T09:34:14Z</time>
      </trkpt>
      <trkpt lat="45.42524" lon="5.68598">
        <ele>855.56</ele>
        <time>2015-06-21T09:34:19Z</time>
      </trkpt>
      <trkpt lat="45.42507" lon="5.68587">
        <ele>860.19</ele>
        <time>2015-06-21T09:34:25Z</time>
      </trkpt>
      <trkpt lat="45.42484" lon="5.6858">
        <ele>868.37</ele>
        <time>2015-06-21T09:34:32Z</time>
      </trkpt>
      <trkpt lat="45.42467" lon="5.6856">
        <ele>872.14</ele>
        <time>2015-06-21T09:34:36Z</time>
      </trkpt>
      <trkpt lat="45.4245" lon="5.68547">
        <ele>872.33</ele>
        <time>2015-06-21T09:34:42Z</time>
      </trkpt>
      <trkpt lat="45.42433" lon="5.68525">
        <ele>870.02</ele>
        <time>2015-06-21T09:34:46Z</time>
      </trkpt>
      <trkpt lat="45.42411" lon="5.68509">
        <ele>871.28</ele>
        <time>2015-06-21T09:34:49Z</time>
      </trkpt>
      <trkpt lat="45.42388" lon="5.68505">
        <ele>870.94</ele>
        <time>2015-06-21T09:34:53Z</time>
      </trkpt>
      <trkpt lat="45.42366" lon="5.68495">
        <ele>871.3</ele>
        <time>2015-06-21T09:34:57Z</time>
      </trkpt>
      <trkpt lat="45.42351" lon="5.68478">
        <ele>870.76</ele>
        <time>2015-06-21T09:35:00Z</time>
      </trkpt>
      <trkpt lat="45.42341" lon="5.68451">
        <ele>869.92</ele>
        <time>2015-06-21T09:35:04Z</time>
      </trkpt>
      <trkpt lat="45.42332" lon="5.68425">
        <ele>860.06</ele>
        <time>2015-06-21T09:35:11Z</time>
      </trkpt>
      <trkpt lat="45.42314" lon="5.68407">
        <ele>855.11</ele>
        <time>2015-06-21T09:35:16Z</time>
      </trkpt>
      <trkpt lat="45.42299" lon="5.68392">
        <ele>852.98</ele>
        <time>2015-06-21T09:35:21Z</time>
      </trkpt>
      <trkpt lat="45.42291" lon="5.68368">
        <ele>849.15</ele>
        <time>2015-06-21T09:35:27Z</time>
      </trkpt>
      <trkpt lat="45.42274" lon="5.68353">
        <ele>846.07</ele>
        <time>2015-06-21T09:35:32Z</time>
      </trkpt>
      <trkpt lat="45.42259" lon="5.68332">
        <ele>845.38</ele>
        <time>2015-06-21T09:35:37Z</time>
      </trkpt>
      <trkpt lat="45.42245" lon="5.68312">
        <ele>844.06</ele>
        <time>2015-06-21T09:35:42Z</time>
      </trkpt>
      <trkpt lat="45.42241" lon="5.68282">
        <ele>839.99</ele>
        <time>2015-06-21T09:35:50Z</time>
      </trkpt>
      <trkpt lat="45.42234" lon="5.68255">
        <ele>836.96</ele>
        <time>2015-06-21T09:36:00Z</time>
      </trkpt>
      <trkpt lat="45.42222" lon="5.6823">
        <ele>832.74</ele>
        <time>2015-06-21T09:36:06Z</time>
      </trkpt>
      <trkpt lat="45.42207" lon="5.68213">
        <ele>829.75</ele>
        <time>2015-06-21T09:36:09Z</time>
      </trkpt>
      <trkpt lat="45.42192" lon="5.68194">
        <ele>827.5</ele>
        <time>2015-06-21T09:36:11Z</time>
      </trkpt>
      <trkpt lat="45.42184" lon="5.6817">
        <ele>823.6</ele>
        <time>2015-06-21T09:36:13Z</time>
      </trkpt>
      <trkpt lat="45.42172" lon="5.68149">
        <ele>819.94</ele>
        <time>2015-06-21T09:36:16Z</time>
      </trkpt>
      <trkpt lat="45.42155" lon="5.68136">
        <ele>816.64</ele>
        <time>2015-06-21T09:36:19Z</time>
      </trkpt>
      <trkpt lat="45.42138" lon="5.68123">
        <ele>812.22</ele>
        <time>2015-06-21T09:36:22Z</time>
      </trkpt>
      <trkpt lat="45.4212" lon="5.68143">
        <ele>802.02</ele>
        <time>2015-06-21T09:36:27Z</time>
      </trkpt>
      <trkpt lat="45.421" lon="5.68152">
        <ele>796.48</ele>
        <time>2015-06-21T09:36:31Z</time>
      </trkpt>
      <trkpt lat="45.42096" lon="5.68124">
        <ele>788.38</ele>
        <time>2015-06-21T09:36:35Z</time>
      </trkpt>
      <trkpt lat="45.42091" lon="5.681">
        <ele>777.65</ele>
        <time>2015-06-21T09:36:41Z</time>
      </trkpt>
      <trkpt lat="45.42077" lon="5.6808">
        <ele>772.1</ele>
        <time>2015-06-21T09:36:49Z</time>
      </trkpt>
      <trkpt lat="45.42062" lon="5.68066">
        <ele>770.01</ele>
        <time>2015-06-21T09:36:53Z</time>
      </trkpt>
      <trkpt lat="45.42048" lon="5.68043">
        <ele>767.29</ele>
        <time>2015-06-21T09:36:58Z</time>
      </trkpt>
      <trkpt lat="45.42034" lon="5.68028">
        <ele>769.01</ele>
        <time>2015-06-21T09:37:01Z</time>
      </trkpt>
      <trkpt lat="45.42016" lon="5.68015">
        <ele>770.27</ele>
        <time>2015-06-21T09:37:06Z</time>
      </trkpt>
      <trkpt lat="45.41995" lon="5.68006">
        <ele>769.57</ele>
        <time>2015-06-21T09:37:09Z</time>
      </trkpt>
      <trkpt lat="45.41985" lon="5.68028">
        <ele>759.37</ele>
        <time>2015-06-21T09:37:20Z</time>
      </trkpt>
      <trkpt lat="45.41998" lon="5.68053">
        <ele>749.59</ele>
        <time>2015-06-21T09:37:26Z</time>
      </trkpt>
      <trkpt lat="45.42009" lon="5.68078">
        <ele>743.43</ele>
        <time>2015-06-21T09:37:32Z</time>
      </trkpt>
      <trkpt lat="45.42013" lon="5.68103">
        <ele>730.79</ele>
        <time>2015-06-21T09:37:41Z</time>
      </trkpt>
      <trkpt lat="45.42024" lon="5.68124">
        <ele>719.18</ele>
        <time>2015-06-21T09:37:53Z</time>
      </trkpt>
      <trkpt lat="45.42029" lon="5.6815">
        <ele>717.14</ele>
        <time>2015-06-21T09:38:07Z</time>
      </trkpt>
      <trkpt lat="45.42034" lon="5.68176">
        <ele>720.46</ele>
        <time>2015-06-21T09:38:18Z</time>
      </trkpt>
      <trkpt lat="45.42047" lon="5.68196">
        <ele>721.94</ele>
        <time>2015-06-21T09:38:31Z</time>
      </trkpt>
      <trkpt lat="45.42063" lon="5.6821">
        <ele>723.63</ele>
        <time>2015-06-21T09:38:48Z</time>
      </trkpt>
      <trkpt lat="45.4208" lon="5.6822">
        <ele>725.73</ele>
        <time>2015-06-21T09:39:00Z</time>
      </trkpt>
      <trkpt lat="45.42095" lon="5.68234">
        <ele>728.41</ele>
        <time>2015-06-21T09:39:14Z</time>
      </trkpt>
      <trkpt lat="45.4209" lon="5.68265">
        <ele>731.64</ele>
        <time>2015-06-21T09:39:26Z</time>
      </trkpt>
      <trkpt lat="45.42081" lon="5.68294">
        <ele>730.33</ele>
        <time>2015-06-21T09:39:30Z</time>
      </trkpt>
      <trkpt lat="45.42077" lon="5.68322">
        <ele>725.9</ele>
        <time>2015-06-21T09:39:34Z</time>
      </trkpt>
      <trkpt lat="45.42063" lon="5.6834">
        <ele>721.85</ele>
        <time>2015-06-21T09:39:40Z</time>
      </trkpt>
      <trkpt lat="45.42048" lon="5.6836">
        <ele>719.51</ele>
        <time>2015-06-21T09:39:43Z</time>
      </trkpt>
      <trkpt lat="45.42039" lon="5.68389">
        <ele>714.32</ele>
        <time>2015-06-21T09:39:46Z</time>
      </trkpt>
      <trkpt lat="45.42024" lon="5.68406">
        <ele>711.99</ele>
        <time>2015-06-21T09:39:52Z</time>
      </trkpt>
      <trkpt lat="45.42006" lon="5.68411">
        <ele>710.53</ele>
        <time>2015-06-21T09:39:57Z</time>
      </trkpt>
      <trkpt lat="45.41988" lon="5.68418">
        <ele>707.48</ele>
        <time>2015-06-21T09:40:05Z</time>
      </trkpt>
      <trkpt lat="45.4197" lon="5.6843">
        <ele>704.32</ele>
        <time>2015-06-21T09:40:11Z</time>
      </trkpt>
      <trkpt lat="45.41954" lon="5.68447">
        <ele>700.97</ele>
        <time>2015-06-21T09:40:16Z</time>
      </trkpt>
      <trkpt lat="45.4193" lon="5.68458">
        <ele>697.92</ele>
        <time>2015-06-21T09:40:20Z</time>
      </trkpt>
      <trkpt lat="45.41913" lon="5.68468">
        <ele>690.76</ele>
        <time>2015-06-21T09:40:26Z</time>
      </trkpt>
      <trkpt lat="45.41895" lon="5.68478">
        <ele>681.85</ele>
        <time>2015-06-21T09:40:31Z</time>
      </trkpt>
      <trkpt lat="45.41875" lon="5.68484">
        <ele>675.56</ele>
        <time>2015-06-21T09:40:37Z</time>
      </trkpt>
      <trkpt lat="45.41869" lon="5.68509">
        <ele>665.57</ele>
        <time>2015-06-21T09:40:46Z</time>
      </trkpt>
      <trkpt lat="45.4186" lon="5.68532">
        <ele>662.69</ele>
        <time>2015-06-21T09:40:53Z</time>
      </trkpt>
      <trkpt lat="45.41845" lon="5.68547">
        <ele>660.91</ele>
        <time>2015-06-21T09:41:00Z</time>
      </trkpt>
      <trkpt lat="45.41826" lon="5.68553">
        <ele>659.95</ele>
        <time>2015-06-21T09:41:08Z</time>
      </trkpt>
      <trkpt lat="45.41809" lon="5.68542">
        <ele>664.26</ele>
        <time>2015-06-21T09:41:14Z</time>
      </trkpt>
      <trkpt lat="45.41798" lon="5.68521">
        <ele>671.97</ele>
        <time>2015-06-21T09:41:19Z</time>
      </trkpt>
      <trkpt lat="45.41781" lon="5.68514">
        <ele>682.79</ele>
        <time>2015-06-21T09:41:28Z</time>
      </trkpt>
      <trkpt lat="45.41782" lon="5.68488">
        <ele>680.96</ele>
        <time>2015-06-21T09:41:40Z</time>
      </trkpt>
      <trkpt lat="45.41778" lon="5.68463">
        <ele>677.81</ele>
        <time>2015-06-21T09:41:53Z</time>
      </trkpt>
      <trkpt lat="45.41772" lon="5.68438">
        <ele>679.46</ele>
        <time>2015-06-21T09:42:26Z</time>
      </trkpt>
      <trkpt lat="45.41773" lon="5.6841">
        <ele>678.32</ele>
        <time>2015-06-21T09:42:51Z</time>
      </trkpt>
      <trkpt lat="45.41777" lon="5.68385">
        <ele>674.26</ele>
        <time>2015-06-21T09:43:11Z</time>
      </trkpt>
      <trkpt lat="45.41758" lon="5.68378">
        <ele>673.04</ele>
        <time>2015-06-21T09:43:46Z</time>
      </trkpt>
      <trkpt lat="45.41738" lon="5.68374">
        <ele>674.58</ele>
        <time>2015-06-21T09:43:52Z</time>
      </trkpt>
      <trkpt lat="45.4172" lon="5.68379">
        <ele>675.09</ele>
        <time>2015-06-21T09:44:02Z</time>
      </trkpt>
      <trkpt lat="45.41704" lon="5.68397">
        <ele>671.28</ele>
        <time>2015-06-21T09:44:21Z</time>
      </trkpt>
      <trkpt lat="45.41684" lon="5.6841">
        <ele>667.84</ele>
        <time>2015-06-21T09:44:27Z</time>
      </trkpt>
      <trkpt lat="45.41668" lon="5.68395">
        <ele>658.93</ele>
        <time>2015-06-21T09:44:34Z</time>
      </trkpt>
      <trkpt lat="45.41654" lon="5.68372">
        <ele>661.34</ele>
        <time>2015-06-21T09:44:40Z</time>
      </trkpt>
      <trkpt lat="45.41633" lon="5.68369">
        <ele>661.68</ele>
        <time>2015-06-21T09:44:48Z</time>
      </trkpt>
      <trkpt lat="45.41619" lon="5.68384">
        <ele>653.2</ele>
        <time>2015-06-21T09:44:57Z</time>
      </trkpt>
      <trkpt lat="45.41604" lon="5.68405">
        <ele>650.28</ele>
        <time>2015-06-21T09:45:05Z</time>
      </trkpt>
      <trkpt lat="45.41596" lon="5.68431">
        <ele>646.52</ele>
        <time>2015-06-21T09:45:09Z</time>
      </trkpt>
      <trkpt lat="45.41598" lon="5.68467">
        <ele>642.03</ele>
        <time>2015-06-21T09:45:14Z</time>
      </trkpt>
      <trkpt lat="45.41594" lon="5.68494">
        <ele>635.22</ele>
        <time>2015-06-21T09:45:18Z</time>
      </trkpt>
      <trkpt lat="45.41591" lon="5.68521">
        <ele>626.24</ele>
        <time>2015-06-21T09:45:23Z</time>
      </trkpt>
      <trkpt lat="45.4157" lon="5.68513">
        <ele>616.17</ele>
        <time>2015-06-21T09:45:33Z</time>
      </trkpt>
      <trkpt lat="45.4155" lon="5.68511">
        <ele>612.82</ele>
        <time>2015-06-21T09:45:38Z</time>
      </trkpt>
      <trkpt lat="45.4153" lon="5.68501">
        <ele>610.31</ele>
        <time>2015-06-21T09:45:41Z</time>
      </trkpt>
      <trkpt lat="45.41508" lon="5.68506">
        <ele>607.22</ele>
        <time>2015-06-21T09:45:43Z</time>
      </trkpt>
      <trkpt lat="45.4149" lon="5.68502">
        <ele>601.83</ele>
        <time>2015-06-21T09:45:51Z</time>
      </trkpt>
      <trkpt lat="45.41477" lon="5.68477">
        <ele>598.99</ele>
        <time>2015-06-21T09:45:59Z</time>
      </trkpt>
      <trkpt lat="45.41461" lon="5.68458">
        <ele>599.04</ele>
        <time>2015-06-21T09:46:06Z</time>
      </trkpt>
      <trkpt lat="45.41446" lon="5.68439">
        <ele>600.5</ele>
        <time>2015-06-21T09:46:09Z</time>
      </trkpt>
      <trkpt lat="45.41428" lon="5.6843">
        <ele>602.49</ele>
        <time>2015-06-21T09:46:12Z</time>
      </trkpt>
      <trkpt lat="45.4142" lon="5.68404">
        <ele>603.11</ele>
        <time>2015-06-21T09:46:17Z</time>
      </trkpt>
      <trkpt lat="45.41423" lon="5.68378">
        <ele>605.6</ele>
        <time>2015-06-21T09:46:22Z</time>
      </trkpt>
      <trkpt lat="45.41419" lon="5.68351">
        <ele>605.18</ele>
        <time>2015-06-21T09:46:29Z</time>
      </trkpt>
      <trkpt lat="45.4141" lon="5.68327">
        <ele>609.67</ele>
        <time>2015-06-21T09:46:38Z</time>
      </trkpt>
      <trkpt lat="45.41397" lon="5.68309">
        <ele>616.07</ele>
        <time>2015-06-21T09:46:49Z</time>
      </trkpt>
      <trkpt lat="45.41387" lon="5.68329">
        <ele>601.34</ele>
        <time>2015-06-21T09:47:02Z</time>
      </trkpt>
      <trkpt lat="45.41393" lon="5.68354">
        <ele>587.76</ele>
        <time>2015-06-21T09:47:18Z</time>
      </trkpt>
      <trkpt lat="45.41391" lon="5.68382">
        <ele>589.33</ele>
        <time>2015-06-21T09:47:27Z</time>
      </trkpt>
      <trkpt lat="45.4138" lon="5.68404">
        <ele>592.43</ele>
        <time>2015-06-21T09:47:40Z</time>
      </trkpt>
      <trkpt lat="45.41361" lon="5.68411">
        <ele>593.53</ele>
        <time>2015-06-21T09:47:56Z</time>
      </trkpt>
      <trkpt lat="45.41342" lon="5.68412">
        <ele>595.08</ele>
        <time>2015-06-21T09:48:07Z</time>
      </trkpt>
      <trkpt lat="45.41323" lon="5.68405">
        <ele>597.34</ele>
        <time>2015-06-21T09:48:21Z</time>
      </trkpt>
      <trkpt lat="45.41308" lon="5.68389">
        <ele>603.08</ele>
        <time>2015-06-21T09:48:43Z</time>
      </trkpt>
      <trkpt lat="45.41292" lon="5.68374">
        <ele>606.33</ele>
        <time>2015-06-21T09:48:58Z</time>
      </trkpt>
      <trkpt lat="45.41273" lon="5.6837">
        <ele>609.02</ele>
        <time>2015-06-21T09:49:13Z</time>
      </trkpt>
      <trkpt lat="45.41252" lon="5.68376">
        <ele>609.23</ele>
        <time>2015-06-21T09:49:22Z</time>
      </trkpt>
      <trkpt lat="45.41237" lon="5.68361">
        <ele>610.73</ele>
        <time>2015-06-21T09:49:42Z</time>
      </trkpt>
      <trkpt lat="45.41218" lon="5.6836">
        <ele>611.76</ele>
        <time>2015-06-21T09:49:52Z</time>
      </trkpt>
      <trkpt lat="45.41199" lon="5.68358">
        <ele>613.1</ele>
        <time>2015-06-21T09:50:04Z</time>
      </trkpt>
      <trkpt lat="45.41195" lon="5.68332">
        <ele>618.41</ele>
        <time>2015-06-21T09:50:27Z</time>
      </trkpt>
      <trkpt lat="45.41211" lon="5.68346">
        <ele>626.11</ele>
        <time>2015-06-21T09:51:10Z</time>
      </trkpt>
      <trkpt lat="45.41224" lon="5.68365">
        <ele>627.46</ele>
        <time>2015-06-21T09:51:42Z</time>
      </trkpt>
      <trkpt lat="45.41236" lon="5.68345">
        <ele>620.78</ele>
        <time>2015-06-21T09:52:48Z</time>
      </trkpt>
      <trkpt lat="45.41218" lon="5.68344">
        <ele>620.18</ele>
        <time>2015-06-21T09:53:27Z</time>
      </trkpt>
      <trkpt lat="45.412" lon="5.68337">
        <ele>620.63</ele>
        <time>2015-06-21T09:53:36Z</time>
      </trkpt>
      <trkpt lat="45.41189" lon="5.68358">
        <ele>618.19</ele>
        <time>2015-06-21T09:53:50Z</time>
      </trkpt>
      <trkpt lat="45.41171" lon="5.68368">
        <ele>620.61</ele>
        <time>2015-06-21T09:53:59Z</time>
      </trkpt>
      <trkpt lat="45.41147" lon="5.68361">
        <ele>618.02</ele>
        <time>2015-06-21T09:54:04Z</time>
      </trkpt>
      <trkpt lat="45.41125" lon="5.68359">
        <ele>614.65</ele>
        <time>2015-06-21T09:54:08Z</time>
      </trkpt>
      <trkpt lat="45.41103" lon="5.6836">
        <ele>611.84</ele>
        <time>2015-06-21T09:54:13Z</time>
      </trkpt>
      <trkpt lat="45.41083" lon="5.68377">
        <ele>610.82</ele>
        <time>2015-06-21T09:54:17Z</time>
      </trkpt>
      <trkpt lat="45.41066" lon="5.68394">
        <ele>610.68</ele>
        <time>2015-06-21T09:54:22Z</time>
      </trkpt>
      <trkpt lat="45.4105" lon="5.68408">
        <ele>611.1</ele>
        <time>2015-06-21T09:54:26Z</time>
      </trkpt>
      <trkpt lat="45.41031" lon="5.68405">
        <ele>611.19</ele>
        <time>2015-06-21T09:54:31Z</time>
      </trkpt>
      <trkpt lat="45.41011" lon="5.68401">
        <ele>611.02</ele>
        <time>2015-06-21T09:54:36Z</time>
      </trkpt>
      <trkpt lat="45.4099" lon="5.68399">
        <ele>609.84</ele>
        <time>2015-06-21T09:54:41Z</time>
      </trkpt>
      <trkpt lat="45.40972" lon="5.68396">
        <ele>608.72</ele>
        <time>2015-06-21T09:54:45Z</time>
      </trkpt>
      <trkpt lat="45.4095" lon="5.68393">
        <ele>608.2</ele>
        <time>2015-06-21T09:54:50Z</time>
      </trkpt>
      <trkpt lat="45.40929" lon="5.68389">
        <ele>607.89</ele>
        <time>2015-06-21T09:54:55Z</time>
      </trkpt>
      <trkpt lat="45.40907" lon="5.68386">
        <ele>607.72</ele>
        <time>2015-06-21T09:55:00Z</time>
      </trkpt>
      <trkpt lat="45.40887" lon="5.68382">
        <ele>607.6</ele>
        <time>2015-06-21T09:55:05Z</time>
      </trkpt>
      <trkpt lat="45.40881" lon="5.68357">
        <ele>606.52</ele>
        <time>2015-06-21T09:55:13Z</time>
      </trkpt>
      <trkpt lat="45.40892" lon="5.68336">
        <ele>607.19</ele>
        <time>2015-06-21T09:55:19Z</time>
      </trkpt>
      <trkpt lat="45.40904" lon="5.6831">
        <ele>607.55</ele>
        <time>2015-06-21T09:55:25Z</time>
      </trkpt>
      <trkpt lat="45.40915" lon="5.68286">
        <ele>606.98</ele>
        <time>2015-06-21T09:55:30Z</time>
      </trkpt>
      <trkpt lat="45.40928" lon="5.6826">
        <ele>606.92</ele>
        <time>2015-06-21T09:55:35Z</time>
      </trkpt>
      <trkpt lat="45.40939" lon="5.68236">
        <ele>607.74</ele>
        <time>2015-06-21T09:55:40Z</time>
      </trkpt>
      <trkpt lat="45.4095" lon="5.68212">
        <ele>611.22</ele>
        <time>2015-06-21T09:55:46Z</time>
      </trkpt>
      <trkpt lat="45.40961" lon="5.68191">
        <ele>612.64</ele>
        <time>2015-06-21T09:55:55Z</time>
      </trkpt>
      <trkpt lat="45.40972" lon="5.68168">
        <ele>614.71</ele>
        <time>2015-06-21T09:56:05Z</time>
      </trkpt>
      <trkpt lat="45.40978" lon="5.68142">
        <ele>616.09</ele>
        <time>2015-06-21T09:56:16Z</time>
      </trkpt>
      <trkpt lat="45.40985" lon="5.68118">
        <ele>617.6</ele>
        <time>2015-06-21T09:56:27Z</time>
      </trkpt>
      <trkpt lat="45.40992" lon="5.68093">
        <ele>618.33</ele>
        <time>2015-06-21T09:56:37Z</time>
      </trkpt>
      <trkpt lat="45.40988" lon="5.68067">
        <ele>618.96</ele>
        <time>2015-06-21T09:56:49Z</time>
      </trkpt>
      <trkpt lat="45.40973" lon="5.68051">
        <ele>618.7</ele>
        <time>2015-06-21T09:56:59Z</time>
      </trkpt>
      <trkpt lat="45.40958" lon="5.68036">
        <ele>620.22</ele>
        <time>2015-06-21T09:57:11Z</time>
      </trkpt>
      <trkpt lat="45.40943" lon="5.6802">
        <ele>621.67</ele>
        <time>2015-06-21T09:57:24Z</time>
      </trkpt>
      <trkpt lat="45.40927" lon="5.68004">
        <ele>623.97</ele>
        <time>2015-06-21T09:57:37Z</time>
      </trkpt>
      <trkpt lat="45.40914" lon="5.67987">
        <ele>627.32</ele>
        <time>2015-06-21T09:57:52Z</time>
      </trkpt>
      <trkpt lat="45.409" lon="5.6797">
        <ele>631.06</ele>
        <time>2015-06-21T09:58:07Z</time>
      </trkpt>
      <trkpt lat="45.40887" lon="5.67949">
        <ele>632.89</ele>
        <time>2015-06-21T09:58:20Z</time>
      </trkpt>
      <trkpt lat="45.40873" lon="5.67932">
        <ele>638.54</ele>
        <time>2015-06-21T09:58:30Z</time>
      </trkpt>
      <trkpt lat="45.40858" lon="5.67916">
        <ele>644.88</ele>
        <time>2015-06-21T09:58:44Z</time>
      </trkpt>
      <trkpt lat="45.40845" lon="5.67897">
        <ele>647.5</ele>
        <time>2015-06-21T09:58:54Z</time>
      </trkpt>
      <trkpt lat="45.40827" lon="5.6789">
        <ele>650.99</ele>
        <time>2015-06-21T09:59:11Z</time>
      </trkpt>
      <trkpt lat="45.40809" lon="5.67885">
        <ele>649.79</ele>
        <time>2015-06-21T09:59:23Z</time>
      </trkpt>
      <trkpt lat="45.40791" lon="5.67874">
        <ele>649.81</ele>
        <time>2015-06-21T09:59:30Z</time>
      </trkpt>
      <trkpt lat="45.40775" lon="5.6786">
        <ele>650.74</ele>
        <time>2015-06-21T09:59:37Z</time>
      </trkpt>
      <trkpt lat="45.40758" lon="5.67848">
        <ele>653.75</ele>
        <time>2015-06-21T09:59:44Z</time>
      </trkpt>
      <trkpt lat="45.40741" lon="5.67857">
        <ele>648.99</ele>
        <time>2015-06-21T09:59:50Z</time>
      </trkpt>
      <trkpt lat="45.40724" lon="5.67876">
        <ele>646.89</ele>
        <time>2015-06-21T09:59:56Z</time>
      </trkpt>
      <trkpt lat="45.40703" lon="5.67875">
        <ele>645.94</ele>
        <time>2015-06-21T10:00:01Z</time>
      </trkpt>
      <trkpt lat="45.40682" lon="5.67879">
        <ele>645.6</ele>
        <time>2015-06-21T10:00:06Z</time>
      </trkpt>
      <trkpt lat="45.40662" lon="5.67884">
        <ele>642.75</ele>
        <time>2015-06-21T10:00:12Z</time>
      </trkpt>
      <trkpt lat="45.40641" lon="5.67887">
        <ele>642.59</ele>
        <time>2015-06-21T10:00:18Z</time>
      </trkpt>
      <trkpt lat="45.40622" lon="5.6789">
        <ele>642.07</ele>
        <time>2015-06-21T10:00:23Z</time>
      </trkpt>
      <trkpt lat="45.40609" lon="5.67908">
        <ele>641</ele>
        <time>2015-06-21T10:00:29Z</time>
      </trkpt>
      <trkpt lat="45.40601" lon="5.67932">
        <ele>642.27</ele>
        <time>2015-06-21T10:00:37Z</time>
      </trkpt>
      <trkpt lat="45.40617" lon="5.67949">
        <ele>641.81</ele>
        <time>2015-06-21T10:00:43Z</time>
      </trkpt>
      <trkpt lat="45.40616" lon="5.67976">
        <ele>642.39</ele>
        <time>2015-06-21T10:00:54Z</time>
      </trkpt>
      <trkpt lat="45.40629" lon="5.67995">
        <ele>644.85</ele>
        <time>2015-06-21T10:01:01Z</time>
      </trkpt>
      <trkpt lat="45.40622" lon="5.68019">
        <ele>645.44</ele>
        <time>2015-06-21T10:01:18Z</time>
      </trkpt>
      <trkpt lat="45.40604" lon="5.68029">
        <ele>646.39</ele>
        <time>2015-06-21T10:01:24Z</time>
      </trkpt>
      <trkpt lat="45.4059" lon="5.68048">
        <ele>646.68</ele>
        <time>2015-06-21T10:01:30Z</time>
      </trkpt>
      <trkpt lat="45.40572" lon="5.68056">
        <ele>641.05</ele>
        <time>2015-06-21T10:01:40Z</time>
      </trkpt>
      <trkpt lat="45.40553" lon="5.68051">
        <ele>639.74</ele>
        <time>2015-06-21T10:02:18Z</time>
      </trkpt>
      <trkpt lat="45.4054" lon="5.68033">
        <ele>639.34</ele>
        <time>2015-06-21T10:02:34Z</time>
      </trkpt>
      <trkpt lat="45.40522" lon="5.6803">
        <ele>640.27</ele>
        <time>2015-06-21T10:02:50Z</time>
      </trkpt>
      <trkpt lat="45.40503" lon="5.6803">
        <ele>641.46</ele>
        <time>2015-06-21T10:02:58Z</time>
      </trkpt>
      <trkpt lat="45.40484" lon="5.6803">
        <ele>642.66</ele>
        <time>2015-06-21T10:03:08Z</time>
      </trkpt>
      <trkpt lat="45.40465" lon="5.68025">
        <ele>643.44</ele>
        <time>2015-06-21T10:03:17Z</time>
      </trkpt>
      <trkpt lat="45.40444" lon="5.68021">
        <ele>644.67</ele>
        <time>2015-06-21T10:03:25Z</time>
      </trkpt>
      <trkpt lat="45.40424" lon="5.68014">
        <ele>645.87</ele>
        <time>2015-06-21T10:03:33Z</time>
      </trkpt>
      <trkpt lat="45.40406" lon="5.6801">
        <ele>645.64</ele>
        <time>2015-06-21T10:03:44Z</time>
      </trkpt>
      <trkpt lat="45.40386" lon="5.68007">
        <ele>645.17</ele>
        <time>2015-06-21T10:03:52Z</time>
      </trkpt>
      <trkpt lat="45.40368" lon="5.67999">
        <ele>646.39</ele>
        <time>2015-06-21T10:03:58Z</time>
      </trkpt>
      <trkpt lat="45.40349" lon="5.6799">
        <ele>645.9</ele>
        <time>2015-06-21T10:04:03Z</time>
      </trkpt>
      <trkpt lat="45.4033" lon="5.6799">
        <ele>644.08</ele>
        <time>2015-06-21T10:04:11Z</time>
      </trkpt>
      <trkpt lat="45.40309" lon="5.67984">
        <ele>644.03</ele>
        <time>2015-06-21T10:04:18Z</time>
      </trkpt>
      <trkpt lat="45.40292" lon="5.67973">
        <ele>643.47</ele>
        <time>2015-06-21T10:04:22Z</time>
      </trkpt>
      <trkpt lat="45.4028" lon="5.67952">
        <ele>646.46</ele>
        <time>2015-06-21T10:04:30Z</time>
      </trkpt>
      <trkpt lat="45.4027" lon="5.67929">
        <ele>648.91</ele>
        <time>2015-06-21T10:04:38Z</time>
      </trkpt>
      <trkpt lat="45.40266" lon="5.67902">
        <ele>650.1</ele>
        <time>2015-06-21T10:04:44Z</time>
      </trkpt>
      <trkpt lat="45.40267" lon="5.67875">
        <ele>660.62</ele>
        <time>2015-06-21T10:04:52Z</time>
      </trkpt>
      <trkpt lat="45.40273" lon="5.67851">
        <ele>664.19</ele>
        <time>2015-06-21T10:05:09Z</time>
      </trkpt>
      <trkpt lat="45.4027" lon="5.67822">
        <ele>658.8</ele>
        <time>2015-06-21T10:05:28Z</time>
      </trkpt>
      <trkpt lat="45.40262" lon="5.67798">
        <ele>654.35</ele>
        <time>2015-06-21T10:05:37Z</time>
      </trkpt>
      <trkpt lat="45.40259" lon="5.6777">
        <ele>651.51</ele>
        <time>2015-06-21T10:05:41Z</time>
      </trkpt>
      <trkpt lat="45.40259" lon="5.67742">
        <ele>643.86</ele>
        <time>2015-06-21T10:05:46Z</time>
      </trkpt>
      <trkpt lat="45.40248" lon="5.67719">
        <ele>639.44</ele>
        <time>2015-06-21T10:05:50Z</time>
      </trkpt>
      <trkpt lat="45.40248" lon="5.6769">
        <ele>635.84</ele>
        <time>2015-06-21T10:05:54Z</time>
      </trkpt>
      <trkpt lat="45.40241" lon="5.67664">
        <ele>634.12</ele>
        <time>2015-06-21T10:05:58Z</time>
      </trkpt>
      <trkpt lat="45.40243" lon="5.67635">
        <ele>636.67</ele>
        <time>2015-06-21T10:06:02Z</time>
      </trkpt>
      <trkpt lat="45.40225" lon="5.67625">
        <ele>637.08</ele>
        <time>2015-06-21T10:06:10Z</time>
      </trkpt>
      <trkpt lat="45.40208" lon="5.67638">
        <ele>636.79</ele>
        <time>2015-06-21T10:06:16Z</time>
      </trkpt>
      <trkpt lat="45.40189" lon="5.67644">
        <ele>638.07</ele>
        <time>2015-06-21T10:06:25Z</time>
      </trkpt>
      <trkpt lat="45.40171" lon="5.67654">
        <ele>638.69</ele>
        <time>2015-06-21T10:06:32Z</time>
      </trkpt>
      <trkpt lat="45.40151" lon="5.67653">
        <ele>638.89</ele>
        <time>2015-06-21T10:06:37Z</time>
      </trkpt>
      <trkpt lat="45.40128" lon="5.67649">
        <ele>637.46</ele>
        <time>2015-06-21T10:06:41Z</time>
      </trkpt>
      <trkpt lat="45.40108" lon="5.6765">
        <ele>636.29</ele>
        <time>2015-06-21T10:06:44Z</time>
      </trkpt>
      <trkpt lat="45.40089" lon="5.67651">
        <ele>636.55</ele>
        <time>2015-06-21T10:06:47Z</time>
      </trkpt>
      <trkpt lat="45.40071" lon="5.67661">
        <ele>636.76</ele>
        <time>2015-06-21T10:06:53Z</time>
      </trkpt>
      <trkpt lat="45.40053" lon="5.67682">
        <ele>629.46</ele>
        <time>2015-06-21T10:06:58Z</time>
      </trkpt>
      <trkpt lat="45.40034" lon="5.67697">
        <ele>624.27</ele>
        <time>2015-06-21T10:07:03Z</time>
      </trkpt>
      <trkpt lat="45.40022" lon="5.67721">
        <ele>621.35</ele>
        <time>2015-06-21T10:07:10Z</time>
      </trkpt>
      <trkpt lat="45.4001" lon="5.67744">
        <ele>615.47</ele>
        <time>2015-06-21T10:07:17Z</time>
      </trkpt>
      <trkpt lat="45.39994" lon="5.67762">
        <ele>611.82</ele>
        <time>2015-06-21T10:07:22Z</time>
      </trkpt>
      <trkpt lat="45.39976" lon="5.67754">
        <ele>608.58</ele>
        <time>2015-06-21T10:07:28Z</time>
      </trkpt>
      <trkpt lat="45.39959" lon="5.67738">
        <ele>609.94</ele>
        <time>2015-06-21T10:07:33Z</time>
      </trkpt>
      <trkpt lat="45.39943" lon="5.67723">
        <ele>613.06</ele>
        <time>2015-06-21T10:07:38Z</time>
      </trkpt>
      <trkpt lat="45.39923" lon="5.67715">
        <ele>614.94</ele>
        <time>2015-06-21T10:07:42Z</time>
      </trkpt>
      <trkpt lat="45.39905" lon="5.6771">
        <ele>617.65</ele>
        <time>2015-06-21T10:07:46Z</time>
      </trkpt>
      <trkpt lat="45.39885" lon="5.67701">
        <ele>613.5</ele>
        <time>2015-06-21T10:07:55Z</time>
      </trkpt>
      <trkpt lat="45.39865" lon="5.67696">
        <ele>610.54</ele>
        <time>2015-06-21T10:08:01Z</time>
      </trkpt>
      <trkpt lat="45.39847" lon="5.67685">
        <ele>609.17</ele>
        <time>2015-06-21T10:08:07Z</time>
      </trkpt>
      <trkpt lat="45.39836" lon="5.67663">
        <ele>606.76</ele>
        <time>2015-06-21T10:08:17Z</time>
      </trkpt>
      <trkpt lat="45.39825" lon="5.67642">
        <ele>607.93</ele>
        <time>2015-06-21T10:08:22Z</time>
      </trkpt>
      <trkpt lat="45.39812" lon="5.67616">
        <ele>610.16</ele>
        <time>2015-06-21T10:08:27Z</time>
      </trkpt>
      <trkpt lat="45.39794" lon="5.67605">
        <ele>608.58</ele>
        <time>2015-06-21T10:08:30Z</time>
      </trkpt>
      <trkpt lat="45.39775" lon="5.67599">
        <ele>603.6</ele>
        <time>2015-06-21T10:08:34Z</time>
      </trkpt>
      <trkpt lat="45.39753" lon="5.67593">
        <ele>597.66</ele>
        <time>2015-06-21T10:08:38Z</time>
      </trkpt>
      <trkpt lat="45.39733" lon="5.6758">
        <ele>590.85</ele>
        <time>2015-06-21T10:08:44Z</time>
      </trkpt>
      <trkpt lat="45.39716" lon="5.6757">
        <ele>587.21</ele>
        <time>2015-06-21T10:08:51Z</time>
      </trkpt>
      <trkpt lat="45.39703" lon="5.67552">
        <ele>588.21</ele>
        <time>2015-06-21T10:09:00Z</time>
      </trkpt>
      <trkpt lat="45.397" lon="5.67526">
        <ele>590.05</ele>
        <time>2015-06-21T10:09:16Z</time>
      </trkpt>
      <trkpt lat="45.39718" lon="5.6753">
        <ele>587.71</ele>
        <time>2015-06-21T10:09:28Z</time>
      </trkpt>
      <trkpt lat="45.39736" lon="5.67537">
        <ele>584.38</ele>
        <time>2015-06-21T10:09:39Z</time>
      </trkpt>
      <trkpt lat="45.39756" lon="5.67541">
        <ele>582.68</ele>
        <time>2015-06-21T10:09:49Z</time>
      </trkpt>
      <trkpt lat="45.39776" lon="5.67534">
        <ele>582.52</ele>
        <time>2015-06-21T10:09:56Z</time>
      </trkpt>
      <trkpt lat="45.39793" lon="5.67543">
        <ele>578.33</ele>
        <time>2015-06-21T10:10:00Z</time>
      </trkpt>
      <trkpt lat="45.3981" lon="5.67553">
        <ele>571.76</ele>
        <time>2015-06-21T10:10:05Z</time>
      </trkpt>
      <trkpt lat="45.39831" lon="5.67562">
        <ele>565.13</ele>
        <time>2015-06-21T10:10:09Z</time>
      </trkpt>
      <trkpt lat="45.39854" lon="5.67561">
        <ele>566.06</ele>
        <time>2015-06-21T10:10:12Z</time>
      </trkpt>
      <trkpt lat="45.39872" lon="5.67549">
        <ele>576.95</ele>
        <time>2015-06-21T10:10:18Z</time>
      </trkpt>
      <trkpt lat="45.39887" lon="5.67533">
        <ele>588.27</ele>
        <time>2015-06-21T10:10:26Z</time>
      </trkpt>
      <trkpt lat="45.39894" lon="5.67503">
        <ele>596.98</ele>
        <time>2015-06-21T10:10:34Z</time>
      </trkpt>
      <trkpt lat="45.39908" lon="5.67486">
        <ele>601.08</ele>
        <time>2015-06-21T10:10:38Z</time>
      </trkpt>
      <trkpt lat="45.39928" lon="5.67481">
        <ele>603.19</ele>
        <time>2015-06-21T10:10:42Z</time>
      </trkpt>
      <trkpt lat="45.39946" lon="5.67477">
        <ele>597.59</ele>
        <time>2015-06-21T10:10:45Z</time>
      </trkpt>
      <trkpt lat="45.39968" lon="5.67465">
        <ele>589.71</ele>
        <time>2015-06-21T10:10:48Z</time>
      </trkpt>
      <trkpt lat="45.39985" lon="5.67441">
        <ele>581.63</ele>
        <time>2015-06-21T10:10:52Z</time>
      </trkpt>
      <trkpt lat="45.4" lon="5.67417">
        <ele>575.41</ele>
        <time>2015-06-21T10:10:56Z</time>
      </trkpt>
      <trkpt lat="45.40019" lon="5.67407">
        <ele>570.97</ele>
        <time>2015-06-21T10:10:59Z</time>
      </trkpt>
      <trkpt lat="45.4004" lon="5.67401">
        <ele>565.24</ele>
        <time>2015-06-21T10:11:02Z</time>
      </trkpt>
      <trkpt lat="45.40061" lon="5.674">
        <ele>561.74</ele>
        <time>2015-06-21T10:11:05Z</time>
      </trkpt>
      <trkpt lat="45.4008" lon="5.67396">
        <ele>560.66</ele>
        <time>2015-06-21T10:11:09Z</time>
      </trkpt>
      <trkpt lat="45.40102" lon="5.67391">
        <ele>562.66</ele>
        <time>2015-06-21T10:11:12Z</time>
      </trkpt>
      <trkpt lat="45.4012" lon="5.67375">
        <ele>567.19</ele>
        <time>2015-06-21T10:11:17Z</time>
      </trkpt>
      <trkpt lat="45.40134" lon="5.67355">
        <ele>571.65</ele>
        <time>2015-06-21T10:11:22Z</time>
      </trkpt>
      <trkpt lat="45.40157" lon="5.67353">
        <ele>571.47</ele>
        <time>2015-06-21T10:11:25Z</time>
      </trkpt>
      <trkpt lat="45.40176" lon="5.67355">
        <ele>567.87</ele>
        <time>2015-06-21T10:11:29Z</time>
      </trkpt>
      <trkpt lat="45.40194" lon="5.67356">
        <ele>563.61</ele>
        <time>2015-06-21T10:11:35Z</time>
      </trkpt>
      <trkpt lat="45.4021" lon="5.67343">
        <ele>565.08</ele>
        <time>2015-06-21T10:11:40Z</time>
      </trkpt>
      <trkpt lat="45.40222" lon="5.67321">
        <ele>562.71</ele>
        <time>2015-06-21T10:11:44Z</time>
      </trkpt>
      <trkpt lat="45.4024" lon="5.67305">
        <ele>554.67</ele>
        <time>2015-06-21T10:11:47Z</time>
      </trkpt>
      <trkpt lat="45.40262" lon="5.67295">
        <ele>541.66</ele>
        <time>2015-06-21T10:11:51Z</time>
      </trkpt>
      <trkpt lat="45.40282" lon="5.67289">
        <ele>532.54</ele>
        <time>2015-06-21T10:11:55Z</time>
      </trkpt>
      <trkpt lat="45.40304" lon="5.6729">
        <ele>522.29</ele>
        <time>2015-06-21T10:12:00Z</time>
      </trkpt>
      <trkpt lat="45.40321" lon="5.67279">
        <ele>517.79</ele>
        <time>2015-06-21T10:12:09Z</time>
      </trkpt>
      <trkpt lat="45.40323" lon="5.67254">
        <ele>515.03</ele>
        <time>2015-06-21T10:12:20Z</time>
      </trkpt>
      <trkpt lat="45.40333" lon="5.67228">
        <ele>508.9</ele>
        <time>2015-06-21T10:12:29Z</time>
      </trkpt>
      <trkpt lat="45.40338" lon="5.67198">
        <ele>508.68</ele>
        <time>2015-06-21T10:12:33Z</time>
      </trkpt>
      <trkpt lat="45.40338" lon="5.6717">
        <ele>502.94</ele>
        <time>2015-06-21T10:12:36Z</time>
      </trkpt>
      <trkpt lat="45.40332" lon="5.67142">
        <ele>497.31</ele>
        <time>2015-06-21T10:12:39Z</time>
      </trkpt>
      <trkpt lat="45.40319" lon="5.67122">
        <ele>490.91</ele>
        <time>2015-06-21T10:12:42Z</time>
      </trkpt>
      <trkpt lat="45.40299" lon="5.67114">
        <ele>484.55</ele>
        <time>2015-06-21T10:12:46Z</time>
      </trkpt>
      <trkpt lat="45.40277" lon="5.67118">
        <ele>480.91</ele>
        <time>2015-06-21T10:12:50Z</time>
      </trkpt>
      <trkpt lat="45.40255" lon="5.67122">
        <ele>479.05</ele>
        <time>2015-06-21T10:12:54Z</time>
      </trkpt>
      <trkpt lat="45.40236" lon="5.67121">
        <ele>477.63</ele>
        <time>2015-06-21T10:12:57Z</time>
      </trkpt>
      <trkpt lat="45.40216" lon="5.67116">
        <ele>476.14</ele>
        <time>2015-06-21T10:13:00Z</time>
      </trkpt>
      <trkpt lat="45.40195" lon="5.67109">
        <ele>475.13</ele>
        <time>2015-06-21T10:13:03Z</time>
      </trkpt>
      <trkpt lat="45.40175" lon="5.67104">
        <ele>473.78</ele>
        <time>2015-06-21T10:13:06Z</time>
      </trkpt>
      <trkpt lat="45.40152" lon="5.67098">
        <ele>472.36</ele>
        <time>2015-06-21T10:13:09Z</time>
      </trkpt>
      <trkpt lat="45.40129" lon="5.67094">
        <ele>471.31</ele>
        <time>2015-06-21T10:13:12Z</time>
      </trkpt>
      <trkpt lat="45.4011" lon="5.67085">
        <ele>471.16</ele>
        <time>2015-06-21T10:13:15Z</time>
      </trkpt>
      <trkpt lat="45.40087" lon="5.67076">
        <ele>470.45</ele>
        <time>2015-06-21T10:13:18Z</time>
      </trkpt>
      <trkpt lat="45.40066" lon="5.67065">
        <ele>469.17</ele>
        <time>2015-06-21T10:13:21Z</time>
      </trkpt>
      <trkpt lat="45.40044" lon="5.67058">
        <ele>467.65</ele>
        <time>2015-06-21T10:13:25Z</time>
      </trkpt>
      <trkpt lat="45.40026" lon="5.67056">
        <ele>467.27</ele>
        <time>2015-06-21T10:13:30Z</time>
      </trkpt>
      <trkpt lat="45.40003" lon="5.67059">
        <ele>467.69</ele>
        <time>2015-06-21T10:13:34Z</time>
      </trkpt>
      <trkpt lat="45.39982" lon="5.67062">
        <ele>468.86</ele>
        <time>2015-06-21T10:13:37Z</time>
      </trkpt>
      <trkpt lat="45.39961" lon="5.67065">
        <ele>469.03</ele>
        <time>2015-06-21T10:13:40Z</time>
      </trkpt>
      <trkpt lat="45.39939" lon="5.67067">
        <ele>468.79</ele>
        <time>2015-06-21T10:13:43Z</time>
      </trkpt>
      <trkpt lat="45.39917" lon="5.67071">
        <ele>467.98</ele>
        <time>2015-06-21T10:13:46Z</time>
      </trkpt>
      <trkpt lat="45.39897" lon="5.67075">
        <ele>465.58</ele>
        <time>2015-06-21T10:13:49Z</time>
      </trkpt>
      <trkpt lat="45.39877" lon="5.67082">
        <ele>464.26</ele>
        <time>2015-06-21T10:13:53Z</time>
      </trkpt>
      <trkpt lat="45.3987" lon="5.67107">
        <ele>461.9</ele>
        <time>2015-06-21T10:14:21Z</time>
      </trkpt>
      <trkpt lat="45.39865" lon="5.67132">
        <ele>463.23</ele>
        <time>2015-06-21T10:14:30Z</time>
      </trkpt>
      <trkpt lat="45.39873" lon="5.67108">
        <ele>466.59</ele>
        <time>2015-06-21T10:15:13Z</time>
      </trkpt>
      <trkpt lat="45.39867" lon="5.67083">
        <ele>471.15</ele>
        <time>2015-06-21T10:15:32Z</time>
      </trkpt>
      <trkpt lat="45.39849" lon="5.67069">
        <ele>470.73</ele>
        <time>2015-06-21T10:15:38Z</time>
      </trkpt>
      <trkpt lat="45.39834" lon="5.67052">
        <ele>469.25</ele>
        <time>2015-06-21T10:15:42Z</time>
      </trkpt>
      <trkpt lat="45.39821" lon="5.67035">
        <ele>466.57</ele>
        <time>2015-06-21T10:15:46Z</time>
      </trkpt>
      <trkpt lat="45.39811" lon="5.67011">
        <ele>463.95</ele>
        <time>2015-06-21T10:15:50Z</time>
      </trkpt>
      <trkpt lat="45.39802" lon="5.66984">
        <ele>462.67</ele>
        <time>2015-06-21T10:15:54Z</time>
      </trkpt>
      <trkpt lat="45.39793" lon="5.66955">
        <ele>461.42</ele>
        <time>2015-06-21T10:15:58Z</time>
      </trkpt>
      <trkpt lat="45.39784" lon="5.66929">
        <ele>460.64</ele>
        <time>2015-06-21T10:16:02Z</time>
      </trkpt>
      <trkpt lat="45.39768" lon="5.66911">
        <ele>458.9</ele>
        <time>2015-06-21T10:16:07Z</time>
      </trkpt>
      <trkpt lat="45.39753" lon="5.66924">
        <ele>453.47</ele>
        <time>2015-06-21T10:20:17Z</time>
      </trkpt>
    </trkseg>
  </trk>
</gpx>